Provisional Data: Ninemile Run near Walton, PA


Please select a monitoring station.
Please select start date.
Please select start date.

Toggle Unit: C/F Toggle Unit: C/F
Sample Time Temperature (C) Temperature (F) Specific Conductivity (mS/cm) pH   Turbidity (NTU+) DO (mg/L)
10/22/2021 12:00:00 AM 11.85 53.33 0.061 7.29 7.9 9.39
10/22/2021 12:15:00 AM 11.82 53.276 0.061 7.31 7.81 9.4
10/22/2021 12:30:00 AM 11.8 53.24 0.062 7.32 6.68 9.4
10/22/2021 12:45:00 AM 11.78 53.204 0.063 7.32 6.59 9.41
10/22/2021 1:00:00 AM 11.77 53.186 0.064 7.33 8.26 9.42
10/22/2021 1:15:00 AM 11.76 53.168 0.064 7.34 7.06 9.42
10/22/2021 1:30:00 AM 11.74 53.132 0.064 7.33 7.25 9.43
10/22/2021 1:45:00 AM 11.71 53.078 0.064 7.34 6.49 9.45
10/22/2021 2:00:00 AM 11.69 53.042 0.064 7.34 6.8 9.47
10/22/2021 2:15:00 AM 11.65 52.97 0.063 7.34 7.1 9.48
10/22/2021 2:30:00 AM 11.61 52.898 0.063 7.35 7.21 9.5
10/22/2021 2:45:00 AM 11.58 52.844 0.063 7.34 7.03 9.51
10/22/2021 3:00:00 AM 11.55 52.79 0.063 7.34 7.48 9.53
10/22/2021 3:15:00 AM 11.52 52.736 0.063 7.34 6.57 9.53
10/22/2021 3:30:00 AM 11.49 52.682 0.063 7.35 6.22 9.55
10/22/2021 3:45:00 AM 11.47 52.646 0.063 7.35 6.96 9.56
10/22/2021 4:00:00 AM 11.44 52.592 0.063 7.34 7.15 9.57
10/22/2021 4:15:00 AM 11.41 52.538 0.063 7.34 6.54 9.58
10/22/2021 4:30:00 AM 11.38 52.484 0.063 7.34 7.58 9.59
10/22/2021 4:45:00 AM 11.35 52.43 0.063 7.34 5.97 9.6
10/22/2021 5:00:00 AM 11.32 52.376 0.063 7.35 6.27 9.61
10/22/2021 5:15:00 AM 11.3 52.34 0.063 7.35 6.24 9.62
10/22/2021 5:30:00 AM 11.27 52.286 0.063 7.35 6.37 9.62
10/22/2021 5:45:00 AM 11.24 52.232 0.063 7.34 5.77 9.63
10/22/2021 6:00:00 AM 11.22 52.196 0.062 7.34 5.51 9.65
10/22/2021 6:15:00 AM 11.19 52.142 0.062 7.34 5.32 9.65
10/22/2021 6:30:00 AM 11.16 52.088 0.062 7.34 5.54 9.66
10/22/2021 6:45:00 AM 11.13 52.034 0.062 7.33 5.63 9.66
10/22/2021 7:00:00 AM 11.1 51.98 0.062 7.33 5.37 9.68
10/22/2021 7:15:00 AM 11.07 51.926 0.062 7.33 5.24 9.68
10/22/2021 7:30:00 AM 11.04 51.872 0.062 7.34 5.04 9.68
10/22/2021 7:45:00 AM 11.01 51.818 0.063 7.33 4.93 9.72
10/22/2021 8:00:00 AM 10.99 51.782 0.063 7.34 4.78 9.76
10/22/2021 8:15:00 AM 10.99 51.782 0.063 7.36 5.24 9.82
10/22/2021 8:30:00 AM 10.98 51.764 0.063 7.36 4.92 9.86
10/22/2021 8:45:00 AM 10.99 51.782 0.063 7.38 4.96 9.91
10/22/2021 9:00:00 AM 11 51.8 0.063 7.39 4.54 9.98
10/22/2021 9:15:00 AM 11 51.8 0.063 7.4 5.06 9.98
10/22/2021 9:30:00 AM 11.01 51.818 0.063 7.41 4.41 10.04
10/22/2021 9:45:00 AM 11.03 51.854 0.063 7.43 4.3 10.1
10/22/2021 10:00:00 AM 11.04 51.872 0.063 7.44 4.56 10.1
10/22/2021 10:15:00 AM 11.04 51.872 0.063 7.45 5.06 10.13
10/22/2021 10:30:00 AM 11.07 51.926 0.063 7.48 4.23 10.19
10/22/2021 10:45:00 AM 11.08 51.944 0.063 7.48 4.23 10.17
10/22/2021 11:00:00 AM 11.06 51.908 0.063 7.48 4.32 10.17
10/22/2021 11:15:00 AM 11.07 51.926 0.063 7.48 4.45 10.19
10/22/2021 11:30:00 AM 11.13 52.034 0.063 7.52 4.22 10.27
10/22/2021 11:45:00 AM 11.18 52.124 0.063 7.53 4.42 10.29
10/22/2021 12:00:00 PM 11.18 52.124 0.063 7.52 4.22 10.25
10/22/2021 12:15:00 PM 11.16 52.088 0.063 7.52 4.31 10.23
10/22/2021 12:30:00 PM 11.19 52.142 0.063 7.52 4.35 10.26
10/22/2021 12:45:00 PM 11.21 52.178 0.063 7.54 4.08 10.29
10/22/2021 1:00:00 PM 11.26 52.268 0.063 7.57 4.25 10.33
10/22/2021 1:15:00 PM 11.31 52.358 0.063 7.59 4.12 10.34
10/22/2021 1:30:00 PM 11.36 52.448 0.063 7.59 3.96 10.35
10/22/2021 1:45:00 PM 11.4 52.52 0.063 7.6 4.24 10.35
10/22/2021 2:00:00 PM 11.49 52.682 0.063 7.62 4.02 10.35
10/22/2021 2:15:00 PM 11.56 52.808 0.063 7.62 4.31 10.32
10/22/2021 2:30:00 PM 11.61 52.898 0.063 7.62 4.24 10.32
10/22/2021 2:45:00 PM 11.64 52.952 0.063 7.62 4.54 10.29
10/22/2021 3:00:00 PM 11.68 53.024 0.063 7.63 4.11 10.28
10/22/2021 3:15:00 PM 11.65 52.97 0.063 7.6 4.7 10.21
10/22/2021 3:30:00 PM 11.56 52.808 0.063 7.56 4.34 10.15
10/22/2021 3:45:00 PM 11.49 52.682 0.063 7.55 4.3 10.15
10/22/2021 4:00:00 PM 11.45 52.61 0.063 7.55 4.24 10.12
10/22/2021 4:15:00 PM 11.37 52.466 0.063 7.53 4.12 10.09
10/22/2021 4:30:00 PM 11.3 52.34 0.063 7.52 4.17 10.11
10/22/2021 4:45:00 PM 11.27 52.286 0.063 7.53 4.13 10.12
10/22/2021 5:00:00 PM 11.19 52.142 0.063 7.52 4.21 10.11
10/22/2021 5:15:00 PM 11.12 52.016 0.063 7.5 4.55 10.08
10/22/2021 5:30:00 PM 11.06 51.908 0.063 7.49 4.02 10.04
10/22/2021 5:45:00 PM 10.98 51.764 0.063 7.47 4.47 10.01
10/22/2021 6:00:00 PM 10.9 51.62 0.063 7.44 4.43 9.99
10/22/2021 6:15:00 PM 10.8 51.44 0.063 7.43 4.3 9.96
10/22/2021 6:30:00 PM 10.69 51.242 0.063 7.41 4.45 9.94
10/22/2021 6:45:00 PM 10.6 51.08 0.064 7.4 4.42 9.92
10/22/2021 7:00:00 PM 10.5 50.9 0.064 7.38 4.29 9.92
10/22/2021 7:15:00 PM 10.42 50.756 0.063 7.37 4.36 9.93
10/22/2021 7:30:00 PM 10.34 50.612 0.064 7.36 4.38 9.93
10/22/2021 7:45:00 PM 10.25 50.45 0.064 7.35 4.4 9.94
10/22/2021 8:00:00 PM 10.16 50.288 0.064 7.34 4.67 9.95
10/22/2021 8:15:00 PM 10.07 50.126 0.064 7.34 4.62 9.97
10/22/2021 8:30:00 PM 9.98 49.964 0.064 7.33 4.99 9.99
10/22/2021 8:45:00 PM 9.89 49.802 0.064 7.32 4.34 10.01
10/22/2021 9:00:00 PM 9.8 49.64 0.064 7.32 4.42 10.03
10/22/2021 9:15:00 PM 9.74 49.532 0.064 7.32 4.32 10.04
10/22/2021 9:30:00 PM 9.65 49.37 0.064 7.33 4.43 10.06
10/22/2021 9:45:00 PM 9.56 49.208 0.064 7.31 4.31 10.09
10/22/2021 10:00:00 PM 9.5 49.1 0.064 7.32 4.47 10.11
10/22/2021 10:15:00 PM 9.46 49.028 0.064 7.32 4.01 10.12
10/22/2021 10:30:00 PM 9.41 48.938 0.064 7.33 4.48 10.14
10/22/2021 10:45:00 PM 9.36 48.848 0.064 7.32 4.39 10.15
10/22/2021 11:00:00 PM 9.32 48.776 0.064 7.32 4.49 10.17
10/22/2021 11:15:00 PM 9.28 48.704 0.064 7.32 4.24 10.18
10/22/2021 11:30:00 PM 9.24 48.632 0.064 7.32 4.71 10.2
10/22/2021 11:45:00 PM 9.2 48.56 0.064 7.32 4.8 10.21
10/23/2021 12:00:00 AM 9.17 48.506 0.064 7.32 5 10.23
10/23/2021 12:15:00 AM 9.13 48.434 0.064 7.32 4.82 10.23
10/23/2021 12:30:00 AM 9.1 48.38 0.064 7.32 4.7 10.24
10/23/2021 12:45:00 AM 9.07 48.326 0.064 7.31 4.54 10.25
10/23/2021 1:00:00 AM 9.04 48.272 0.064 7.32 4.76 10.25
10/23/2021 1:15:00 AM 9.01 48.218 0.064 7.31 4.79 10.26
10/23/2021 1:30:00 AM 8.97 48.146 0.064 7.31 4.79 10.27
10/23/2021 1:45:00 AM 8.96 48.128 0.064 7.31 4.42 10.28
10/23/2021 2:00:00 AM 8.94 48.092 0.064 7.31 4.24 10.28
10/23/2021 2:15:00 AM 8.92 48.056 0.064 7.31 4.85 10.28
10/23/2021 2:30:00 AM 8.9 48.02 0.064 7.32 4.5 10.3
10/23/2021 2:45:00 AM 8.88 47.984 0.064 7.31 4.21 10.3
10/23/2021 3:00:00 AM 8.86 47.948 0.064 7.31 4.35 10.31
10/23/2021 3:15:00 AM 8.84 47.912 0.063 7.31 4.19 10.31
10/23/2021 3:30:00 AM 8.82 47.876 0.063 7.31 4.37 10.32
10/23/2021 3:45:00 AM 8.8 47.84 0.063 7.31 4.31 10.33
10/23/2021 4:00:00 AM 8.78 47.804 0.063 7.31 4.08 10.33
10/23/2021 4:15:00 AM 8.77 47.786 0.063 7.31 4.64 10.34
10/23/2021 4:30:00 AM 8.75 47.75 0.063 7.31 4.26 10.34
10/23/2021 4:45:00 AM 8.73 47.714 0.063 7.31 4.29 10.34
10/23/2021 5:00:00 AM 8.71 47.678 0.063 7.31 4.11 10.35
10/23/2021 5:15:00 AM 8.69 47.642 0.063 7.31 4.27 10.36
10/23/2021 5:30:00 AM 8.65 47.57 0.063 7.3 4.27 10.36
10/23/2021 5:45:00 AM 8.6 47.48 0.063 7.29 4.7 10.37
10/23/2021 6:00:00 AM 8.57 47.426 0.063 7.3 4.84 10.38
10/23/2021 6:15:00 AM 8.52 47.336 0.063 7.29 4.65 10.39
10/23/2021 6:30:00 AM 8.49 47.282 0.063 7.29 4.82 10.4
10/23/2021 6:45:00 AM 8.47 47.246 0.063 7.29 4.69 10.4
10/23/2021 7:00:00 AM 8.45 47.21 0.063 7.3 4.62 10.41
10/23/2021 7:15:00 AM 8.43 47.174 0.063 7.3 5.31 10.42
10/23/2021 7:30:00 AM 8.41 47.138 0.063 7.3 5.25 10.43
10/23/2021 7:45:00 AM 8.4 47.12 0.063 7.3 4.73 10.44
10/23/2021 8:00:00 AM 8.39 47.102 0.063 7.31 4.57 10.46
10/23/2021 8:15:00 AM 8.38 47.084 0.063 7.31 4.57 10.5
10/23/2021 8:30:00 AM 8.37 47.066 0.063 7.32 4.15 10.52
10/23/2021 8:45:00 AM 8.36 47.048 0.062 7.32 4.33 10.54
10/23/2021 9:00:00 AM 8.37 47.066 0.062 7.33 4.06 10.62
10/23/2021 9:15:00 AM 8.38 47.084 0.062 7.35 4.17 10.68
10/23/2021 9:30:00 AM 8.39 47.102 0.062 7.36 3.9 10.71
10/23/2021 9:45:00 AM 8.4 47.12 0.062 7.37 3.88 10.75
10/23/2021 10:00:00 AM 8.42 47.156 0.062 7.38 3.98 10.76
10/23/2021 10:15:00 AM 8.44 47.192 0.062 7.4 4.2 10.81
10/23/2021 10:30:00 AM 8.48 47.264 0.061 7.42 3.92 10.86
10/23/2021 10:45:00 AM 8.52 47.336 0.061 7.43 3.93 10.88
10/23/2021 11:00:00 AM 8.56 47.408 0.061 7.44 3.69 10.91
10/23/2021 11:15:00 AM 8.63 47.534 0.061 7.46 3.85 10.94
10/23/2021 11:30:00 AM 8.68 47.624 0.061 7.47 3.92 10.94
10/23/2021 11:45:00 AM 8.71 47.678 0.061 7.47 4.02 10.91
10/23/2021 12:00:00 PM 8.8 47.84 0.061 7.5 4.15 10.94
10/23/2021 12:15:00 PM 8.89 48.002 0.061 7.51 4.2 10.97
10/23/2021 12:30:00 PM 8.97 48.146 0.061 7.53 3.95 10.96
10/23/2021 12:45:00 PM 9.05 48.29 0.061 7.54 4.01 10.96
10/23/2021 1:00:00 PM 9.14 48.452 0.06 7.56 3.6 10.96
10/23/2021 1:15:00 PM 9.21 48.578 0.06 7.56 3.64 10.93
10/23/2021 1:30:00 PM 9.25 48.65 0.06 7.55 4.01 10.9
10/23/2021 1:45:00 PM 9.32 48.776 0.06 7.56 3.91 10.9
10/23/2021 2:00:00 PM 9.42 48.956 0.06 7.58 4.02 10.9
10/23/2021 2:15:00 PM 9.46 49.028 0.06 7.57 3.85 10.85
10/23/2021 2:30:00 PM 9.5 49.1 0.06 7.58 3.91 10.84
10/23/2021 2:45:00 PM 9.53 49.154 0.06 7.57 4.09 10.83
10/23/2021 3:00:00 PM 9.55 49.19 0.06 7.57 3.94 10.78
10/23/2021 3:15:00 PM 9.56 49.208 0.06 7.56 3.91 10.76
10/23/2021 3:30:00 PM 9.57 49.226 0.06 7.56 3.81 10.75
10/23/2021 3:45:00 PM 9.58 49.244 0.06 7.55 3.68 10.72
10/23/2021 4:00:00 PM 9.58 49.244 0.06 7.55 3.93 10.7
10/23/2021 4:15:00 PM 9.57 49.226 0.06 7.55 3.71 10.7
10/23/2021 4:30:00 PM 9.56 49.208 0.06 7.54 3.86 10.68
10/23/2021 4:45:00 PM 9.55 49.19 0.06 7.52 3.62 10.61
10/23/2021 5:00:00 PM 9.54 49.172 0.06 7.51 4.02 10.56
10/23/2021 5:15:00 PM 9.53 49.154 0.06 7.5 3.8 10.54
10/23/2021 5:30:00 PM 9.51 49.118 0.06 7.48 4.16 10.5
10/23/2021 5:45:00 PM 9.48 49.064 0.06 7.46 4.02 10.45
10/23/2021 6:00:00 PM 9.45 49.01 0.061 7.44 3.76 10.4
10/23/2021 6:15:00 PM 9.41 48.938 0.061 7.43 4.05 10.36
10/23/2021 6:30:00 PM 9.39 48.902 0.061 7.42 3.98 10.33
10/23/2021 6:45:00 PM 9.35 48.83 0.061 7.4 4.1 10.3
10/23/2021 7:00:00 PM 9.32 48.776 0.061 7.4 3.98 10.29
10/23/2021 7:15:00 PM 9.3 48.74 0.061 7.38 4.06 10.27
10/23/2021 7:30:00 PM 9.27 48.686 0.061 7.38 4.21 10.26
10/23/2021 7:45:00 PM 9.24 48.632 0.061 7.38 4.68 10.26
10/23/2021 8:00:00 PM 9.22 48.596 0.061 7.37 4.15 10.26
10/23/2021 8:15:00 PM 9.19 48.542 0.061 7.37 4.27 10.26
10/23/2021 8:30:00 PM 9.16 48.488 0.061 7.36 4.28 10.27
10/23/2021 8:45:00 PM 9.14 48.452 0.061 7.35 3.85 10.27
10/23/2021 9:00:00 PM 9.11 48.398 0.061 7.36 4.19 10.28
10/23/2021 9:15:00 PM 9.08 48.344 0.061 7.36 4.01 10.29
10/23/2021 9:30:00 PM 9.06 48.308 0.061 7.36 4.02 10.29
10/23/2021 9:45:00 PM 9.03 48.254 0.061 7.35 3.75 10.3
10/23/2021 10:00:00 PM 9.01 48.218 0.061 7.35 4.1 10.31
10/23/2021 10:15:00 PM 8.99 48.182 0.061 7.35 4.43 10.31
10/23/2021 10:30:00 PM 8.97 48.146 0.061 7.35 4.01 10.32
10/23/2021 10:45:00 PM 8.95 48.11 0.061 7.35 4.24 10.33
10/23/2021 11:00:00 PM 8.93 48.074 0.061 7.34 4.21 10.34
10/23/2021 11:15:00 PM 8.91 48.038 0.061 7.34 4.29 10.34
10/23/2021 11:30:00 PM 8.89 48.002 0.061 7.34 4.2 10.34
10/23/2021 11:45:00 PM 8.86 47.948 0.061 7.34 4.05 10.35
10/24/2021 12:00:00 AM 8.83 47.894 0.061 7.33 4.25 10.35
10/24/2021 12:15:00 AM 8.78 47.804 0.061 7.33 4.26 10.37
10/24/2021 12:30:00 AM 8.73 47.714 0.061 7.32 4.29 10.38
10/24/2021 12:45:00 AM 8.67 47.606 0.061 7.32 4.19 10.39
10/24/2021 1:00:00 AM 8.61 47.498 0.061 7.32 4.34 10.4
10/24/2021 1:15:00 AM 8.57 47.426 0.061 7.31 4.17 10.41
10/24/2021 1:30:00 AM 8.54 47.372 0.061 7.32 4.12 10.43
10/24/2021 1:45:00 AM 8.52 47.336 0.061 7.32 3.9 10.44
10/24/2021 2:00:00 AM 8.49 47.282 0.061 7.32 4.13 10.45
10/24/2021 2:15:00 AM 8.47 47.246 0.061 7.32 4.17 10.46
10/24/2021 2:30:00 AM 8.45 47.21 0.061 7.32 4.09 10.47
10/24/2021 2:45:00 AM 8.43 47.174 0.061 7.32 4.19 10.47
10/24/2021 3:00:00 AM 8.41 47.138 0.061 7.32 4.23 10.49
10/24/2021 3:15:00 AM 8.38 47.084 0.061 7.32 4.2 10.5
10/24/2021 3:30:00 AM 8.34 47.012 0.061 7.32 4.19 10.5
10/24/2021 3:45:00 AM 8.31 46.958 0.061 7.32 4.03 10.5
10/24/2021 4:00:00 AM 8.29 46.922 0.061 7.31 4.13 10.52
10/24/2021 4:15:00 AM 8.27 46.886 0.061 7.31 3.99 10.52
10/24/2021 4:30:00 AM 8.25 46.85 0.061 7.31 3.83 10.54
10/24/2021 4:45:00 AM 8.23 46.814 0.061 7.31 3.79 10.53
10/24/2021 5:00:00 AM 8.22 46.796 0.061 7.31 3.86 10.54
10/24/2021 5:15:00 AM 8.21 46.778 0.061 7.31 4.02 10.55
10/24/2021 5:30:00 AM 8.18 46.724 0.061 7.31 4.14 10.55
10/24/2021 5:45:00 AM 8.16 46.688 0.061 7.31 4.01 10.56
10/24/2021 6:00:00 AM 8.14 46.652 0.061 7.31 4.23 10.56
10/24/2021 6:15:00 AM 8.13 46.634 0.061 7.31 4.14 10.56
10/24/2021 6:30:00 AM 8.11 46.598 0.061 7.31 4.46 10.57
10/24/2021 6:45:00 AM 8.1 46.58 0.061 7.31 4.32 10.58
10/24/2021 7:00:00 AM 8.09 46.562 0.061 7.31 4.52 10.58
10/24/2021 7:15:00 AM 8.08 46.544 0.061 7.31 4.5 10.59
10/24/2021 7:30:00 AM 8.07 46.526 0.061 7.31 4.27 10.6
10/24/2021 7:45:00 AM 8.06 46.508 0.061 7.31 4.14 10.61
10/24/2021 8:00:00 AM 8.05 46.49 0.061 7.31 4.3 10.64
10/24/2021 8:15:00 AM 8.04 46.472 0.061 7.32 4.13 10.69
10/24/2021 8:30:00 AM 8.05 46.49 0.061 7.34 4.42 10.75
10/24/2021 8:45:00 AM 8.06 46.508 0.061 7.36 4.13 10.78
10/24/2021 9:00:00 AM 8.08 46.544 0.06 7.36 3.99 10.81
10/24/2021 9:15:00 AM 8.12 46.616 0.06 7.38 3.85 10.89
10/24/2021 9:30:00 AM 8.16 46.688 0.06 7.4 3.83 10.95
10/24/2021 9:45:00 AM 8.21 46.778 0.06 7.43 3.88 10.99
10/24/2021 10:00:00 AM 8.27 46.886 0.06 7.44 3.86 11
10/24/2021 10:15:00 AM 8.32 46.976 0.06 7.46 4.1 11.01
10/24/2021 10:30:00 AM 8.39 47.102 0.06 7.47 3.91 11.02
10/24/2021 10:45:00 AM 8.45 47.21 0.06 7.49 3.73 11.05
10/24/2021 11:00:00 AM 8.52 47.336 0.06 7.5 3.85 11.05
10/24/2021 11:15:00 AM 8.58 47.444 0.06 7.51 3.83 11.06
10/24/2021 11:30:00 AM 8.65 47.57 0.059 7.52 3.78 11.05
10/24/2021 11:45:00 AM 8.72 47.696 0.059 7.53 3.58 11.06
10/24/2021 12:00:00 PM 8.79 47.822 0.059 7.54 3.64 11.04
10/24/2021 12:15:00 PM 8.86 47.948 0.059 7.54 3.94 11.02
10/24/2021 12:30:00 PM 8.95 48.11 0.059 7.55 3.6 11.03
10/24/2021 12:45:00 PM 9.01 48.218 0.059 7.56 3.63 11
10/24/2021 1:00:00 PM 9.07 48.326 0.059 7.56 3.89 10.98
10/24/2021 1:15:00 PM 9.13 48.434 0.059 7.57 3.87 10.96
10/24/2021 1:30:00 PM 9.17 48.506 0.059 7.56 3.7 10.92
10/24/2021 1:45:00 PM 9.21 48.578 0.059 7.56 4.14 10.88
10/24/2021 2:00:00 PM 9.26 48.668 0.059 7.56 3.68 10.87
10/24/2021 2:15:00 PM 9.31 48.758 0.059 7.57 3.94 10.87
10/24/2021 2:30:00 PM 9.35 48.83 0.059 7.56 4.12 10.83
10/24/2021 2:45:00 PM 9.36 48.848 0.059 7.55 3.66 10.77
10/24/2021 3:00:00 PM 9.38 48.884 0.059 7.54 3.65 10.72
10/24/2021 3:15:00 PM 9.39 48.902 0.059 7.52 4.56 10.67
10/24/2021 3:30:00 PM 9.4 48.92 0.059 7.51 3.82 10.63
10/24/2021 3:45:00 PM 9.41 48.938 0.059 7.5 3.91 10.61
10/24/2021 4:00:00 PM 9.41 48.938 0.059 7.49 3.54 10.58
10/24/2021 4:15:00 PM 9.4 48.92 0.059 7.47 3.56 10.52
10/24/2021 4:30:00 PM 9.39 48.902 0.06 7.46 3.5 10.47
10/24/2021 4:45:00 PM 9.39 48.902 0.06 7.45 3.98 10.47
10/24/2021 5:00:00 PM 9.39 48.902 0.06 7.45 3.88 10.45
10/24/2021 5:15:00 PM 9.39 48.902 0.06 7.44 3.97 10.43
10/24/2021 5:30:00 PM 9.38 48.884 0.06 7.43 3.89 10.4
10/24/2021 5:45:00 PM 9.38 48.884 0.06 7.43 4.19 10.37
10/24/2021 6:00:00 PM 9.37 48.866 0.06 7.41 3.72 10.34
10/24/2021 6:15:00 PM 9.36 48.848 0.06 7.4 3.69 10.32
10/24/2021 6:30:00 PM 9.35 48.83 0.06 7.39 3.96 10.3
10/24/2021 6:45:00 PM 9.34 48.812 0.06 7.38 3.94 10.29
10/24/2021 7:00:00 PM 9.33 48.794 0.06 7.37 4.28 10.27
10/24/2021 7:15:00 PM 9.32 48.776 0.06 7.37 4.33 10.27
10/24/2021 7:30:00 PM 9.31 48.758 0.06 7.36 4.35 10.26
10/24/2021 7:45:00 PM 9.31 48.758 0.06 7.36 4.24 10.25
10/24/2021 8:00:00 PM 9.31 48.758 0.06 7.36 4.11 10.25
10/24/2021 8:15:00 PM 9.3 48.74 0.06 7.35 4.2 10.24
10/24/2021 8:30:00 PM 9.3 48.74 0.06 7.34 4.61 10.24
10/24/2021 8:45:00 PM 9.3 48.74 0.06 7.34 4.11 10.23
10/24/2021 9:00:00 PM 9.29 48.722 0.06 7.34 4.19 10.23
10/24/2021 9:15:00 PM 9.29 48.722 0.06 7.34 4.57 10.24
10/24/2021 9:30:00 PM 9.29 48.722 0.06 7.34 4.28 10.24
10/24/2021 9:45:00 PM 9.28 48.704 0.06 7.33 4.54 10.24
10/24/2021 10:00:00 PM 9.28 48.704 0.06 7.33 4.39 10.23
10/24/2021 10:15:00 PM 9.27 48.686 0.06 7.32 5 10.24
10/24/2021 10:30:00 PM 9.27 48.686 0.06 7.32 4.57 10.22
10/24/2021 10:45:00 PM 9.27 48.686 0.06 7.32 4.49 10.23
10/24/2021 11:00:00 PM 9.26 48.668 0.06 7.31 4.52 10.22
10/24/2021 11:15:00 PM 9.26 48.668 0.06 7.3 4.81 10.22
10/24/2021 11:30:00 PM 9.26 48.668 0.06 7.31 5.16 10.22
10/24/2021 11:45:00 PM 9.27 48.686 0.061 7.3 4.96 10.21
10/25/2021 12:00:00 AM 9.27 48.686 0.061 7.3 5.14 10.21
10/25/2021 12:15:00 AM 9.27 48.686 0.061 7.3 6.79 10.21
10/25/2021 12:30:00 AM 9.28 48.704 0.061 7.3 5.55 10.2
10/25/2021 12:45:00 AM 9.29 48.722 0.061 7.3 5.39 10.2
10/25/2021 1:00:00 AM 9.29 48.722 0.062 7.29 5.41 10.2
10/25/2021 1:15:00 AM 9.29 48.722 0.062 7.3 5.21 10.2
10/25/2021 1:30:00 AM 9.3 48.74 0.062 7.29 6.12 10.2
10/25/2021 1:45:00 AM 9.3 48.74 0.062 7.29 6.02 10.2
10/25/2021 2:00:00 AM 9.3 48.74 0.062 7.29 6.34 10.2
10/25/2021 2:15:00 AM 9.31 48.758 0.062 7.3 7.46 10.19
10/25/2021 2:30:00 AM 9.32 48.776 0.063 7.29 7.48 10.19
10/25/2021 2:45:00 AM 9.33 48.794 0.063 7.29 6.79 10.18
10/25/2021 3:00:00 AM 9.34 48.812 0.063 7.28 7.11 10.17
10/25/2021 3:15:00 AM 9.35 48.83 0.063 7.29 8.04 10.17
10/25/2021 3:30:00 AM 9.36 48.848 0.063 7.28 7.65 10.17
10/25/2021 3:45:00 AM 9.36 48.848 0.064 7.28 6.92 10.17
10/25/2021 4:00:00 AM 9.34 48.812 0.065 7.29 7.83 10.17
10/25/2021 4:15:00 AM 9.33 48.794 0.066 7.3 8.85 10.17
10/25/2021 4:30:00 AM 9.32 48.776 0.066 7.3 7.7 10.17
10/25/2021 4:45:00 AM 9.31 48.758 0.066 7.3 8.69 10.17
10/25/2021 5:00:00 AM 9.3 48.74 0.066 7.31 8.57 10.17
10/25/2021 5:15:00 AM 9.3 48.74 0.066 7.31 8.13 10.18
10/25/2021 5:30:00 AM 9.3 48.74 0.066 7.3 8.31 10.19
10/25/2021 5:45:00 AM 9.3 48.74 0.065 7.3 8 10.19
10/25/2021 6:00:00 AM 9.3 48.74 0.066 7.3 7.76 10.19
10/25/2021 6:15:00 AM 9.29 48.722 0.066 7.3 7.41 10.2
10/25/2021 6:30:00 AM 9.28 48.704 0.066 7.3 8.47 10.2
10/25/2021 6:45:00 AM 9.26 48.668 0.066 7.3 7.82 10.2
10/25/2021 7:00:00 AM 9.25 48.65 0.066 7.29 7.82 10.21
10/25/2021 7:15:00 AM 9.24 48.632 0.066 7.3 7.52 10.21
10/25/2021 7:30:00 AM 9.22 48.596 0.066 7.29 6.97 10.22
10/25/2021 7:45:00 AM 9.21 48.578 0.066 7.29 6.9 10.22
10/25/2021 8:00:00 AM 9.2 48.56 0.067 7.3 6.87 10.25
10/25/2021 8:15:00 AM 9.19 48.542 0.067 7.3 6.37 10.27
10/25/2021 8:30:00 AM 9.18 48.524 0.067 7.31 6.63 10.3
10/25/2021 8:45:00 AM 9.19 48.542 0.067 7.32 6.42 10.34
10/25/2021 9:00:00 AM 9.2 48.56 0.067 7.33 6.28 10.37
10/25/2021 9:15:00 AM 9.21 48.578 0.067 7.34 6.05 10.4
10/25/2021 9:30:00 AM 9.24 48.632 0.068 7.35 6.11 10.43
10/25/2021 9:45:00 AM 9.27 48.686 0.068 7.36 5.86 10.45
10/25/2021 10:00:00 AM 9.32 48.776 0.068 7.38 5.59 10.48
10/25/2021 10:15:00 AM 9.38 48.884 0.068 7.4 5.49 10.49
10/25/2021 10:30:00 AM 9.46 49.028 0.07 7.41 5.74 10.5
10/25/2021 10:45:00 AM 9.55 49.19 0.069 7.43 5.91 10.51
10/25/2021 11:00:00 AM 9.65 49.37 0.069 7.45 5.11 10.5
10/25/2021 11:15:00 AM 9.77 49.586 0.069 7.47 5.62 10.51
10/25/2021 11:30:00 AM 9.88 49.784 0.069 7.49 5.15 10.51
10/25/2021 11:45:00 AM 10.01 50.018 0.07 7.5 5.54 10.5
10/25/2021 12:00:00 PM 10.14 50.252 0.07 7.51 5.01 10.49
10/25/2021 12:15:00 PM 10.28 50.504 0.07 7.52 5.13 10.47
10/25/2021 12:30:00 PM 10.42 50.756 0.07 7.54 5.63 10.46
10/25/2021 12:45:00 PM 10.57 51.026 0.07 7.55 5.02 10.44
10/25/2021 1:00:00 PM 10.71 51.278 0.07 7.57 5.65 10.4
10/25/2021 1:15:00 PM 10.86 51.548 0.07 7.58 4.71 10.37
10/25/2021 1:30:00 PM 10.98 51.764 0.069 7.58 5.14 10.36
10/25/2021 1:45:00 PM 11.11 51.998 0.069 7.6 5.24 10.36
10/25/2021 2:00:00 PM 11.18 52.124 0.069 7.6 5.07 10.32
10/25/2021 2:15:00 PM 11.21 52.178 0.069 7.59 4.41 10.27
10/25/2021 2:30:00 PM 11.27 52.286 0.069 7.6 5.27 10.27
10/25/2021 2:45:00 PM 11.36 52.448 0.069 7.62 5.02 10.27
10/25/2021 3:00:00 PM 11.48 52.664 0.069 7.64 4.38 10.25
10/25/2021 3:15:00 PM 11.57 52.826 0.068 7.64 4.91 10.22
10/25/2021 3:30:00 PM 11.63 52.934 0.068 7.63 5.35 10.18
10/25/2021 3:45:00 PM 11.67 53.006 0.068 7.63 4.8 10.15
10/25/2021 4:00:00 PM 11.67 53.006 0.068 7.6 5.16 10.08
10/25/2021 4:15:00 PM 11.65 52.97 0.068 7.59 4.71 10.04
10/25/2021 4:30:00 PM 11.63 52.934 0.068 7.57 4.44 9.99
10/25/2021 4:45:00 PM 11.61 52.898 0.068 7.55 4.96 9.94
10/25/2021 5:00:00 PM 11.61 52.898 0.068 7.54 4.75 9.92
10/25/2021 5:15:00 PM 11.61 52.898 0.068 7.52 4.9 9.9
10/25/2021 5:30:00 PM 11.62 52.916 0.068 7.53 4.68 9.9
10/25/2021 5:45:00 PM 11.6 52.88 0.068 7.5 4.93 9.82
10/25/2021 6:00:00 PM 11.56 52.808 0.068 7.48 6.18 9.76
10/25/2021 6:15:00 PM 11.53 52.754 0.068 7.46 4.79 9.73
10/25/2021 6:30:00 PM 11.5 52.7 0.068 7.44 5.36 9.71
10/25/2021 6:45:00 PM 11.47 52.646 0.068 7.42 5.03 9.69
10/25/2021 7:00:00 PM 11.45 52.61 0.068 7.41 4.63 9.66
10/25/2021 7:15:00 PM 11.43 52.574 0.068 7.4 5.05 9.65
10/25/2021 7:30:00 PM 11.41 52.538 0.068 7.39 5.02 9.64
10/25/2021 7:45:00 PM 11.4 52.52 0.068 7.38 5.02 9.64
10/25/2021 8:00:00 PM 11.38 52.484 0.068 7.38 5.06 9.63
10/25/2021 8:15:00 PM 11.37 52.466 0.068 7.37 4.87 9.63
10/25/2021 8:30:00 PM 11.35 52.43 0.068 7.36 4.83 9.63
10/25/2021 8:45:00 PM 11.32 52.376 0.068 7.36 4.98 9.64
10/25/2021 9:00:00 PM 11.3 52.34 0.067 7.35 4.93 9.64
10/25/2021 9:15:00 PM 11.28 52.304 0.067 7.35 4.97 9.65
10/25/2021 9:30:00 PM 11.26 52.268 0.067 7.34 4.92 9.66
10/25/2021 9:45:00 PM 11.24 52.232 0.067 7.34 4.37 9.66
10/25/2021 10:00:00 PM 11.22 52.196 0.067 7.33 4.59 9.65
10/25/2021 10:15:00 PM 11.2 52.16 0.067 7.33 4.54 9.67
10/25/2021 10:30:00 PM 11.17 52.106 0.067 7.33 4.69 9.67
10/25/2021 10:45:00 PM 11.15 52.07 0.067 7.32 5.17 9.67
10/25/2021 11:00:00 PM 11.12 52.016 0.066 7.32 4.85 9.68
10/25/2021 11:15:00 PM 11.1 51.98 0.066 7.32 4.69 9.69
10/25/2021 11:30:00 PM 11.08 51.944 0.066 7.33 4.95 9.7
10/25/2021 11:45:00 PM 11.08 51.944 0.066 7.34 5.01 9.69
10/26/2021 12:00:00 AM 11.06 51.908 0.066 7.34 5.07 9.69
10/26/2021 12:15:00 AM 11.04 51.872 0.065 7.34 5.31 9.71
10/26/2021 12:30:00 AM 11.02 51.836 0.065 7.33 5.23 9.69
10/26/2021 12:45:00 AM 11 51.8 0.065 7.33 5.63 9.69
10/26/2021 1:00:00 AM 10.98 51.764 0.065 7.32 5.08 9.7
10/26/2021 1:15:00 AM 10.96 51.728 0.065 7.32 5.07 9.69
10/26/2021 1:30:00 AM 10.95 51.71 0.065 7.32 4.93 9.7
10/26/2021 1:45:00 AM 10.93 51.674 0.065 7.32 5.59 9.71
10/26/2021 2:00:00 AM 10.92 51.656 0.065 7.31 5.56 9.71
10/26/2021 2:15:00 AM 10.9 51.62 0.066 7.31 5.41 9.7
10/26/2021 2:30:00 AM 10.88 51.584 0.066 7.31 5.64 9.7
10/26/2021 2:45:00 AM 10.86 51.548 0.066 7.32 5.99 9.71
10/26/2021 3:00:00 AM 10.84 51.512 0.066 7.32 5.51 9.72
10/26/2021 3:15:00 AM 10.83 51.494 0.067 7.32 5.66 9.72
10/26/2021 3:30:00 AM 10.81 51.458 0.067 7.31 5.67 9.73
10/26/2021 3:45:00 AM 10.8 51.44 0.067 7.32 5.64 9.73
10/26/2021 4:00:00 AM 10.78 51.404 0.067 7.31 5.62 9.73
10/26/2021 4:15:00 AM 10.77 51.386 0.066 7.31 5.44 9.74
10/26/2021 4:30:00 AM 10.76 51.368 0.066 7.31 5.37 9.75
10/26/2021 4:45:00 AM 10.75 51.35 0.066 7.31 5.64 9.74
10/26/2021 5:00:00 AM 10.73 51.314 0.066 7.31 5.77 9.76
10/26/2021 5:15:00 AM 10.72 51.296 0.066 7.31 5.17 9.76
10/26/2021 5:30:00 AM 10.7 51.26 0.066 7.31 5.05 9.77
10/26/2021 5:45:00 AM 10.69 51.242 0.066 7.3 5.3 9.77
10/26/2021 6:00:00 AM 10.67 51.206 0.066 7.3 5.3 9.77
10/26/2021 6:15:00 AM 10.65 51.17 0.066 7.3 5.65 9.77
10/26/2021 6:30:00 AM 10.64 51.152 0.065 7.3 5.39 9.78
10/26/2021 6:45:00 AM 10.63 51.134 0.065 7.3 5.98 9.78
10/26/2021 7:00:00 AM 10.62 51.116 0.065 7.3 5.65 9.79
10/26/2021 7:15:00 AM 10.61 51.098 0.065 7.31 5.27 9.79
10/26/2021 7:30:00 AM 10.6 51.08 0.065 7.31 5.4 9.8
10/26/2021 7:45:00 AM 10.6 51.08 0.065 7.31 5.32 9.8
10/26/2021 8:00:00 AM 10.59 51.062 0.065 7.33 5.12 9.81
10/26/2021 8:15:00 AM 10.58 51.044 0.065 7.34 5.5 9.83
10/26/2021 8:30:00 AM 10.57 51.026 0.065 7.35 5.15 9.84
10/26/2021 8:45:00 AM 10.56 51.008 0.064 7.36 5.1 9.86
10/26/2021 9:00:00 AM 10.54 50.972 0.064 7.36 5.32 9.88
10/26/2021 9:15:00 AM 10.52 50.936 0.064 7.37 5.09 9.91
10/26/2021 9:30:00 AM 10.5 50.9 0.064 7.38 4.93 9.93
10/26/2021 9:45:00 AM 10.47 50.846 0.063 7.38 5.03 9.97
10/26/2021 10:00:00 AM 10.44 50.792 0.063 7.39 5.09 10
10/26/2021 10:15:00 AM 10.42 50.756 0.063 7.4 5.06 10.05
10/26/2021 10:30:00 AM 10.4 50.72 0.063 7.4 5.15 10.06
10/26/2021 10:45:00 AM 10.37 50.666 0.063 7.41 5.33 10.1
10/26/2021 11:00:00 AM 10.34 50.612 0.063 7.41 5.34 10.11
10/26/2021 11:15:00 AM 10.31 50.558 0.063 7.42 5.53 10.15
10/26/2021 11:30:00 AM 10.29 50.522 0.063 7.43 5.6 10.18
10/26/2021 11:45:00 AM 10.26 50.468 0.063 7.43 5.62 10.19
10/26/2021 12:00:00 PM 10.24 50.432 0.063 7.44 5.37 10.2
10/26/2021 12:15:00 PM 10.21 50.378 0.063 7.44 5.88 10.23
10/26/2021 12:30:00 PM 10.18 50.324 0.063 7.44 5.78 10.23
10/26/2021 12:45:00 PM 10.15 50.27 0.063 7.45 6.09 10.23
10/26/2021 1:00:00 PM 10.12 50.216 0.063 7.45 5.94 10.25
10/26/2021 1:15:00 PM 10.11 50.198 0.063 7.45 5.45 10.27
10/26/2021 1:30:00 PM 10.09 50.162 0.063 7.45 5.63 10.29
10/26/2021 1:45:00 PM 10.07 50.126 0.063 7.46 6.35 10.32
10/26/2021 2:00:00 PM 10.05 50.09 0.062 7.46 5.96 10.32
10/26/2021 2:15:00 PM 10.01 50.018 0.062 7.46 5.73 10.32
10/26/2021 2:30:00 PM 9.96 49.928 0.062 7.45 6.1 10.32
10/26/2021 2:45:00 PM 9.91 49.838 0.062 7.45 8.31 10.31
10/26/2021 3:00:00 PM 9.87 49.766 0.062 7.44 6.91 10.31
10/26/2021 3:15:00 PM 9.82 49.676 0.062 7.44 6.2 10.31
10/26/2021 3:30:00 PM 9.77 49.586 0.062 7.43 6.48 10.3
10/26/2021 3:45:00 PM 9.73 49.514 0.062 7.42 6.58 10.29
10/26/2021 4:00:00 PM 9.67 49.406 0.062 7.41 6.75 10.27
10/26/2021 4:15:00 PM 9.61 49.298 0.062 7.4 7.82 10.26
10/26/2021 4:30:00 PM 9.56 49.208 0.062 7.39 7.05 10.25
10/26/2021 4:45:00 PM 9.51 49.118 0.062 7.38 7.2 10.24
10/26/2021 5:00:00 PM 9.46 49.028 0.063 7.37 7.41 10.23
10/26/2021 5:15:00 PM 9.41 48.938 0.063 7.36 7.45 10.21
10/26/2021 5:30:00 PM 9.37 48.866 0.063 7.34 7.88 10.2
10/26/2021 5:45:00 PM 9.33 48.794 0.063 7.33 8.39 10.19
10/26/2021 6:00:00 PM 9.28 48.704 0.063 7.33 8.25 10.19
10/26/2021 6:15:00 PM 9.24 48.632 0.064 7.31 9.67 10.18
10/26/2021 6:30:00 PM 9.21 48.578 0.064 7.32 10.1 10.17
10/26/2021 6:45:00 PM 9.18 48.524 0.065 7.31 9.99 10.18
10/26/2021 7:00:00 PM 9.16 48.488 0.065 7.31 11.07 10.18
10/26/2021 7:15:00 PM 9.13 48.434 0.065 7.3 11.15 10.18
10/26/2021 7:30:00 PM 9.1 48.38 0.066 7.3 11 10.19
10/26/2021 7:45:00 PM 9.08 48.344 0.066 7.3 11.77 10.2
10/26/2021 8:00:00 PM 9.06 48.308 0.066 7.31 10.83 10.21
10/26/2021 8:15:00 PM 9.03 48.254 0.066 7.31 11.48 10.22
10/26/2021 8:30:00 PM 9.01 48.218 0.066 7.31 10.78 10.23
10/26/2021 8:45:00 PM 8.99 48.182 0.066 7.3 11.01 10.23
10/26/2021 9:00:00 PM 8.98 48.164 0.066 7.31 10.96 10.24
10/26/2021 9:15:00 PM 8.96 48.128 0.065 7.31 10.94 10.24
10/26/2021 9:30:00 PM 8.95 48.11 0.066 7.31 10.8 10.26
10/26/2021 9:45:00 PM 8.94 48.092 0.065 7.32 9.57 10.27
10/26/2021 10:00:00 PM 8.93 48.074 0.065 7.31 10.71 10.27
10/26/2021 10:15:00 PM 8.93 48.074 0.065 7.32 10.76 10.28
10/26/2021 10:30:00 PM 8.93 48.074 0.065 7.31 10.12 10.29
10/26/2021 10:45:00 PM 8.92 48.056 0.065 7.31 9.81 10.3
10/26/2021 11:00:00 PM 8.93 48.074 0.065 7.31 9.86 10.3
10/26/2021 11:15:00 PM 8.93 48.074 0.065 7.31 9.75 10.31
10/26/2021 11:30:00 PM 8.93 48.074 0.065 7.31 10.37 10.31
10/26/2021 11:45:00 PM 8.93 48.074 0.065 7.31 9.7 10.31
10/27/2021 12:00:00 AM 8.94 48.092 0.065 7.31 9.11 10.31
10/27/2021 12:15:00 AM 8.95 48.11 0.065 7.31 8.84 10.3
10/27/2021 12:30:00 AM 8.96 48.128 0.065 7.31 9.96 10.31
10/27/2021 12:45:00 AM 8.96 48.128 0.066 7.31 8.71 10.31
10/27/2021 1:00:00 AM 8.98 48.164 0.066 7.32 9.4 10.31
10/27/2021 1:15:00 AM 8.99 48.182 0.066 7.31 9.18 10.3
10/27/2021 1:30:00 AM 9 48.2 0.066 7.32 9.05 10.31
10/27/2021 1:45:00 AM 9.01 48.218 0.066 7.31 8.78 10.3
10/27/2021 2:00:00 AM 9.03 48.254 0.066 7.31 8.69 10.3
10/27/2021 2:15:00 AM 9.04 48.272 0.065 7.31 8.79 10.3
10/27/2021 2:30:00 AM 9.06 48.308 0.065 7.31 8.68 10.3
10/27/2021 2:45:00 AM 9.07 48.326 0.065 7.3 7.72 10.29
10/27/2021 3:00:00 AM 9.09 48.362 0.065 7.31 7.92 10.29
10/27/2021 3:15:00 AM 9.1 48.38 0.064 7.3 7.93 10.3
10/27/2021 3:30:00 AM 9.12 48.416 0.064 7.31 7.76 10.29
10/27/2021 3:45:00 AM 9.13 48.434 0.064 7.3 7.84 10.28
10/27/2021 4:00:00 AM 9.15 48.47 0.064 7.3 8.2 10.28
10/27/2021 4:15:00 AM 9.16 48.488 0.064 7.3 7.47 10.28
10/27/2021 4:30:00 AM 9.18 48.524 0.063 7.3 7.39 10.27
10/27/2021 4:45:00 AM 9.2 48.56 0.063 7.31 7.74 10.27
10/27/2021 5:00:00 AM 9.21 48.578 0.063 7.3 7.4 10.27
10/27/2021 5:15:00 AM 9.22 48.596 0.063 7.3 7.92 10.27
10/27/2021 5:30:00 AM 9.23 48.614 0.063 7.31 7.01 10.27
10/27/2021 5:45:00 AM 9.24 48.632 0.062 7.3 7.58 10.27
10/27/2021 6:00:00 AM 9.25 48.65 0.062 7.31 7.18 10.27
10/27/2021 6:15:00 AM 9.26 48.668 0.062 7.31 7.98 10.27
10/27/2021 6:30:00 AM 9.27 48.686 0.062 7.3 7.62 10.27
10/27/2021 6:45:00 AM 9.28 48.704 0.062 7.3 7.1 10.27
10/27/2021 7:00:00 AM 9.29 48.722 0.061 7.3 7.59 10.27
10/27/2021 7:15:00 AM 9.3 48.74 0.061 7.3 7.3 10.27
10/27/2021 7:30:00 AM 9.3 48.74 0.061 7.3 7.68 10.27
10/27/2021 7:45:00 AM 9.31 48.758 0.061 7.3 6.91 10.27
10/27/2021 8:00:00 AM 9.31 48.758 0.06 7.3 7.01 10.28
10/27/2021 8:15:00 AM 9.32 48.776 0.06 7.3 7.03 10.29
10/27/2021 8:30:00 AM 9.33 48.794 0.06 7.3 7.27 10.3
10/27/2021 8:45:00 AM 9.34 48.812 0.06 7.31 6.95 10.32
10/27/2021 9:00:00 AM 9.35 48.83 0.06 7.31 6.68 10.35
10/27/2021 9:15:00 AM 9.36 48.848 0.059 7.31 7.42 10.36
10/27/2021 9:30:00 AM 9.38 48.884 0.059 7.33 7.09 10.4
10/27/2021 9:45:00 AM 9.4 48.92 0.059 7.34 7.21 10.42
10/27/2021 10:00:00 AM 9.43 48.974 0.059 7.35 7.28 10.45
10/27/2021 10:15:00 AM 9.46 49.028 0.059 7.36 7.7 10.48
10/27/2021 10:30:00 AM 9.5 49.1 0.058 7.37 7.83 10.51
10/27/2021 10:45:00 AM 9.54 49.172 0.058 7.38 6.81 10.52
10/27/2021 11:00:00 AM 9.6 49.28 0.058 7.38 7.29 10.54
10/27/2021 11:15:00 AM 9.67 49.406 0.057 7.4 6.17 10.54
10/27/2021 11:30:00 AM 9.75 49.55 0.057 7.41 6.82 10.54
10/27/2021 11:45:00 AM 9.81 49.658 0.057 7.42 6.96 10.54
10/27/2021 12:00:00 PM 9.85 49.73 0.057 7.41 8.64 10.53
10/27/2021 12:15:00 PM 9.91 49.838 0.057 7.42 7.21 10.51
10/27/2021 12:30:00 PM 9.98 49.964 0.057 7.42 7.18 10.49
10/27/2021 12:45:00 PM 10.06 50.108 0.057 7.43 6.91 10.47
10/27/2021 1:00:00 PM 10.15 50.27 0.057 7.42 6.9 10.45
10/27/2021 1:15:00 PM 10.23 50.414 0.056 7.44 7.47 10.43
10/27/2021 1:30:00 PM 10.29 50.522 0.056 7.44 8.34 10.41
10/27/2021 1:45:00 PM 10.34 50.612 0.056 7.43 7.19 10.4
10/27/2021 2:00:00 PM 10.39 50.702 0.056 7.44 6.8 10.38
10/27/2021 2:15:00 PM 10.44 50.792 0.056 7.43 7.04 10.37
10/27/2021 2:30:00 PM 10.48 50.864 0.056 7.43 7.21 10.35
10/27/2021 2:45:00 PM 10.53 50.954 0.056 7.43 6.87 10.32
10/27/2021 3:00:00 PM 10.56 51.008 0.055 7.43 6.55 10.3
10/27/2021 3:15:00 PM 10.59 51.062 0.055 7.43 7.8 10.29
10/27/2021 3:30:00 PM 10.6 51.08 0.055 7.42 7.16 10.27
10/27/2021 3:45:00 PM 10.6 51.08 0.055 7.41 7.08 10.26
10/27/2021 4:00:00 PM 10.6 51.08 0.055 7.41 8.12 10.24
10/27/2021 4:15:00 PM 10.58 51.044 0.055 7.4 8.85 10.23
10/27/2021 4:30:00 PM 10.55 50.99 0.055 7.39 7.58 10.22
10/27/2021 4:45:00 PM 10.51 50.918 0.055 7.38 6.81 10.2
10/27/2021 5:00:00 PM 10.46 50.828 0.055 7.37 7.15 10.19
10/27/2021 5:15:00 PM 10.4 50.72 0.055 7.36 7.37 10.18
10/27/2021 5:30:00 PM 10.34 50.612 0.055 7.34 6.99 10.17
10/27/2021 5:45:00 PM 10.28 50.504 0.055 7.33 7.47 10.16
10/27/2021 6:00:00 PM 10.21 50.378 0.055 7.32 7.61 10.15
10/27/2021 6:15:00 PM 10.15 50.27 0.055 7.3 7.2 10.14
10/27/2021 6:30:00 PM 10.08 50.144 0.054 7.29 6.64 10.14
10/27/2021 6:45:00 PM 10 50 0.054 7.26 9.22 10.14
10/27/2021 7:00:00 PM 9.93 49.874 0.054 7.28 8.24 10.15
10/27/2021 7:15:00 PM 9.86 49.748 0.054 7.25 7.33 10.16
10/27/2021 7:30:00 PM 9.78 49.604 0.054 7.26 7.52 10.18
10/27/2021 7:45:00 PM 9.7 49.46 0.054 7.25 7.99 10.19
10/27/2021 8:00:00 PM 9.63 49.334 0.054 7.24 8.01 10.22
10/27/2021 8:15:00 PM 9.55 49.19 0.054 7.23 7.62 10.24
10/27/2021 8:30:00 PM 9.48 49.064 0.054 7.23 9.3 10.26
10/27/2021 8:45:00 PM 9.41 48.938 0.054 7.23 7.39 10.28
10/27/2021 9:00:00 PM 9.34 48.812 0.054 7.23 7.37 10.29
10/27/2021 9:15:00 PM 9.28 48.704 0.054 7.23 7.8 10.31
10/27/2021 9:30:00 PM 9.21 48.578 0.053 7.21 7.38 10.33
10/27/2021 9:45:00 PM 9.14 48.452 0.053 7.22 7.26 10.35
10/27/2021 10:00:00 PM 9.08 48.344 0.053 7.22 7.18 10.36
10/27/2021 10:15:00 PM 9.01 48.218 0.053 7.21 8.2 10.39
10/27/2021 10:30:00 PM 8.95 48.11 0.053 7.21 7.79 10.4
10/27/2021 10:45:00 PM 8.89 48.002 0.053 7.21 7.61 10.42
10/27/2021 11:00:00 PM 8.84 47.912 0.053 7.2 9.91 10.44
10/27/2021 11:15:00 PM 8.78 47.804 0.053 7.2 8.42 10.45
10/27/2021 11:30:00 PM 8.73 47.714 0.053 7.2 7.08 10.46
10/27/2021 11:45:00 PM 8.68 47.624 0.053 7.2 7.06 10.48
10/28/2021 12:00:00 AM 8.63 47.534 0.053 7.2 7.44 10.49
10/28/2021 12:15:00 AM 8.58 47.444 0.052 7.19 7.75 10.51
10/28/2021 12:30:00 AM 8.54 47.372 0.052 7.2 7.81 10.51
10/28/2021 12:45:00 AM 8.49 47.282 0.052 7.2 7.68 10.52
10/28/2021 1:00:00 AM 8.45 47.21 0.052 7.19 8.07 10.54
10/28/2021 1:15:00 AM 8.41 47.138 0.052 7.19 7.57 10.55
10/28/2021 1:30:00 AM 8.37 47.066 0.052 7.2 7.43 10.56
10/28/2021 1:45:00 AM 8.34 47.012 0.052 7.2 7.29 10.57
10/28/2021 2:00:00 AM 8.3 46.94 0.052 7.2 8.08 10.58
10/28/2021 2:15:00 AM 8.26 46.868 0.052 7.19 6.97 10.59
10/28/2021 2:30:00 AM 8.22 46.796 0.052 7.19 8.15 10.61
10/28/2021 2:45:00 AM 8.19 46.742 0.052 7.19 7.66 10.61
10/28/2021 3:00:00 AM 8.15 46.67 0.052 7.19 6.78 10.62
10/28/2021 3:15:00 AM 8.12 46.616 0.052 7.19 7.82 10.63
10/28/2021 3:30:00 AM 8.09 46.562 0.052 7.19 7.09 10.64
10/28/2021 3:45:00 AM 8.05 46.49 0.052 7.19 7.25 10.64
10/28/2021 4:00:00 AM 8.02 46.436 0.052 7.19 7.16 10.65
10/28/2021 4:15:00 AM 8 46.4 0.052 7.18 7.38 10.65
10/28/2021 4:30:00 AM 7.98 46.364 0.051 7.19 7.66 10.66
10/28/2021 4:45:00 AM 7.95 46.31 0.051 7.18 7.68 10.67
10/28/2021 5:00:00 AM 7.92 46.256 0.051 7.18 6.98 10.68
10/28/2021 5:15:00 AM 7.89 46.202 0.051 7.18 8.11 10.69
10/28/2021 5:30:00 AM 7.86 46.148 0.051 7.18 6.6 10.7
10/28/2021 5:45:00 AM 7.83 46.094 0.051 7.18 7.62 10.7
10/28/2021 6:00:00 AM 7.8 46.04 0.051 7.17 6.83 10.71
10/28/2021 6:15:00 AM 7.77 45.986 0.051 7.17 7.07 10.72
10/28/2021 6:30:00 AM 7.74 45.932 0.051 7.17 8.28 10.73
10/28/2021 6:45:00 AM 7.72 45.896 0.051 7.18 7.09 10.74
10/28/2021 7:00:00 AM 7.7 45.86 0.051 7.18 8.02 10.74
10/28/2021 7:15:00 AM 7.67 45.806 0.051 7.17 7.08 10.75
10/28/2021 7:30:00 AM 7.65 45.77 0.051 7.17 7.34 10.76
10/28/2021 7:45:00 AM 7.63 45.734 0.051 7.17 7.02 10.77
10/28/2021 8:00:00 AM 7.6 45.68 0.051 7.17 7.02 10.78
10/28/2021 8:15:00 AM 7.59 45.662 0.051 7.17 7.24 10.81
10/28/2021 8:30:00 AM 7.57 45.626 0.051 7.18 7.29 10.84
10/28/2021 8:45:00 AM 7.56 45.608 0.051 7.19 7.07 10.87
10/28/2021 9:00:00 AM 7.57 45.626 0.051 7.2 6.44 10.92
10/28/2021 9:15:00 AM 7.58 45.644 0.051 7.21 7.12 10.94
10/28/2021 9:30:00 AM 7.59 45.662 0.051 7.21 7.12 10.96
10/28/2021 9:45:00 AM 7.58 45.644 0.05 7.22 6.77 10.96
10/28/2021 10:00:00 AM 7.61 45.698 0.05 7.22 6.81 10.96
10/28/2021 10:15:00 AM 7.64 45.752 0.05 7.23 6.53 10.97
10/28/2021 10:30:00 AM 7.7 45.86 0.05 7.25 6.35 10.99
10/28/2021 10:45:00 AM 7.77 45.986 0.05 7.26 6.95 10.99
10/28/2021 11:00:00 AM 7.85 46.13 0.05 7.26 6.72 10.98
10/28/2021 11:15:00 AM 7.96 46.328 0.05 7.28 6.7 10.96
10/28/2021 11:30:00 AM 8.08 46.544 0.05 7.29 6.75 10.94
10/28/2021 11:45:00 AM 8.2 46.76 0.05 7.29 8.03 10.92
10/28/2021 12:00:00 PM 8.32 46.976 0.05 7.31 6.75 10.91
10/28/2021 12:15:00 PM 8.46 47.228 0.05 7.32 7.13 10.88
10/28/2021 12:30:00 PM 8.59 47.462 0.05 7.33 6.49 10.85
10/28/2021 12:45:00 PM 8.71 47.678 0.05 7.33 6.35 10.82
10/28/2021 1:00:00 PM 8.85 47.93 0.049 7.34 7.47 10.79
10/28/2021 1:15:00 PM 8.98 48.164 0.049 7.34 6.52 10.76
10/28/2021 1:30:00 PM 9.1 48.38 0.049 7.34 6.63 10.72
10/28/2021 1:45:00 PM 9.23 48.614 0.049 7.37 7.2 10.69
10/28/2021 2:00:00 PM 9.36 48.848 0.049 7.37 6.4 10.66
10/28/2021 2:15:00 PM 9.47 49.046 0.049 7.37 6.42 10.62
10/28/2021 2:30:00 PM 9.56 49.208 0.049 7.37 6.74 10.57
10/28/2021 2:45:00 PM 9.64 49.352 0.049 7.37 6.76 10.55
10/28/2021 3:00:00 PM 9.73 49.514 0.049 7.37 6.69 10.52
10/28/2021 3:15:00 PM 9.81 49.658 0.049 7.37 6.63 10.48
10/28/2021 3:30:00 PM 9.87 49.766 0.049 7.37 6.25 10.46
10/28/2021 3:45:00 PM 9.92 49.856 0.049 7.37 7.03 10.44
10/28/2021 4:00:00 PM 9.98 49.964 0.049 7.36 6.45 10.43
10/28/2021 4:15:00 PM 10.01 50.018 0.049 7.37 6.57 10.41
10/28/2021 4:30:00 PM 10.05 50.09 0.049 7.36 6.97 10.4
10/28/2021 4:45:00 PM 10.09 50.162 0.049 7.34 6.76 10.38
10/28/2021 5:00:00 PM 10.1 50.18 0.049 7.36 6.46 10.35
10/28/2021 5:15:00 PM 10.1 50.18 0.049 7.34 6.54 10.33
10/28/2021 5:30:00 PM 10.08 50.144 0.049 7.32 6.16 10.28
10/28/2021 5:45:00 PM 10.06 50.108 0.049 7.29 6.45 10.25
10/28/2021 6:00:00 PM 10.02 50.036 0.049 7.27 7.05 10.22
10/28/2021 6:15:00 PM 9.98 49.964 0.049 7.26 6.64 10.19
10/28/2021 6:30:00 PM 9.93 49.874 0.049 7.24 7.08 10.17
10/28/2021 6:45:00 PM 9.89 49.802 0.049 7.22 6.77 10.17
10/28/2021 7:00:00 PM 9.84 49.712 0.049 7.23 7.06 10.17
10/28/2021 7:15:00 PM 9.81 49.658 0.049 7.21 8.01 10.18
10/28/2021 7:30:00 PM 9.77 49.586 0.049 7.22 7.48 10.18
10/28/2021 7:45:00 PM 9.72 49.496 0.049 7.21 7.37 10.2
10/28/2021 8:00:00 PM 9.67 49.406 0.049 7.21 7.66 10.2
10/28/2021 8:15:00 PM 9.62 49.316 0.049 7.2 6.85 10.22
10/28/2021 8:30:00 PM 9.59 49.262 0.049 7.19 7.09 10.23
10/28/2021 8:45:00 PM 9.57 49.226 0.049 7.2 6.81 10.24
10/28/2021 9:00:00 PM 9.55 49.19 0.049 7.2 7.01 10.24
10/28/2021 9:15:00 PM 9.52 49.136 0.049 7.2 6.78 10.25
10/28/2021 9:30:00 PM 9.51 49.118 0.049 7.18 6.57 10.26
10/28/2021 9:45:00 PM 9.5 49.1 0.049 7.2 6.51 10.26
10/28/2021 10:00:00 PM 9.49 49.082 0.049 7.2 6.59 10.26
10/28/2021 10:15:00 PM 9.49 49.082 0.049 7.2 6.53 10.27
10/28/2021 10:30:00 PM 9.49 49.082 0.049 7.2 6.52 10.27
10/28/2021 10:45:00 PM 9.48 49.064 0.049 7.21 6.74 10.27
10/28/2021 11:00:00 PM 9.49 49.082 0.049 7.21 6.75 10.26
10/28/2021 11:15:00 PM 9.49 49.082 0.049 7.2 7.55 10.27
10/28/2021 11:30:00 PM 9.5 49.1 0.049 7.21 6.71 10.26
10/28/2021 11:45:00 PM 9.51 49.118 0.049 7.22 6.67 10.26
10/29/2021 12:00:00 AM 9.52 49.136 0.049 7.23 6.67 10.26
10/29/2021 12:15:00 AM 9.52 49.136 0.049 7.21 7.02 10.26
10/29/2021 12:30:00 AM 9.53 49.154 0.049 7.23 6.09 10.25
10/29/2021 12:45:00 AM 9.54 49.172 0.049 7.23 6.22 10.25
10/29/2021 1:00:00 AM 9.54 49.172 0.049 7.22 6.67 10.25
10/29/2021 1:15:00 AM 9.55 49.19 0.049 7.23 6.82 10.24
10/29/2021 1:30:00 AM 9.55 49.19 0.049 7.22 6.68 10.24
10/29/2021 1:45:00 AM 9.55 49.19 0.049 7.22 6.59 10.24
10/29/2021 2:00:00 AM 9.56 49.208 0.049 7.22 6.26 10.24
10/29/2021 2:15:00 AM 9.56 49.208 0.049 7.22 6.65 10.24
10/29/2021 2:30:00 AM 9.56 49.208 0.049 7.22 6.73 10.24
10/29/2021 2:45:00 AM 9.56 49.208 0.049 7.21 6.35 10.24
10/29/2021 3:00:00 AM 9.55 49.19 0.049 7.22 6.54 10.24
10/29/2021 3:15:00 AM 9.55 49.19 0.049 7.22 6.24 10.24
10/29/2021 3:30:00 AM 9.55 49.19 0.049 7.21 6.76 10.24
10/29/2021 3:45:00 AM 9.54 49.172 0.049 7.22 7.27 10.24
10/29/2021 4:00:00 AM 9.54 49.172 0.049 7.22 6.58 10.24
10/29/2021 4:15:00 AM 9.54 49.172 0.049 7.23 7.68 10.24
10/29/2021 4:30:00 AM 9.53 49.154 0.049 7.22 6.57 10.24
10/29/2021 4:45:00 AM 9.53 49.154 0.049 7.22 6.85 10.24
10/29/2021 5:00:00 AM 9.52 49.136 0.049 7.22 7.91 10.24
10/29/2021 5:15:00 AM 9.52 49.136 0.048 7.22 6.76 10.23
10/29/2021 5:30:00 AM 9.51 49.118 0.048 7.22 6.64 10.23
10/29/2021 5:45:00 AM 9.5 49.1 0.048 7.21 6.42 10.24
10/29/2021 6:00:00 AM 9.5 49.1 0.049 7.21 6.52 10.24
10/29/2021 6:15:00 AM 9.49 49.082 0.049 7.22 7.08 10.23
10/29/2021 6:30:00 AM 9.48 49.064 0.048 7.22 6.85 10.25
10/29/2021 6:45:00 AM 9.47 49.046 0.048 7.22 7.06 10.25
10/29/2021 7:00:00 AM 9.46 49.028 0.048 7.22 7.47 10.25
10/29/2021 7:15:00 AM 9.45 49.01 0.048 7.22 6.65 10.25
10/29/2021 7:30:00 AM 9.44 48.992 0.048 7.2 6.51 10.25
10/29/2021 7:45:00 AM 9.43 48.974 0.048 7.21 6.52 10.25
10/29/2021 8:00:00 AM 9.41 48.938 0.048 7.21 6.4 10.26
10/29/2021 8:15:00 AM 9.4 48.92 0.048 7.21 6.12 10.26
10/29/2021 8:30:00 AM 9.39 48.902 0.048 7.22 6.23 10.27
10/29/2021 8:45:00 AM 9.37 48.866 0.048 7.22 6.63 10.29
10/29/2021 9:00:00 AM 9.36 48.848 0.048 7.22 6.78 10.3
10/29/2021 9:15:00 AM 9.35 48.83 0.048 7.22 6.72 10.32
10/29/2021 9:30:00 AM 9.34 48.812 0.048 7.23 6.5 10.34
10/29/2021 9:45:00 AM 9.35 48.83 0.048 7.24 6.07 10.37
10/29/2021 10:00:00 AM 9.35 48.83 0.048 7.25 5.95 10.41
10/29/2021 10:15:00 AM 9.36 48.848 0.048 7.26 7.34 10.42
10/29/2021 10:30:00 AM 9.36 48.848 0.048 7.26 6.27 10.44
10/29/2021 10:45:00 AM 9.37 48.866 0.048 7.26 6.04 10.45
10/29/2021 11:00:00 AM 9.38 48.884 0.048 7.29 5.7 10.47
10/29/2021 11:15:00 AM 9.4 48.92 0.048 7.29 5.78 10.49
10/29/2021 11:30:00 AM 9.41 48.938 0.048 7.29 6.55 10.49
10/29/2021 11:45:00 AM 9.42 48.956 0.048 7.3 5.88 10.49
10/29/2021 12:00:00 PM 9.43 48.974 0.048 7.3 6.13 10.49
10/29/2021 12:15:00 PM 9.43 48.974 0.048 7.3 6.14 10.46
10/29/2021 12:30:00 PM 9.42 48.956 0.048 7.28 5.79 10.43
10/29/2021 12:45:00 PM 9.41 48.938 0.048 7.28 6.19 10.41
10/29/2021 1:00:00 PM 9.41 48.938 0.048 7.27 6.37 10.39
10/29/2021 1:15:00 PM 9.4 48.92 0.048 7.27 6.1 10.37
10/29/2021 1:30:00 PM 9.39 48.902 0.048 7.26 6.19 10.37
10/29/2021 1:45:00 PM 9.39 48.902 0.048 7.27 6.8 10.39
10/29/2021 2:00:00 PM 9.42 48.956 0.048 7.28 6.05 10.41
10/29/2021 2:15:00 PM 9.41 48.938 0.048 7.27 6.04 10.39
10/29/2021 2:30:00 PM 9.39 48.902 0.048 7.26 6.22 10.37
10/29/2021 2:45:00 PM 9.38 48.884 0.047 7.26 6.65 10.38
10/29/2021 3:00:00 PM 9.4 48.92 0.048 7.26 6.42 10.4
10/29/2021 3:15:00 PM 9.39 48.902 0.048 7.26 6.66 10.35
10/29/2021 3:30:00 PM 9.37 48.866 0.048 7.25 6.49 10.35
10/29/2021 3:45:00 PM 9.35 48.83 0.048 7.24 6.21 10.35
10/29/2021 4:00:00 PM 9.33 48.794 0.048 7.24 7.56 10.33
10/29/2021 4:15:00 PM 9.31 48.758 0.048 7.23 6.88 10.32
10/29/2021 4:30:00 PM 9.28 48.704 0.048 7.22 7.62 10.3
10/29/2021 4:45:00 PM 9.24 48.632 0.048 7.22 7.55 10.31
10/29/2021 5:00:00 PM 9.23 48.614 0.048 7.21 9.51 10.3
10/29/2021 5:15:00 PM 9.21 48.578 0.048 7.2 9.83 10.29
10/29/2021 5:30:00 PM 9.19 48.542 0.048 7.18 11.76 10.29
10/29/2021 5:45:00 PM 9.17 48.506 0.048 7.17 12.37 10.28
10/29/2021 6:00:00 PM 9.15 48.47 0.049 7.17 11.27 10.27
10/29/2021 6:15:00 PM 9.13 48.434 0.049 7.16 13.49 10.26
10/29/2021 6:30:00 PM 9.12 48.416 0.049 7.15 12.67 10.25
10/29/2021 6:45:00 PM 9.11 48.398 0.05 7.16 16.59 10.25
10/29/2021 7:00:00 PM 9.1 48.38 0.05 7.15 16.09 10.25
10/29/2021 7:15:00 PM 9.09 48.362 0.05 7.16 21.06 10.24
10/29/2021 7:30:00 PM 9.08 48.344 0.05 7.16 18.45 10.25
10/29/2021 7:45:00 PM 9.07 48.326 0.05 7.16 17.01 10.26
10/29/2021 8:00:00 PM 9.07 48.326 0.05 7.15 18.7 10.26
10/29/2021 8:15:00 PM 9.06 48.308 0.05 7.15 20.77 10.27
10/29/2021 8:30:00 PM 9.05 48.29 0.05 7.16 17.9 10.27
10/29/2021 8:45:00 PM 9.04 48.272 0.05 7.16 16.92 10.27
10/29/2021 9:00:00 PM 9.04 48.272 0.051 7.15 19.63 10.27
10/29/2021 9:15:00 PM 9.03 48.254 0.051 7.15 15.92 10.28
10/29/2021 9:30:00 PM 9.03 48.254 0.051 7.14 13.45 10.28
10/29/2021 9:45:00 PM 9.02 48.236 0.052 7.15 14.4 10.28
10/29/2021 10:00:00 PM 9.01 48.218 0.052 7.14 13.55 10.28
10/29/2021 10:15:00 PM 9 48.2 0.052 7.16 13.45 10.28
10/29/2021 10:30:00 PM 8.99 48.182 0.053 7.16 12.56 10.28
10/29/2021 10:45:00 PM 8.98 48.164 0.053 7.12 12.02 10.28
10/29/2021 11:00:00 PM 8.98 48.164 0.053 7.17 12.48 10.28
10/29/2021 11:15:00 PM 8.97 48.146 0.053 7.17 15.4 10.29
10/29/2021 11:30:00 PM 8.96 48.128 0.054 7.16 15.09 10.29
10/29/2021 11:45:00 PM 8.95 48.11 0.054 7.18 15.52 10.29
10/30/2021 12:00:00 AM 8.94 48.092 0.054 7.18 13.68 10.29
10/30/2021 12:15:00 AM 8.94 48.092 0.054 7.19 14.15 10.29
10/30/2021 12:30:00 AM 8.93 48.074 0.053 7.17 13.84 10.29
10/30/2021 12:45:00 AM 8.92 48.056 0.053 7.19 12.78 10.29
10/30/2021 1:00:00 AM 8.92 48.056 0.053 7.18 12.57 10.29
10/30/2021 1:15:00 AM 8.91 48.038 0.053 7.18 13.11 10.3
10/30/2021 1:30:00 AM 8.9 48.02 0.053 7.18 13.47 10.3
10/30/2021 1:45:00 AM 8.89 48.002 0.053 7.18 6.97 10.3
10/30/2021 2:00:00 AM 8.88 47.984 0.052 7.18 12.36 10.3
10/30/2021 2:15:00 AM 8.88 47.984 0.052 7.19 11.29 10.3
10/30/2021 2:30:00 AM 8.87 47.966 0.052 7.17 12.45 10.3
10/30/2021 2:45:00 AM 8.87 47.966 0.052 7.18 10.86 10.3
10/30/2021 3:00:00 AM 8.86 47.948 0.052 7.16 11.05 10.3
10/30/2021 3:15:00 AM 8.85 47.93 0.052 7.17 11.28 10.3
10/30/2021 3:30:00 AM 8.85 47.93 0.052 7.15 11.08 10.31
10/30/2021 3:45:00 AM 8.84 47.912 0.052 7.16 10.82 10.31
10/30/2021 4:00:00 AM 8.84 47.912 0.052 7.15 10.37 10.31
10/30/2021 4:15:00 AM 8.84 47.912 0.052 7.17 10.68 10.31
10/30/2021 4:30:00 AM 8.83 47.894 0.052 7.17 9.21 10.31
10/30/2021 4:45:00 AM 8.83 47.894 0.052 7.16 10.47 10.31
10/30/2021 5:00:00 AM 8.83 47.894 0.052 7.16 10.16 10.31
10/30/2021 5:15:00 AM 8.83 47.894 0.052 7.15 9.83 10.31
10/30/2021 5:30:00 AM 8.83 47.894 0.051 7.16 9.63 10.31
10/30/2021 5:45:00 AM 8.83 47.894 0.051 7.18 9.89 10.31
10/30/2021 6:00:00 AM 8.83 47.894 0.051 7.18 9.63 10.31
10/30/2021 6:15:00 AM 8.83 47.894 0.051 7.18 9.96 10.31
10/30/2021 6:30:00 AM 8.83 47.894 0.051 7.16 9.12 10.31
10/30/2021 6:45:00 AM 8.83 47.894 0.051 7.18 9.44 10.31
10/30/2021 7:00:00 AM 8.83 47.894 0.051 7.17 9.84 10.31
10/30/2021 7:15:00 AM 8.83 47.894 0.051 7.17 11.65 10.31
10/30/2021 7:30:00 AM 8.83 47.894 0.051 7.17 9.91 10.31
10/30/2021 7:45:00 AM 8.84 47.912 0.051 7.16 9.94 10.31
10/30/2021 8:00:00 AM 8.84 47.912 0.051 7.18 10.14 10.32
10/30/2021 8:15:00 AM 8.85 47.93 0.051 7.18 10.22 10.32
10/30/2021 8:30:00 AM 8.86 47.948 0.051 7.18 11.26 10.33
10/30/2021 8:45:00 AM 8.87 47.966 0.051 7.16 9.44 10.34
10/30/2021 9:00:00 AM 8.89 48.002 0.051 7.18 10.45 10.37
10/30/2021 9:15:00 AM 8.9 48.02 0.051 7.2 8.53 10.39
10/30/2021 9:30:00 AM 8.92 48.056 0.051 7.21 7.81 10.41
10/30/2021 9:45:00 AM 8.95 48.11 0.051 7.21 8.42 10.42
10/30/2021 10:00:00 AM 8.97 48.146 0.051 7.22 8.61 10.43
10/30/2021 10:15:00 AM 9 48.2 0.05 7.2 8.85 10.44
10/30/2021 10:30:00 AM 9.03 48.254 0.05 7.23 8.77 10.45
10/30/2021 10:45:00 AM 9.05 48.29 0.05 7.23 8.85 10.45
10/30/2021 11:00:00 AM 9.07 48.326 0.05 7.23 8.71 10.44
10/30/2021 11:15:00 AM 9.09 48.362 0.05 7.25 8.36 10.44
10/30/2021 11:30:00 AM 9.12 48.416 0.05 7.25 8.42 10.44
10/30/2021 11:45:00 AM 9.15 48.47 0.05 7.24 8.84 10.45
10/30/2021 12:00:00 PM 9.19 48.542 0.05 7.25 7.92 10.45
10/30/2021 12:15:00 PM 9.23 48.614 0.05 7.27 8.3 10.45
10/30/2021 12:30:00 PM 9.27 48.686 0.05 7.26 8.59 10.44
10/30/2021 12:45:00 PM 9.29 48.722 0.05 7.26 8.91 10.41
10/30/2021 1:00:00 PM 9.3 48.74 0.049 7.25 9.77 10.38
10/30/2021 1:15:00 PM 9.32 48.776 0.049 7.24 7.92 10.38
10/30/2021 1:30:00 PM 9.36 48.848 0.049 7.26 7.98 10.38
10/30/2021 1:45:00 PM 9.39 48.902 0.049 7.25 8.33 10.37
10/30/2021 2:00:00 PM 9.45 49.01 0.049 7.25 7.95 10.39
10/30/2021 2:15:00 PM 9.49 49.082 0.049 7.25 8.39 10.37
10/30/2021 2:30:00 PM 9.52 49.136 0.049 7.25 7.74 10.34
10/30/2021 2:45:00 PM 9.54 49.172 0.049 7.24 7.8 10.33
10/30/2021 3:00:00 PM 9.57 49.226 0.049 7.26 8.84 10.33
10/30/2021 3:15:00 PM 9.63 49.334 0.049 7.26 8.02 10.33
10/30/2021 3:30:00 PM 9.66 49.388 0.049 7.25 9.64 10.32
10/30/2021 3:45:00 PM 9.68 49.424 0.049 7.26 8.49 10.29
10/30/2021 4:00:00 PM 9.68 49.424 0.049 7.25 8.44 10.26
10/30/2021 4:15:00 PM 9.7 49.46 0.049 7.24 8.36 10.25
10/30/2021 4:30:00 PM 9.71 49.478 0.049 7.25 8.32 10.23
10/30/2021 4:45:00 PM 9.72 49.496 0.049 7.23 8.78 10.22
10/30/2021 5:00:00 PM 9.72 49.496 0.049 7.22 8.91 10.19
10/30/2021 5:15:00 PM 9.72 49.496 0.049 7.23 8.52 10.18
10/30/2021 5:30:00 PM 9.71 49.478 0.049 7.21 8.49 10.16
10/30/2021 5:45:00 PM 9.71 49.478 0.049 7.18 8.36 10.15
10/30/2021 6:00:00 PM 9.7 49.46 0.049 7.19 8.5 10.13
10/30/2021 6:15:00 PM 9.7 49.46 0.049 7.18 8.33 10.12
10/30/2021 6:30:00 PM 9.7 49.46 0.049 7.17 8.67 10.12
10/30/2021 6:45:00 PM 9.69 49.442 0.049 7.17 8.84 10.12
10/30/2021 7:00:00 PM 9.68 49.424 0.049 7.16 8.77 10.12
10/30/2021 7:15:00 PM 9.68 49.424 0.049 7.16 9.26 10.12
10/30/2021 7:30:00 PM 9.67 49.406 0.049 7.15 9.18 10.12
10/30/2021 7:45:00 PM 9.66 49.388 0.049 7.15 9.27 10.13
10/30/2021 8:00:00 PM 9.66 49.388 0.048 7.14 8.45 10.12
10/30/2021 8:15:00 PM 9.65 49.37 0.048 7.14 8.8 10.13
10/30/2021 8:30:00 PM 9.64 49.352 0.048 7.14 8.31 10.13
10/30/2021 8:45:00 PM 9.63 49.334 0.048 7.13 8.84 10.13
10/30/2021 9:00:00 PM 9.63 49.334 0.048 7.12 8.59 10.14
10/30/2021 9:15:00 PM 9.62 49.316 0.048 7.11 9.17 10.14
10/30/2021 9:30:00 PM 9.61 49.298 0.048 7.12 8.65 10.15
10/30/2021 9:45:00 PM 9.61 49.298 0.048 7.13 8.96 10.14
10/30/2021 10:00:00 PM 9.6 49.28 0.048 7.13 8.93 10.14
10/30/2021 10:15:00 PM 9.6 49.28 0.048 7.14 8.99 10.15
10/30/2021 10:30:00 PM 9.6 49.28 0.048 7.14 9.44 10.14
10/30/2021 10:45:00 PM 9.59 49.262 0.048 7.13 9 10.15
10/30/2021 11:00:00 PM 9.59 49.262 0.048 7.13 9.16 10.15
10/30/2021 11:15:00 PM 9.59 49.262 0.048 7.13 9.42 10.15
10/30/2021 11:30:00 PM 9.58 49.244 0.048 7.12 8.81 10.15
10/30/2021 11:45:00 PM 9.58 49.244 0.048 7.13 9.04 10.15
10/31/2021 12:00:00 AM 9.58 49.244 0.048 7.13 8.74 10.15
10/31/2021 12:15:00 AM 9.58 49.244 0.048 7.13 8.89 10.15
10/31/2021 12:30:00 AM 9.58 49.244 0.048 7.13 8.65 10.15
10/31/2021 12:45:00 AM 9.58 49.244 0.048 7.12 9.16 10.15
10/31/2021 1:00:00 AM 9.57 49.226 0.047 7.12 8.78 10.15
10/31/2021 1:15:00 AM 9.57 49.226 0.047 7.11 9.08 10.15
10/31/2021 1:30:00 AM 9.57 49.226 0.047 7.12 9.66 10.14
10/31/2021 1:45:00 AM 9.57 49.226 0.047 7.11 9.9 10.14
10/31/2021 2:00:00 AM 9.57 49.226 0.047 7.11 9.31 10.14
10/31/2021 2:15:00 AM 9.56 49.208 0.047 7.12 9.72 10.14
10/31/2021 2:30:00 AM 9.56 49.208 0.047 7.11 9.29 10.14
10/31/2021 2:45:00 AM 9.56 49.208 0.047 7.1 8.77 10.14
10/31/2021 3:00:00 AM 9.55 49.19 0.047 7.11 9.37 10.14
10/31/2021 3:15:00 AM 9.54 49.172 0.047 7.11 9.58 10.14
10/31/2021 3:30:00 AM 9.53 49.154 0.047 7.11 8.52 10.14
10/31/2021 3:45:00 AM 9.53 49.154 0.047 7.11 8.96 10.14
10/31/2021 4:00:00 AM 9.53 49.154 0.047 7.1 8.58 10.15
10/31/2021 4:15:00 AM 9.52 49.136 0.047 7.12 10.87 10.15
10/31/2021 4:30:00 AM 9.52 49.136 0.047 7.12 9.7 10.15
10/31/2021 4:45:00 AM 9.52 49.136 0.047 7.11 9.48 10.15
10/31/2021 5:00:00 AM 9.52 49.136 0.047 7.12 9.66 10.15
10/31/2021 5:15:00 AM 9.52 49.136 0.047 7.12 9.03 10.15
10/31/2021 5:30:00 AM 9.52 49.136 0.047 7.12 9.17 10.15
10/31/2021 5:45:00 AM 9.52 49.136 0.047 7.13 9.29 10.15
10/31/2021 6:00:00 AM 9.52 49.136 0.047 7.11 8.33 10.16
10/31/2021 6:15:00 AM 9.52 49.136 0.047 7.13 9.55 10.15
10/31/2021 6:30:00 AM 9.51 49.118 0.047 7.13 10.35 10.16
10/31/2021 6:45:00 AM 9.51 49.118 0.046 7.12 9.47 10.16
10/31/2021 7:00:00 AM 9.51 49.118 0.046 7.09 10.84 10.16
10/31/2021 7:15:00 AM 9.51 49.118 0.046 7.11 9.76 10.16
10/31/2021 7:30:00 AM 9.51 49.118 0.046 7.12 10.3 10.16
10/31/2021 7:45:00 AM 9.5 49.1 0.046 7.11 8.69 10.17
10/31/2021 8:00:00 AM 9.5 49.1 0.046 7.12 9.61 10.17
10/31/2021 8:15:00 AM 9.5 49.1 0.046 7.12 9.15 10.18
10/31/2021 8:30:00 AM 9.5 49.1 0.046 7.13 8.78 10.19
10/31/2021 8:45:00 AM 9.51 49.118 0.046 7.14 10.16 10.2
10/31/2021 9:00:00 AM 9.52 49.136 0.046 7.14 8.64 10.22
10/31/2021 9:15:00 AM 9.53 49.154 0.046 7.15 9.18 10.25
10/31/2021 9:30:00 AM 9.55 49.19 0.046 7.17 8.77 10.28
10/31/2021 9:45:00 AM 9.57 49.226 0.046 7.19 8.7 10.3
10/31/2021 10:00:00 AM 9.58 49.244 0.046 7.19 9.03 10.29
10/31/2021 10:15:00 AM 9.61 49.298 0.046 7.2 8.64 10.32
10/31/2021 10:30:00 AM 9.63 49.334 0.046 7.22 9.15 10.31
10/31/2021 10:45:00 AM 9.65 49.37 0.046 7.21 9.01 10.33
10/31/2021 11:00:00 AM 9.67 49.406 0.046 7.23 8.43 10.34
10/31/2021 11:15:00 AM 9.68 49.424 0.046 7.22 8.55 10.33
10/31/2021 11:30:00 AM 9.68 49.424 0.046 7.21 8.52 10.32
10/31/2021 11:45:00 AM 9.68 49.424 0.046 7.22 8.09 10.31
10/31/2021 12:00:00 PM 9.69 49.442 0.046 7.21 7.83 10.32
10/31/2021 12:15:00 PM 9.7 49.46 0.046 7.21 7.87 10.33
10/31/2021 12:30:00 PM 9.71 49.478 0.045 7.21 8.85 10.34
10/31/2021 12:45:00 PM 9.74 49.532 0.045 7.22 8.44 10.35
10/31/2021 1:00:00 PM 9.78 49.604 0.045 7.23 8.25 10.36
10/31/2021 1:15:00 PM 9.8 49.64 0.045 7.24 9.28 10.35
10/31/2021 1:30:00 PM 9.82 49.676 0.045 7.24 9.06 10.36
10/31/2021 1:45:00 PM 9.85 49.73 0.045 7.25 8.37 10.35
10/31/2021 2:00:00 PM 9.88 49.784 0.045 7.25 9.05 10.35
10/31/2021 2:15:00 PM 9.89 49.802 0.045 7.25 8.74 10.34
10/31/2021 2:30:00 PM 9.92 49.856 0.045 7.26 9.42 10.34
10/31/2021 2:45:00 PM 9.94 49.892 0.045 7.23 8.85 10.33
10/31/2021 3:00:00 PM 9.95 49.91 0.045 7.23 9.04 10.33
10/31/2021 3:15:00 PM 9.95 49.91 0.045 7.23 8.59 10.32
10/31/2021 3:30:00 PM 9.95 49.91 0.045 7.22 9.67 10.31
10/31/2021 3:45:00 PM 9.93 49.874 0.045 7.22 8.17 10.28
10/31/2021 4:00:00 PM 9.93 49.874 0.045 7.23 8.12 10.29
10/31/2021 4:15:00 PM 9.93 49.874 0.045 7.24 8.36 10.29
10/31/2021 4:30:00 PM 9.93 49.874 0.045 7.24 9.63 10.29
10/31/2021 4:45:00 PM 9.91 49.838 0.045 7.22 8.45 10.27
10/31/2021 5:00:00 PM 9.89 49.802 0.045 7.23 10.47 10.27
10/31/2021 5:15:00 PM 9.87 49.766 0.045 7.22 8.61 10.25
10/31/2021 5:30:00 PM 9.85 49.73 0.045 7.19 8.83 10.25
10/31/2021 5:45:00 PM 9.81 49.658 0.045 7.19 9.27 10.23
10/31/2021 6:00:00 PM 9.76 49.568 0.045 7.19 9.52 10.23
10/31/2021 6:15:00 PM 9.71 49.478 0.045 7.17 8.93 10.21
10/31/2021 6:30:00 PM 9.65 49.37 0.045 7.15 8.58 10.21
10/31/2021 6:45:00 PM 9.61 49.298 0.045 7.16 9 10.21
10/31/2021 7:00:00 PM 9.56 49.208 0.045 7.15 9.29 10.22
10/31/2021 7:15:00 PM 9.52 49.136 0.045 7.14 8.16 10.23
10/31/2021 7:30:00 PM 9.48 49.064 0.045 7.13 8.73 10.24
10/31/2021 7:45:00 PM 9.43 48.974 0.045 7.12 9.32 10.25
10/31/2021 8:00:00 PM 9.37 48.866 0.045 7.13 8.58 10.26
10/31/2021 8:15:00 PM 9.32 48.776 0.045 7.13 8.76 10.28
10/31/2021 8:30:00 PM 9.27 48.686 0.045 7.12 8.99 10.29
10/31/2021 8:45:00 PM 9.24 48.632 0.045 7.12 8.06 10.31
10/31/2021 9:00:00 PM 9.22 48.596 0.045 7.13 9.16 10.31
10/31/2021 9:15:00 PM 9.19 48.542 0.045 7.12 9.24 10.33
10/31/2021 9:30:00 PM 9.16 48.488 0.045 7.12 8.16 10.33
10/31/2021 9:45:00 PM 9.13 48.434 0.045 7.11 7.71 10.34
10/31/2021 10:00:00 PM 9.09 48.362 0.045 7.1 8.58 10.35
10/31/2021 10:15:00 PM 9.06 48.308 0.045 7.11 8.24 10.37
10/31/2021 10:30:00 PM 9.05 48.29 0.045 7.12 8.44 10.37
10/31/2021 10:45:00 PM 9.03 48.254 0.045 7.12 7.91 10.38
10/31/2021 11:00:00 PM 9.02 48.236 0.045 7.11 8.7 10.39
10/31/2021 11:15:00 PM 9.01 48.218 0.045 7.11 8.12 10.39
10/31/2021 11:30:00 PM 9.01 48.218 0.045 7.13 8.45 10.39
10/31/2021 11:45:00 PM 9.01 48.218 0.045 7.11 7.41 10.39
11/1/2021 12:00:00 AM 9.01 48.218 0.045 7.13 9.98 10.39
11/1/2021 12:15:00 AM 9.02 48.236 0.045 7.1 8.89 10.39
11/1/2021 12:30:00 AM 9.03 48.254 0.045 7.11 8.62 10.39
11/1/2021 12:45:00 AM 9.03 48.254 0.045 7.13 8.36 10.39
11/1/2021 1:00:00 AM 9.04 48.272 0.045 7.14 8.3 10.39
11/1/2021 1:15:00 AM 9.04 48.272 0.045 7.13 8 10.38
11/1/2021 1:30:00 AM 9.05 48.29 0.045 7.13 7.9 10.39
11/1/2021 1:45:00 AM 9.06 48.308 0.045 7.12 9.84 10.39
11/1/2021 2:00:00 AM 9.07 48.326 0.045 7.11 8.8 10.38
11/1/2021 2:15:00 AM 9.07 48.326 0.045 7.14 8.51 10.39
11/1/2021 2:30:00 AM 9.08 48.344 0.045 7.13 7.72 10.38
11/1/2021 2:45:00 AM 9.08 48.344 0.045 7.13 9.02 10.38
11/1/2021 3:00:00 AM 9.08 48.344 0.045 7.1 8.05 10.39
11/1/2021 3:15:00 AM 9.07 48.326 0.044 7.13 8.19 10.39
11/1/2021 3:30:00 AM 9.07 48.326 0.045 7.14 7.5 10.39
11/1/2021 3:45:00 AM 9.06 48.308 0.045 7.14 7.85 10.4
11/1/2021 4:00:00 AM 9.05 48.29 0.044 7.12 7.91 10.4
11/1/2021 4:15:00 AM 9.04 48.272 0.044 7.12 8.34 10.41
11/1/2021 4:30:00 AM 9.02 48.236 0.045 7.13 8.69 10.42
11/1/2021 4:45:00 AM 9 48.2 0.044 7.11 7.65 10.42
11/1/2021 5:00:00 AM 8.98 48.164 0.044 7.12 8.22 10.43
11/1/2021 5:15:00 AM 8.96 48.128 0.044 7.12 8.35 10.44
11/1/2021 5:30:00 AM 8.92 48.056 0.044 7.12 8.28 10.45
11/1/2021 5:45:00 AM 8.89 48.002 0.044 7.12 8.61 10.46
11/1/2021 6:00:00 AM 8.86 47.948 0.044 7.12 8.34 10.47
11/1/2021 6:15:00 AM 8.82 47.876 0.044 7.12 7.89 10.48
11/1/2021 6:30:00 AM 8.79 47.822 0.044 7.12 7.86 10.5
11/1/2021 6:45:00 AM 8.75 47.75 0.044 7.12 8.49 10.51
11/1/2021 7:00:00 AM 8.71 47.678 0.045 7.1 7.55 10.52
11/1/2021 7:15:00 AM 8.68 47.624 0.044 7.11 7.69 10.53
11/1/2021 7:30:00 AM 8.64 47.552 0.044 7.09 7.47 10.54
11/1/2021 7:45:00 AM 8.6 47.48 0.044 7.1 7.87 10.55
11/1/2021 8:00:00 AM 8.55 47.39 0.044 7.11 7.42 10.58
11/1/2021 8:15:00 AM 8.53 47.354 0.044 7.11 8.45 10.61
11/1/2021 8:30:00 AM 8.51 47.318 0.044 7.13 7.64 10.63
11/1/2021 8:45:00 AM 8.48 47.264 0.044 7.13 7.46 10.67
11/1/2021 9:00:00 AM 8.45 47.21 0.044 7.13 7.97 10.68
11/1/2021 9:15:00 AM 8.43 47.174 0.044 7.15 7.33 10.72
11/1/2021 9:30:00 AM 8.42 47.156 0.044 7.15 7.13 10.74
11/1/2021 9:45:00 AM 8.41 47.138 0.044 7.15 7.32 10.76
11/1/2021 10:00:00 AM 8.4 47.12 0.044 7.16 7.36 10.78
11/1/2021 10:15:00 AM 8.42 47.156 0.044 7.15 7.78 10.8
11/1/2021 10:30:00 AM 8.44 47.192 0.044 7.18 8.37 10.83
11/1/2021 10:45:00 AM 8.46 47.228 0.044 7.19 7.81 10.84
11/1/2021 11:00:00 AM 8.48 47.264 0.044 7.17 6.83 10.84
11/1/2021 11:15:00 AM 8.52 47.336 0.044 7.19 7.54 10.86
11/1/2021 11:30:00 AM 8.56 47.408 0.044 7.21 7.36 10.84
11/1/2021 11:45:00 AM 8.6 47.48 0.044 7.22 7.12 10.86
11/1/2021 12:00:00 PM 8.62 47.516 0.044 7.22 7.72 10.85
11/1/2021 12:15:00 PM 8.6 47.48 0.044 7.2 7.18 10.84
11/1/2021 12:30:00 PM 8.63 47.534 0.044 7.22 7.74 10.84
11/1/2021 12:45:00 PM 8.76 47.768 0.044 7.23 7.77 10.83
11/1/2021 1:00:00 PM 8.83 47.894 0.044 7.24 7.48 10.81
11/1/2021 1:15:00 PM 8.84 47.912 0.044 7.22 7.26 10.79
11/1/2021 1:30:00 PM 8.87 47.966 0.044 7.22 7.22 10.77
11/1/2021 1:45:00 PM 8.95 48.11 0.044 7.23 7.12 10.75
11/1/2021 2:00:00 PM 9.04 48.272 0.044 7.23 7.14 10.74
11/1/2021 2:15:00 PM 9.07 48.326 0.044 7.22 6.62 10.71
11/1/2021 2:30:00 PM 9.07 48.326 0.044 7.22 7.19 10.69
11/1/2021 2:45:00 PM 9.1 48.38 0.044 7.24 7.22 10.68
11/1/2021 3:00:00 PM 9.15 48.47 0.044 7.23 6.55 10.68
11/1/2021 3:15:00 PM 9.18 48.524 0.044 7.23 7.16 10.67
11/1/2021 3:30:00 PM 9.18 48.524 0.044 7.23 6.86 10.66
11/1/2021 3:45:00 PM 9.19 48.542 0.044 7.23 6.91 10.66
11/1/2021 4:00:00 PM 9.18 48.524 0.044 7.21 7.17 10.66
11/1/2021 4:15:00 PM 9.16 48.488 0.044 7.23 7.52 10.65
11/1/2021 4:30:00 PM 9.12 48.416 0.044 7.22 7.08 10.64
11/1/2021 4:45:00 PM 9.07 48.326 0.044 7.19 7.45 10.64
11/1/2021 5:00:00 PM 9.02 48.236 0.044 7.19 6.91 10.63
11/1/2021 5:15:00 PM 8.96 48.128 0.044 7.18 7.78 10.62
11/1/2021 5:30:00 PM 8.91 48.038 0.044 7.17 7.77 10.62
11/1/2021 5:45:00 PM 8.85 47.93 0.044 7.16 7.06 10.61
11/1/2021 6:00:00 PM 8.8 47.84 0.044 7.16 7.06 10.6
11/1/2021 6:15:00 PM 8.73 47.714 0.044 7.14 7.26 10.59
11/1/2021 6:30:00 PM 8.67 47.606 0.044 7.14 7 10.6
11/1/2021 6:45:00 PM 8.6 47.48 0.044 7.11 7.23 10.6
11/1/2021 7:00:00 PM 8.54 47.372 0.044 7.11 7.51 10.62
11/1/2021 7:15:00 PM 8.47 47.246 0.044 7.1 7.58 10.62
11/1/2021 7:30:00 PM 8.41 47.138 0.044 7.09 7.52 10.64
11/1/2021 7:45:00 PM 8.37 47.066 0.044 7.11 7.62 10.66
11/1/2021 8:00:00 PM 8.32 46.976 0.044 7.1 7.35 10.67
11/1/2021 8:15:00 PM 8.27 46.886 0.044 7.09 7.28 10.68
11/1/2021 8:30:00 PM 8.22 46.796 0.044 7.07 7.47 10.7
11/1/2021 8:45:00 PM 8.18 46.724 0.044 7.08 7.53 10.71
11/1/2021 9:00:00 PM 8.13 46.634 0.044 7.08 8.1 10.72
11/1/2021 9:15:00 PM 8.09 46.562 0.044 7.08 7.69 10.73
11/1/2021 9:30:00 PM 8.04 46.472 0.044 7.09 8.29 10.74
11/1/2021 9:45:00 PM 7.99 46.382 0.044 7.08 7.55 10.75
11/1/2021 10:00:00 PM 7.94 46.292 0.044 7.08 7.42 10.77
11/1/2021 10:15:00 PM 7.9 46.22 0.044 7.07 7.17 10.78
11/1/2021 10:30:00 PM 7.86 46.148 0.044 7.07 7.02 10.79
11/1/2021 10:45:00 PM 7.83 46.094 0.044 7.07 7.11 10.8
11/1/2021 11:00:00 PM 7.8 46.04 0.044 7.08 7.76 10.81
11/1/2021 11:15:00 PM 7.78 46.004 0.044 7.08 14.07 10.82
11/1/2021 11:30:00 PM 7.76 45.968 0.044 7.08 7.96 10.82
11/1/2021 11:45:00 PM 7.74 45.932 0.044 7.08 9.57 10.83
11/2/2021 12:00:00 AM 7.72 45.896 0.044 7.08 288.95 10.83
11/2/2021 12:15:00 AM 7.71 45.878 0.044 7.07 7.53 10.84
11/2/2021 12:30:00 AM 7.7 45.86 0.044 7.08 6.69 10.84
11/2/2021 12:45:00 AM 7.68 45.824 0.044 7.08 7.7 10.84
11/2/2021 1:00:00 AM 7.66 45.788 0.044 7.06 7.84 10.85
11/2/2021 1:15:00 AM 7.64 45.752 0.044 7.07 11.21 10.85
11/2/2021 1:30:00 AM 7.62 45.716 0.044 7.07 6.64 10.86
11/2/2021 1:45:00 AM 7.61 45.698 0.044 7.07 7.63 10.86
11/2/2021 2:00:00 AM 7.59 45.662 0.044 7.08 7.09 10.87
11/2/2021 2:15:00 AM 7.57 45.626 0.044 7.08 7.06 10.87
11/2/2021 2:30:00 AM 7.56 45.608 0.044 7.06 7.05 10.87
11/2/2021 2:45:00 AM 7.55 45.59 0.044 7.07 7.72 10.88
11/2/2021 3:00:00 AM 7.54 45.572 0.044 7.07 6.95 10.88
11/2/2021 3:15:00 AM 7.54 45.572 0.044 7.08 7.8 10.88
11/2/2021 3:30:00 AM 7.53 45.554 0.044 7.08 7.09 10.88
11/2/2021 3:45:00 AM 7.53 45.554 0.044 7.07 7.66 10.89
11/2/2021 4:00:00 AM 7.52 45.536 0.044 7.08 6.94 10.88
11/2/2021 4:15:00 AM 7.53 45.554 0.044 7.07 7.09 10.89
11/2/2021 4:30:00 AM 7.52 45.536 0.044 7.08 7.02 10.88
11/2/2021 4:45:00 AM 7.53 45.554 0.044 7.08 7.21 10.89
11/2/2021 5:00:00 AM 7.53 45.554 0.044 7.07 6.83 10.88
11/2/2021 5:15:00 AM 7.54 45.572 0.044 7.06 6.8 10.88
11/2/2021 5:30:00 AM 7.55 45.59 0.044 7.07 7.92 10.88
11/2/2021 5:45:00 AM 7.56 45.608 0.044 7.07 6.89 10.88
11/2/2021 6:00:00 AM 7.57 45.626 0.044 7.07 7.13 10.88
11/2/2021 6:15:00 AM 7.56 45.608 0.044 7.07 6.65 10.87
11/2/2021 6:30:00 AM 7.55 45.59 0.044 7.08 7.02 10.88
11/2/2021 6:45:00 AM 7.54 45.572 0.044 7.07 7.39 10.88
11/2/2021 7:00:00 AM 7.52 45.536 0.044 7.07 8.24 10.88
11/2/2021 7:15:00 AM 7.5 45.5 0.044 7.06 6.87 10.89
11/2/2021 7:30:00 AM 7.48 45.464 0.044 7.07 6.63 10.89
11/2/2021 7:45:00 AM 7.45 45.41 0.044 7.05 7.12 10.9
11/2/2021 8:00:00 AM 7.43 45.374 0.044 7.08 6.85 10.91
11/2/2021 8:15:00 AM 7.42 45.356 0.044 7.06 6.83 10.94
11/2/2021 8:30:00 AM 7.4 45.32 0.044 7.08 7.07 10.96
11/2/2021 8:45:00 AM 7.39 45.302 0.044 7.08 6.97 10.98
11/2/2021 9:00:00 AM 7.37 45.266 0.044 7.1 7.29 11.01
11/2/2021 9:15:00 AM 7.38 45.284 0.044 7.1 7.39 11.05
11/2/2021 9:30:00 AM 7.38 45.284 0.044 7.13 7.61 11.07
11/2/2021 9:45:00 AM 7.38 45.284 0.044 7.11 7.47 11.08
11/2/2021 10:00:00 AM 7.4 45.32 0.044 7.14 7.45 11.12
11/2/2021 10:15:00 AM 7.43 45.374 0.044 7.13 7.79 11.11
11/2/2021 10:30:00 AM 7.45 45.41 0.044 7.15 7.1 11.11
11/2/2021 10:45:00 AM 7.46 45.428 0.044 7.16 8.4 11.1
11/2/2021 11:00:00 AM 7.5 45.5 0.044 7.14 7.24 11.12
11/2/2021 11:15:00 AM 7.56 45.608 0.044 7.17 7.25 11.12
11/2/2021 11:30:00 AM 7.65 45.77 0.044 7.18 6.87 11.12
11/2/2021 11:45:00 AM 7.7 45.86 0.044 7.18 7.41 11.11
11/2/2021 12:00:00 PM 7.74 45.932 0.044 7.18 6.86 11.09
11/2/2021 12:15:00 PM 7.8 46.04 0.044 7.19 7.89 11.09
11/2/2021 12:30:00 PM 7.82 46.076 0.044 7.17 7.71 11.06
11/2/2021 12:45:00 PM 7.89 46.202 0.044 7.19 6.87 11.05
11/2/2021 1:00:00 PM 8.03 46.454 0.044 7.2 6.86 11.04
11/2/2021 1:15:00 PM 8.14 46.652 0.044 7.22 6.77 11.02
11/2/2021 1:30:00 PM 8.2 46.76 0.044 7.22 6.8 10.99
11/2/2021 1:45:00 PM 8.18 46.724 0.044 7.21 7.51 10.95
11/2/2021 2:00:00 PM 8.23 46.814 0.044 7.2 6.78 10.97
11/2/2021 2:15:00 PM 8.34 47.012 0.044 7.23 6.87 10.94
11/2/2021 2:30:00 PM 8.38 47.084 0.043 7.23 7 10.93
11/2/2021 2:45:00 PM 8.38 47.084 0.044 7.22 6.93 10.91
11/2/2021 3:00:00 PM 8.44 47.192 0.044 7.22 7.35 10.9
11/2/2021 3:15:00 PM 8.48 47.264 0.043 7.24 6.52 10.89
11/2/2021 3:30:00 PM 8.49 47.282 0.043 7.22 8.39 10.9
11/2/2021 3:45:00 PM 8.49 47.282 0.044 7.21 6.34 10.87
11/2/2021 4:00:00 PM 8.45 47.21 0.044 7.2 7.45 10.85
11/2/2021 4:15:00 PM 8.41 47.138 0.044 7.2 7.29 10.83
11/2/2021 4:30:00 PM 8.38 47.084 0.044 7.19 7.71 10.78
11/2/2021 4:45:00 PM 8.35 47.03 0.044 7.18 7.14 10.79
11/2/2021 5:00:00 PM 8.32 46.976 0.044 7.17 10.21 10.78
11/2/2021 5:15:00 PM 8.28 46.904 0.044 7.14 8.24 10.76
11/2/2021 5:30:00 PM 8.25 46.85 0.044 7.15 8.08 10.76
11/2/2021 5:45:00 PM 8.2 46.76 0.044 7.14 6.84 10.76
11/2/2021 6:00:00 PM 8.16 46.688 0.044 7.14 6.79 10.76
11/2/2021 6:15:00 PM 8.12 46.616 0.044 7.13 7.38 10.76
11/2/2021 6:30:00 PM 8.08 46.544 0.044 7.12 7.17 10.76
11/2/2021 6:45:00 PM 8.03 46.454 0.044 7.12 7.02 10.76
11/2/2021 7:00:00 PM 7.99 46.382 0.044 7.11 6.98 10.77
11/2/2021 7:15:00 PM 7.95 46.31 0.044 7.11 7.41 10.78
11/2/2021 7:30:00 PM 7.92 46.256 0.044 7.11 6.89 10.79
11/2/2021 7:45:00 PM 7.88 46.184 0.044 7.09 7.61 10.79
11/2/2021 8:00:00 PM 7.84 46.112 0.044 7.1 7.27 10.8
11/2/2021 8:15:00 PM 7.8 46.04 0.044 7.09 7.91 10.82
11/2/2021 8:30:00 PM 7.76 45.968 0.044 7.09 7.39 10.83
11/2/2021 8:45:00 PM 7.73 45.914 0.044 7.09 8.31 10.84
11/2/2021 9:00:00 PM 7.7 45.86 0.044 7.09 7.52 10.84
11/2/2021 9:15:00 PM 7.67 45.806 0.044 7.09 7.5 10.85
11/2/2021 9:30:00 PM 7.64 45.752 0.044 7.09 6.56 10.86
11/2/2021 9:45:00 PM 7.61 45.698 0.044 7.08 8.65 10.87
11/2/2021 10:00:00 PM 7.56 45.608 0.044 7.08 7.82 10.88
11/2/2021 10:15:00 PM 7.52 45.536 0.044 7.08 6.71 10.89
11/2/2021 10:30:00 PM 7.49 45.482 0.044 7.08 7.83 10.9
11/2/2021 10:45:00 PM 7.45 45.41 0.044 7.07 7.19 10.91
11/2/2021 11:00:00 PM 7.41 45.338 0.044 7.08 7.41 10.92
11/2/2021 11:15:00 PM 7.38 45.284 0.044 7.07 5.79 10.93
11/2/2021 11:30:00 PM 7.36 45.248 0.044 7.06 9.15 10.94
11/2/2021 11:45:00 PM 7.34 45.212 0.044 7.08 8.58 10.95
11/3/2021 12:00:00 AM 7.31 45.158 0.044 7.08 7.02 10.95
11/3/2021 12:15:00 AM 7.29 45.122 0.044 7.07 7.49 10.96
11/3/2021 12:30:00 AM 7.28 45.104 0.044 7.09 7.34 10.96
11/3/2021 12:45:00 AM 7.27 45.086 0.044 7.07 7.02 10.97
11/3/2021 1:00:00 AM 7.25 45.05 0.044 7.07 7 10.97
11/3/2021 1:15:00 AM 7.24 45.032 0.044 7.07 6.32 10.98
11/3/2021 1:30:00 AM 7.23 45.014 0.044 7.08 5.91 10.98
11/3/2021 1:45:00 AM 7.23 45.014 0.044 7.08 6.51 10.98
11/3/2021 2:00:00 AM 7.22 44.996 0.044 7.08 6.37 10.99
11/3/2021 2:15:00 AM 7.21 44.978 0.044 7.08 6.35 10.99
11/3/2021 2:30:00 AM 7.2 44.96 0.044 7.08 7.9 10.99
11/3/2021 2:45:00 AM 7.2 44.96 0.044 7.07 7.57 10.99
11/3/2021 3:00:00 AM 7.2 44.96 0.044 7.08 6.57 10.99
11/3/2021 3:15:00 AM 7.19 44.942 0.044 7.08 7.27 10.99
11/3/2021 3:30:00 AM 7.19 44.942 0.044 7.08 6.62 11
11/3/2021 3:45:00 AM 7.19 44.942 0.044 7.07 6.79 10.99
11/3/2021 4:00:00 AM 7.19 44.942 0.044 7.08 6.45 11
11/3/2021 4:15:00 AM 7.19 44.942 0.044 7.09 7.29 10.99
11/3/2021 4:30:00 AM 7.19 44.942 0.044 7.09 6.47 10.99
11/3/2021 4:45:00 AM 7.19 44.942 0.044 7.07 8.26 10.99
11/3/2021 5:00:00 AM 7.18 44.924 0.044 7.08 7.45 11
11/3/2021 5:15:00 AM 7.18 44.924 0.044 7.08 6.57 11
11/3/2021 5:30:00 AM 7.17 44.906 0.044 7.08 7.23 10.99
11/3/2021 5:45:00 AM 7.15 44.87 0.044 7.06 7.1 11
11/3/2021 6:00:00 AM 7.13 44.834 0.044 7.09 6.98 11
11/3/2021 6:15:00 AM 7.12 44.816 0.044 7.08 7.13 11
11/3/2021 6:30:00 AM 7.1 44.78 0.044 7.08 7.33 11.02
11/3/2021 6:45:00 AM 7.08 44.744 0.044 7.09 8.38 11.02
11/3/2021 7:00:00 AM 7.07 44.726 0.044 7.09 6.51 11.02
11/3/2021 7:15:00 AM 7.06 44.708 0.044 7.09 6.99 11.02
11/3/2021 7:30:00 AM 7.06 44.708 0.044 7.07 6.43 11.03
11/3/2021 7:45:00 AM 7.06 44.708 0.044 7.08 6.76 11.03
11/3/2021 8:00:00 AM 7.04 44.672 0.044 7.08 6.36 11.04
11/3/2021 8:15:00 AM 7.02 44.636 0.044 7.08 6.79 11.06
11/3/2021 8:30:00 AM 7 44.6 0.044 7.08 6.59 11.09
11/3/2021 8:45:00 AM 6.99 44.582 0.044 7.09 6.9 11.12
11/3/2021 9:00:00 AM 7 44.6 0.044 7.11 5.91 11.15
11/3/2021 9:15:00 AM 7.02 44.636 0.044 7.12 6 11.17
11/3/2021 9:30:00 AM 7.04 44.672 0.044 7.13 6.12 11.2
11/3/2021 9:45:00 AM 7.05 44.69 0.044 7.12 6.71 11.21
11/3/2021 10:00:00 AM 7.07 44.726 0.044 7.14 67.95 11.24
11/3/2021 10:15:00 AM 7.09 44.762 0.044 7.15 5.95 11.24
11/3/2021 10:30:00 AM 7.11 44.798 0.044 7.17 2.05 11.26
11/3/2021 10:45:00 AM 7.16 44.888 0.044 7.18 7.33 11.28
11/3/2021 11:00:00 AM 7.19 44.942 0.044 7.18 9.74 11.28
11/3/2021 11:15:00 AM 7.23 45.014 0.044 7.18 6.51 11.28
11/3/2021 11:30:00 AM 7.26 45.068 0.044 7.18 7.74 11.27
11/3/2021 11:45:00 AM 7.32 45.176 0.044 7.19 7.78 11.28
11/3/2021 12:00:00 PM 7.37 45.266 0.044 7.2 6.63 11.26
11/3/2021 12:15:00 PM 7.4 45.32 0.044 7.2 6.27 11.25
11/3/2021 12:30:00 PM 7.47 45.446 0.044 7.2 6.68 11.24
11/3/2021 12:45:00 PM 7.56 45.608 0.043 7.21 5.92 11.23
11/3/2021 1:00:00 PM 7.55 45.59 0.043 7.21 5.74 11.21
11/3/2021 1:15:00 PM 7.59 45.662 0.044 7.21 7.3 11.2
11/3/2021 1:30:00 PM 7.66 45.788 0.044 7.22 6.1 11.17
11/3/2021 1:45:00 PM 7.68 45.824 0.043 7.21 6.27 11.17
11/3/2021 2:00:00 PM 7.69 45.842 0.043 7.21 7.07 11.16
11/3/2021 2:15:00 PM 7.75 45.95 0.043 7.22 5.86 11.14
11/3/2021 2:30:00 PM 7.81 46.058 0.043 7.23 5.73 11.12
11/3/2021 2:45:00 PM 7.83 46.094 0.044 7.21 5.93 11.1
11/3/2021 3:00:00 PM 7.78 46.004 0.044 7.2 5.99 11.09
11/3/2021 3:15:00 PM 7.76 45.968 0.044 7.19 5.74 11.07
11/3/2021 3:30:00 PM 7.77 45.986 0.044 7.19 5.86 11.06
11/3/2021 3:45:00 PM 7.76 45.968 0.044 7.18 5.91 11.04
11/3/2021 4:00:00 PM 7.76 45.968 0.044 7.19 5.72 11.06
11/3/2021 4:15:00 PM 7.77 45.986 0.044 7.19 5.73 11.06
11/3/2021 4:30:00 PM 7.75 45.95 0.044 7.19 5.91 11.05
11/3/2021 4:45:00 PM 7.74 45.932 0.044 7.18 5.54 11.04
11/3/2021 5:00:00 PM 7.68 45.824 0.044 7.17 5.83 11.03
11/3/2021 5:15:00 PM 7.68 45.824 0.044 7.18 6.06 11.04
11/3/2021 5:30:00 PM 7.66 45.788 0.044 7.15 5.98 11.02
11/3/2021 5:45:00 PM 7.62 45.716 0.044 7.17 5.94 11
11/3/2021 6:00:00 PM 7.59 45.662 0.044 7.14 5.99 10.98
11/3/2021 6:15:00 PM 7.55 45.59 0.044 7.13 5.88 10.97
11/3/2021 6:30:00 PM 7.53 45.554 0.044 7.13 5.7 10.95
11/3/2021 6:45:00 PM 7.49 45.482 0.044 7.13 5.99 10.95
11/3/2021 7:00:00 PM 7.44 45.392 0.044 7.12 8.78 10.96
11/3/2021 7:15:00 PM 7.41 45.338 0.044 7.11 6.29 10.96
11/3/2021 7:30:00 PM 7.39 45.302 0.044 7.11 5.75 10.97
11/3/2021 7:45:00 PM 7.36 45.248 0.044 7.1 5.78 10.98
11/3/2021 8:00:00 PM 7.34 45.212 0.044 7.1 6.26 10.99
11/3/2021 8:15:00 PM 7.32 45.176 0.044 7.1 5.78 10.99
11/3/2021 8:30:00 PM 7.3 45.14 0.044 7.1 6.16 10.99
11/3/2021 8:45:00 PM 7.28 45.104 0.044 7.08 6.23 11.01
11/3/2021 9:00:00 PM 7.26 45.068 0.044 7.1 5.89 11.01
11/3/2021 9:15:00 PM 7.24 45.032 0.044 7.09 5.7 11.01
11/3/2021 9:30:00 PM 7.22 44.996 0.044 7.09 5.68 11.02
11/3/2021 9:45:00 PM 7.19 44.942 0.044 7.09 6.2 11.03
11/3/2021 10:00:00 PM 7.17 44.906 0.044 7.09 5.93 11.03
11/3/2021 10:15:00 PM 7.13 44.834 0.044 7.08 6.03 11.04
11/3/2021 10:30:00 PM 7.09 44.762 0.044 7.08 5.96 11.05
11/3/2021 10:45:00 PM 7.05 44.69 0.044 7.09 5.49 11.06
11/3/2021 11:00:00 PM 7.01 44.618 0.044 7.07 6.49 11.07
11/3/2021 11:15:00 PM 6.96 44.528 0.044 7.07 6.61 11.08
11/3/2021 11:30:00 PM 6.92 44.456 0.044 7.07 6.78 11.1
11/3/2021 11:45:00 PM 6.87 44.366 0.044 7.08 7.25 11.11
11/4/2021 12:00:00 AM 6.83 44.294 0.044 7.07 5.81 11.12
11/4/2021 12:15:00 AM 6.79 44.222 0.044 7.07 5.87 11.13
11/4/2021 12:30:00 AM 6.75 44.15 0.044 7.07 6.41 11.14
11/4/2021 12:45:00 AM 6.72 44.096 0.044 7.06 6.06 11.16
11/4/2021 1:00:00 AM 6.69 44.042 0.044 7.07 6.34 11.17
11/4/2021 1:15:00 AM 6.67 44.006 0.044 7.06 5.9 11.17
11/4/2021 1:30:00 AM 6.64 43.952 0.044 7.07 5.74 11.18
11/4/2021 1:45:00 AM 6.6 43.88 0.044 7.07 5.86 11.2
11/4/2021 2:00:00 AM 6.57 43.826 0.044 7.06 6 11.21
11/4/2021 2:15:00 AM 6.53 43.754 0.044 7.06 6.05 11.21
11/4/2021 2:30:00 AM 6.5 43.7 0.044 7.06 5.8 11.22
11/4/2021 2:45:00 AM 6.48 43.664 0.044 7.06 5.54 11.23
11/4/2021 3:00:00 AM 6.45 43.61 0.044 7.06 5.87 11.23
11/4/2021 3:15:00 AM 6.43 43.574 0.044 7.07 5.79 11.24
11/4/2021 3:30:00 AM 6.4 43.52 0.044 7.06 5.38 11.25
11/4/2021 3:45:00 AM 6.38 43.484 0.044 7.06 5.99 11.26
11/4/2021 4:00:00 AM 6.36 43.448 0.044 7.05 5.88 11.26
11/4/2021 4:15:00 AM 6.34 43.412 0.044 7.06 6.25 11.27
11/4/2021 4:30:00 AM 6.32 43.376 0.044 7.06 5.78 11.28
11/4/2021 4:45:00 AM 6.31 43.358 0.044 7.06 5.96 11.28
11/4/2021 5:00:00 AM 6.31 43.358 0.044 7.06 5.36 11.28
11/4/2021 5:15:00 AM 6.3 43.34 0.044 7.06 5.39 11.29
11/4/2021 5:30:00 AM 6.29 43.322 0.044 7.06 5.93 11.29
11/4/2021 5:45:00 AM 6.29 43.322 0.044 7.06 5.66 11.29
11/4/2021 6:00:00 AM 6.28 43.304 0.044 7.07 5.94 11.29
11/4/2021 6:15:00 AM 6.28 43.304 0.044 7.06 5.94 11.29
11/4/2021 6:30:00 AM 6.27 43.286 0.044 7.06 5.93 11.3
11/4/2021 6:45:00 AM 6.27 43.286 0.044 7.06 5.97 11.3
11/4/2021 7:00:00 AM 6.27 43.286 0.044 7.06 5.76 11.29
11/4/2021 7:15:00 AM 6.25 43.25 0.044 7.06 5.95 11.3
11/4/2021 7:30:00 AM 6.25 43.25 0.044 7.06 5.74 11.3
11/4/2021 7:45:00 AM 6.24 43.232 0.044 7.06 6.3 11.31
11/4/2021 8:00:00 AM 6.24 43.232 0.044 7.06 5.49 11.31
11/4/2021 8:15:00 AM 6.23 43.214 0.044 7.05 5.63 11.33
11/4/2021 8:30:00 AM 6.21 43.178 0.044 7.07 5.69 11.35
11/4/2021 8:45:00 AM 6.2 43.16 0.044 7.07 5.54 11.38
11/4/2021 9:00:00 AM 6.19 43.142 0.044 7.07 5.57 11.4
11/4/2021 9:15:00 AM 6.19 43.142 0.044 7.08 6.08 11.44
11/4/2021 9:30:00 AM 6.2 43.16 0.044 7.09 5.54 11.45
11/4/2021 9:45:00 AM 6.21 43.178 0.044 7.08 5.43 11.48
11/4/2021 10:00:00 AM 6.23 43.214 0.044 7.12 5.29 11.49
11/4/2021 10:15:00 AM 6.26 43.268 0.044 7.13 5.69 11.5
11/4/2021 10:30:00 AM 6.3 43.34 0.044 7.13 4.93 11.5
11/4/2021 10:45:00 AM 6.35 43.43 0.044 7.13 5.63 11.51
11/4/2021 11:00:00 AM 6.42 43.556 0.044 7.15 5.24 11.51
11/4/2021 11:15:00 AM 6.5 43.7 0.044 7.17 5.31 11.51
11/4/2021 11:30:00 AM 6.6 43.88 0.044 7.17 5.25 11.5
11/4/2021 11:45:00 AM 6.71 44.078 0.044 7.19 5.28 11.49
11/4/2021 12:00:00 PM 6.81 44.258 0.044 7.19 5.47 11.47
11/4/2021 12:15:00 PM 6.84 44.312 0.044 7.19 5.41 11.43
11/4/2021 12:30:00 PM 6.91 44.438 0.044 7.19 6.15 11.43
11/4/2021 12:45:00 PM 6.94 44.492 0.044 7.18 5.51 11.38
11/4/2021 1:00:00 PM 7 44.6 0.044 7.19 5.35 11.37
11/4/2021 1:15:00 PM 7.05 44.69 0.044 7.2 5.71 11.35
11/4/2021 1:30:00 PM 7.09 44.762 0.044 7.21 5.28 11.34
11/4/2021 1:45:00 PM 7.14 44.852 0.044 7.21 5.36 11.34
11/4/2021 2:00:00 PM 7.19 44.942 0.044 7.21 5.23 11.33
11/4/2021 2:15:00 PM 7.24 45.032 0.044 7.22 5.08 11.32
11/4/2021 2:30:00 PM 7.3 45.14 0.044 7.23 5.12 11.3
11/4/2021 2:45:00 PM 7.36 45.248 0.044 7.23 4.98 11.29
11/4/2021 3:00:00 PM 7.44 45.392 0.044 7.25 5.31 11.27
11/4/2021 3:15:00 PM 7.47 45.446 0.044 7.23 5.09 11.25
11/4/2021 3:30:00 PM 7.51 45.518 0.044 7.24 5.14 11.23
11/4/2021 3:45:00 PM 7.57 45.626 0.044 7.23 4.89 11.22
11/4/2021 4:00:00 PM 7.57 45.626 0.044 7.22 5.63 11.18
11/4/2021 4:15:00 PM 7.56 45.608 0.044 7.22 5.42 11.15
11/4/2021 4:30:00 PM 7.53 45.554 0.044 7.2 5.08 11.13
11/4/2021 4:45:00 PM 7.53 45.554 0.044 7.2 5.63 11.12
11/4/2021 5:00:00 PM 7.53 45.554 0.044 7.2 5.81 11.11
11/4/2021 5:15:00 PM 7.52 45.536 0.044 7.19 5.14 11.09
11/4/2021 5:30:00 PM 7.5 45.5 0.044 7.18 5.36 11.08
11/4/2021 5:45:00 PM 7.48 45.464 0.044 7.18 6.19 11.05
11/4/2021 6:00:00 PM 7.44 45.392 0.044 7.16 7.34 11.03
11/4/2021 6:15:00 PM 7.39 45.302 0.044 7.14 5.46 11.01
11/4/2021 6:30:00 PM 7.34 45.212 0.044 7.13 5.74 11
11/4/2021 6:45:00 PM 7.29 45.122 0.044 7.12 6.44 11
11/4/2021 7:00:00 PM 7.23 45.014 0.044 7.11 5.55 11
11/4/2021 7:15:00 PM 7.17 44.906 0.044 7.1 5.89 11.01
11/4/2021 7:30:00 PM 7.11 44.798 0.044 7.1 5.55 11.02
11/4/2021 7:45:00 PM 7.05 44.69 0.044 7.11 6.44 11.03
11/4/2021 8:00:00 PM 6.98 44.564 0.044 7.09 5.73 11.05
11/4/2021 8:15:00 PM 6.92 44.456 0.044 7.08 5.56 11.07
11/4/2021 8:30:00 PM 6.86 44.348 0.044 7.09 5.29 11.09
11/4/2021 8:45:00 PM 6.8 44.24 0.045 7.08 5.21 11.1
11/4/2021 9:00:00 PM 6.73 44.114 0.045 7.08 5.55 11.12
11/4/2021 9:15:00 PM 6.67 44.006 0.045 7.08 5.3 11.14
11/4/2021 9:30:00 PM 6.61 43.898 0.045 7.07 6.07 11.16
11/4/2021 9:45:00 PM 6.55 43.79 0.045 7.07 5.71 11.18
11/4/2021 10:00:00 PM 6.49 43.682 0.045 7.07 5.98 11.2
11/4/2021 10:15:00 PM 6.43 43.574 0.045 7.07 5.72 11.22
11/4/2021 10:30:00 PM 6.38 43.484 0.045 7.06 5.44 11.23
11/4/2021 10:45:00 PM 6.33 43.394 0.045 7.06 5.54 11.25
11/4/2021 11:00:00 PM 6.28 43.304 0.045 7.05 5.88 11.26
11/4/2021 11:15:00 PM 6.23 43.214 0.045 7.06 5.86 11.28
11/4/2021 11:30:00 PM 6.18 43.124 0.045 7.05 5.59 11.3
11/4/2021 11:45:00 PM 6.13 43.034 0.045 7.06 5.68 11.32
11/5/2021 12:00:00 AM 6.08 42.944 0.045 7.06 5.76 11.33
11/5/2021 12:15:00 AM 6.03 42.854 0.045 7.05 5.49 11.34
11/5/2021 12:30:00 AM 5.99 42.782 0.045 7.05 5.65 11.36
11/5/2021 12:45:00 AM 5.94 42.692 0.045 7.06 5.47 11.37
11/5/2021 1:00:00 AM 5.89 42.602 0.045 7.05 5.27 11.38
11/5/2021 1:15:00 AM 5.85 42.53 0.045 7.04 5.43 11.4
11/5/2021 1:30:00 AM 5.81 42.458 0.045 7.04 5.41 11.41
11/5/2021 1:45:00 AM 5.77 42.386 0.045 7.04 5.48 11.42
11/5/2021 2:00:00 AM 5.73 42.314 0.045 7.05 5.86 11.44
11/5/2021 2:15:00 AM 5.69 42.242 0.045 7.05 5.52 11.45
11/5/2021 2:30:00 AM 5.66 42.188 0.045 7.04 5.69 11.46
11/5/2021 2:45:00 AM 5.62 42.116 0.045 7.04 5.79 11.47
11/5/2021 3:00:00 AM 5.59 42.062 0.045 7.05 5.51 11.48
11/5/2021 3:15:00 AM 5.55 41.99 0.044 7.05 5.51 11.49
11/5/2021 3:30:00 AM 5.51 41.918 0.045 7.04 5.59 11.5
11/5/2021 3:45:00 AM 5.48 41.864 0.045 7.04 5.55 11.51
11/5/2021 4:00:00 AM 5.45 41.81 0.045 7.03 5.21 11.52
11/5/2021 4:15:00 AM 5.41 41.738 0.045 7.04 5.66 11.53
11/5/2021 4:30:00 AM 5.38 41.684 0.045 7.04 5.45 11.55
11/5/2021 4:45:00 AM 5.35 41.63 0.045 7.04 5.51 11.56
11/5/2021 5:00:00 AM 5.31 41.558 0.045 7.04 5.69 11.56
11/5/2021 5:15:00 AM 5.28 41.504 0.045 7.02 5.43 11.58
11/5/2021 5:30:00 AM 5.25 41.45 0.045 7.03 5.63 11.59
11/5/2021 5:45:00 AM 5.22 41.396 0.045 7.04 5.92 11.6
11/5/2021 6:00:00 AM 5.19 41.342 0.045 7.04 5.15 11.61
11/5/2021 6:15:00 AM 5.16 41.288 0.045 7.04 5.33 11.62
11/5/2021 6:30:00 AM 5.13 41.234 0.045 7.03 5.56 11.63
11/5/2021 6:45:00 AM 5.11 41.198 0.045 7.04 5.49 11.64
11/5/2021 7:00:00 AM 5.08 41.144 0.045 7.03 7.48 11.65
11/5/2021 7:15:00 AM 5.05 41.09 0.045 7.04 5.47 11.66
11/5/2021 7:30:00 AM 5.02 41.036 0.045 7.03 5.63 11.67
11/5/2021 7:45:00 AM 5 41 0.045 7.04 5.33 11.69
11/5/2021 8:00:00 AM 4.98 40.964 0.045 7.03 5.07 11.71
11/5/2021 8:15:00 AM 4.96 40.928 0.045 7.04 5.19 11.73
11/5/2021 8:30:00 AM 4.94 40.892 0.045 7.04 5.24 11.76
11/5/2021 8:45:00 AM 4.93 40.874 0.045 7.05 5.21 11.79
11/5/2021 9:00:00 AM 4.93 40.874 0.045 7.06 5.21 11.82
11/5/2021 9:15:00 AM 4.94 40.892 0.044 7.06 5.18 11.85
11/5/2021 9:30:00 AM 4.95 40.91 0.044 7.07 5.04 11.87
11/5/2021 9:45:00 AM 4.97 40.946 0.044 7.08 5.02 11.89
11/5/2021 10:00:00 AM 5 41 0.044 7.11 5.4 11.9
11/5/2021 10:15:00 AM 5.03 41.054 0.044 7.1 5.7 11.91
11/5/2021 10:30:00 AM 5.08 41.144 0.044 7.1 5.44 11.92
11/5/2021 10:45:00 AM 5.17 41.306 0.044 7.13 5.28 11.92
11/5/2021 11:00:00 AM 5.26 41.468 0.044 7.13 4.84 11.92
11/5/2021 11:15:00 AM 5.37 41.666 0.044 7.15 5.08 11.91
11/5/2021 11:30:00 AM 5.48 41.864 0.044 7.16 5.38 11.89
11/5/2021 11:45:00 AM 5.55 41.99 0.044 7.16 5.33 11.87
11/5/2021 12:00:00 PM 5.63 42.134 0.044 7.17 5.09 11.84
11/5/2021 12:15:00 PM 5.78 42.404 0.044 7.19 5.2 11.82
11/5/2021 12:30:00 PM 5.9 42.62 0.044 7.2 5.05 11.77
11/5/2021 12:45:00 PM 5.99 42.782 0.044 7.2 4.93 11.74
11/5/2021 1:00:00 PM 6.14 43.052 0.044 7.22 5.36 11.73
11/5/2021 1:15:00 PM 6.24 43.232 0.044 7.22 5.15 11.69
11/5/2021 1:30:00 PM 6.38 43.484 0.044 7.23 4.78 11.65
11/5/2021 1:45:00 PM 6.45 43.61 0.044 7.23 4.81 11.62
11/5/2021 2:00:00 PM 6.57 43.826 0.044 7.24 4.92 11.59
11/5/2021 2:15:00 PM 6.69 44.042 0.044 7.23 4.85 11.53
11/5/2021 2:30:00 PM 6.76 44.168 0.044 7.23 5.15 11.49
11/5/2021 2:45:00 PM 6.89 44.402 0.044 7.24 5.29 11.47
11/5/2021 3:00:00 PM 7.03 44.654 0.044 7.25 5.42 11.43
11/5/2021 3:15:00 PM 7.1 44.78 0.044 7.24 5.05 11.39
11/5/2021 3:30:00 PM 7.15 44.87 0.044 7.24 5.38 11.37
11/5/2021 3:45:00 PM 7.14 44.852 0.044 7.23 5.14 11.33
11/5/2021 4:00:00 PM 7.11 44.798 0.044 7.21 5.19 11.32
11/5/2021 4:15:00 PM 7.09 44.762 0.044 7.2 5.18 11.31
11/5/2021 4:30:00 PM 7.08 44.744 0.044 7.2 5.15 11.31
11/5/2021 4:45:00 PM 7.06 44.708 0.044 7.21 5.77 11.3
11/5/2021 5:00:00 PM 7.02 44.636 0.044 7.19 5.41 11.28
11/5/2021 5:15:00 PM 6.97 44.546 0.044 7.17 5.42 11.27
11/5/2021 5:30:00 PM 6.92 44.456 0.044 7.17 5.03 11.25
11/5/2021 5:45:00 PM 6.87 44.366 0.044 7.15 5.27 11.24
11/5/2021 6:00:00 PM 6.82 44.276 0.044 7.16 5.25 11.22
11/5/2021 6:15:00 PM 6.78 44.204 0.044 7.15 4.9 11.2
11/5/2021 6:30:00 PM 6.73 44.114 0.045 7.14 5.21 11.2
11/5/2021 6:45:00 PM 6.68 44.024 0.045 7.12 5.33 11.2
11/5/2021 7:00:00 PM 6.62 43.916 0.045 7.12 5.13 11.21
11/5/2021 7:15:00 PM 6.55 43.79 0.045 7.1 5.72 11.22
11/5/2021 7:30:00 PM 6.49 43.682 0.045 7.1 5.23 11.24
11/5/2021 7:45:00 PM 6.42 43.556 0.045 7.1 5.19 11.25
11/5/2021 8:00:00 PM 6.36 43.448 0.045 7.1 5.07 11.28
11/5/2021 8:15:00 PM 6.3 43.34 0.045 7.09 5.3 11.29
11/5/2021 8:30:00 PM 6.24 43.232 0.045 7.08 5.16 11.31
11/5/2021 8:45:00 PM 6.17 43.106 0.045 7.09 5.18 11.33
11/5/2021 9:00:00 PM 6.11 42.998 0.045 7.08 5.76 11.34
11/5/2021 9:15:00 PM 6.06 42.908 0.045 7.08 5.22 11.36
11/5/2021 9:30:00 PM 6 42.8 0.045 7.09 5.26 11.38
11/5/2021 9:45:00 PM 5.94 42.692 0.045 7.08 5.34 11.4
11/5/2021 10:00:00 PM 5.88 42.584 0.045 7.08 5.52 11.42
11/5/2021 10:15:00 PM 5.83 42.494 0.045 7.08 5.12 11.43
11/5/2021 10:30:00 PM 5.77 42.386 0.045 7.07 5.19 11.45
11/5/2021 10:45:00 PM 5.72 42.296 0.045 7.06 5.24 11.47
11/5/2021 11:00:00 PM 5.67 42.206 0.045 7.07 5.63 11.48
11/5/2021 11:15:00 PM 5.62 42.116 0.045 7.06 5.52 11.5
11/5/2021 11:30:00 PM 5.57 42.026 0.045 7.06 5.29 11.51
11/5/2021 11:45:00 PM 5.52 41.936 0.045 7.07 5.56 11.53
11/6/2021 12:00:00 AM 5.48 41.864 0.045 7.06 4.91 11.54
11/6/2021 12:15:00 AM 5.43 41.774 0.045 7.06 5.34 11.56
11/6/2021 12:30:00 AM 5.39 41.702 0.045 7.06 5.57 11.57
11/6/2021 12:45:00 AM 5.34 41.612 0.045 7.06 5.82 11.59
11/6/2021 1:00:00 AM 5.3 41.54 0.045 7.06 5.31 11.6
11/6/2021 1:15:00 AM 5.26 41.468 0.045 7.06 5.14 11.62
11/6/2021 1:30:00 AM 5.22 41.396 0.045 7.05 5.11 11.63
11/6/2021 1:45:00 AM 5.18 41.324 0.045 7.05 5.02 11.64
11/6/2021 2:00:00 AM 5.14 41.252 0.045 7.06 5.03 11.65
11/6/2021 2:15:00 AM 5.1 41.18 0.045 7.05 5.9 11.67
11/6/2021 2:30:00 AM 5.06 41.108 0.045 7.05 5.63 11.68
11/6/2021 2:45:00 AM 5.02 41.036 0.045 7.06 5.02 11.69
11/6/2021 3:00:00 AM 4.98 40.964 0.045 7.05 4.93 11.7
11/6/2021 3:15:00 AM 4.95 40.91 0.045 7.06 5.2 11.71
11/6/2021 3:30:00 AM 4.91 40.838 0.045 7.05 5.25 11.72
11/6/2021 3:45:00 AM 4.88 40.784 0.045 7.05 5.37 11.74
11/6/2021 4:00:00 AM 4.84 40.712 0.045 7.05 5.3 11.75
11/6/2021 4:15:00 AM 4.81 40.658 0.045 7.04 5.5 11.76
11/6/2021 4:30:00 AM 4.77 40.586 0.045 7.05 5.11 11.77
11/6/2021 4:45:00 AM 4.74 40.532 0.045 7.05 5.14 11.78
11/6/2021 5:00:00 AM 4.71 40.478 0.045 7.05 4.97 11.8
11/6/2021 5:15:00 AM 4.68 40.424 0.045 7.04 5.19 11.81
11/6/2021 5:30:00 AM 4.65 40.37 0.045 7.05 5.28 11.82
11/6/2021 5:45:00 AM 4.62 40.316 0.045 7.04 5.21 11.83
11/6/2021 6:00:00 AM 4.59 40.262 0.045 7.04 5.14 11.83
11/6/2021 6:15:00 AM 4.56 40.208 0.045 7.05 5.19 11.85
11/6/2021 6:30:00 AM 4.53 40.154 0.045 7.04 5.23 11.86
11/6/2021 6:45:00 AM 4.5 40.1 0.045 7.04 5.04 11.87
11/6/2021 7:00:00 AM 4.47 40.046 0.045 7.04 5.04 11.88
11/6/2021 7:15:00 AM 4.44 39.992 0.045 7.04 5.38 11.89
11/6/2021 7:30:00 AM 4.42 39.956 0.045 7.03 4.69 11.9
11/6/2021 7:45:00 AM 4.39 39.902 0.045 7.04 5.19 11.91
11/6/2021 8:00:00 AM 4.36 39.848 0.045 7.04 5.62 11.92
11/6/2021 8:15:00 AM 4.34 39.812 0.045 7.04 5.32 11.95
11/6/2021 8:30:00 AM 4.33 39.794 0.045 7.04 4.98 11.98
11/6/2021 8:45:00 AM 4.32 39.776 0.045 7.05 5.09 12
11/6/2021 9:00:00 AM 4.32 39.776 0.045 7.07 5.54 12.03
11/6/2021 9:15:00 AM 4.32 39.776 0.045 7.07 4.94 12.06
11/6/2021 9:30:00 AM 4.33 39.794 0.045 7.08 4.75 12.08
11/6/2021 9:45:00 AM 4.35 39.83 0.045 7.09 4.77 12.1
11/6/2021 10:00:00 AM 4.38 39.884 0.045 7.09 4.85 12.11
11/6/2021 10:15:00 AM 4.42 39.956 0.045 7.11 5.42 12.12
11/6/2021 10:30:00 AM 4.47 40.046 0.045 7.12 4.94 12.12
11/6/2021 10:45:00 AM 4.53 40.154 0.045 7.13 5.09 12.12
11/6/2021 11:00:00 AM 4.61 40.298 0.045 7.13 4.92 12.11
11/6/2021 11:15:00 AM 4.71 40.478 0.045 7.13 4.6 12.1
11/6/2021 11:30:00 AM 4.81 40.658 0.045 7.16 4.83 12.07
11/6/2021 11:45:00 AM 4.93 40.874 0.045 7.14 4.9 12.05
11/6/2021 12:00:00 PM 5.05 41.09 0.045 7.18 4.8 12.02
11/6/2021 12:15:00 PM 5.18 41.324 0.045 7.18 4.79 11.98
11/6/2021 12:30:00 PM 5.32 41.576 0.044 7.19 4.83 11.94
11/6/2021 12:45:00 PM 5.46 41.828 0.045 7.2 4.91 11.9
11/6/2021 1:00:00 PM 5.61 42.098 0.044 7.21 4.88 11.86
11/6/2021 1:15:00 PM 5.74 42.332 0.044 7.22 4.93 11.82
11/6/2021 1:30:00 PM 5.88 42.584 0.044 7.22 4.92 11.77
11/6/2021 1:45:00 PM 5.99 42.782 0.044 7.23 5.03 11.73
11/6/2021 2:00:00 PM 6.11 42.998 0.044 7.23 4.66 11.69
11/6/2021 2:15:00 PM 6.22 43.196 0.044 7.23 4.86 11.65
11/6/2021 2:30:00 PM 6.32 43.376 0.044 7.24 5.59 11.61
11/6/2021 2:45:00 PM 6.43 43.574 0.044 7.23 5.06 11.57
11/6/2021 3:00:00 PM 6.53 43.754 0.044 7.24 5.16 11.53
11/6/2021 3:15:00 PM 6.61 43.898 0.044 7.24 4.91 11.49
11/6/2021 3:30:00 PM 6.68 44.024 0.044 7.25 5.06 11.45
11/6/2021 3:45:00 PM 6.74 44.132 0.044 7.25 5.24 11.42
11/6/2021 4:00:00 PM 6.8 44.24 0.044 7.23 5.27 11.39
11/6/2021 4:15:00 PM 6.84 44.312 0.045 7.23 5.26 11.36
11/6/2021 4:30:00 PM 6.86 44.348 0.045 7.22 5.08 11.33
11/6/2021 4:45:00 PM 6.87 44.366 0.044 7.22 4.81 11.31
11/6/2021 5:00:00 PM 6.86 44.348 0.045 7.19 5.09 11.28
11/6/2021 5:15:00 PM 6.85 44.33 0.045 7.19 4.88 11.26
11/6/2021 5:30:00 PM 6.83 44.294 0.045 7.18 4.8 11.24
11/6/2021 5:45:00 PM 6.8 44.24 0.045 7.18 5.44 11.22
11/6/2021 6:00:00 PM 6.75 44.15 0.045 7.17 5.12 11.2
11/6/2021 6:15:00 PM 6.71 44.078 0.045 7.16 5.01 11.19
11/6/2021 6:30:00 PM 6.66 43.988 0.045 7.15 5.34 11.18
11/6/2021 6:45:00 PM 6.61 43.898 0.045 7.14 5.41 11.18
11/6/2021 7:00:00 PM 6.56 43.808 0.045 7.13 5.08 11.18
11/6/2021 7:15:00 PM 6.5 43.7 0.045 7.12 5.2 11.19
11/6/2021 7:30:00 PM 6.44 43.592 0.045 7.13 5.38 11.21
11/6/2021 7:45:00 PM 6.37 43.466 0.045 7.12 5.31 11.22
11/6/2021 8:00:00 PM 6.3 43.34 0.045 7.11 5.55 11.24
11/6/2021 8:15:00 PM 6.24 43.232 0.045 7.11 5.14 11.26
11/6/2021 8:30:00 PM 6.17 43.106 0.045 7.1 5.25 11.28
11/6/2021 8:45:00 PM 6.11 42.998 0.045 7.09 5.3 11.3
11/6/2021 9:00:00 PM 6.05 42.89 0.045 7.11 5.26 11.32
11/6/2021 9:15:00 PM 5.99 42.782 0.045 7.1 5.23 11.33
11/6/2021 9:30:00 PM 5.93 42.674 0.045 7.09 4.88 11.36
11/6/2021 9:45:00 PM 5.87 42.566 0.045 7.1 5.19 11.38
11/6/2021 10:00:00 PM 5.81 42.458 0.046 7.11 5.09 11.39
11/6/2021 10:15:00 PM 5.75 42.35 0.045 7.09 5.26 11.41
11/6/2021 10:30:00 PM 5.69 42.242 0.045 7.09 5.02 11.43
11/6/2021 10:45:00 PM 5.63 42.134 0.046 7.09 5.39 11.45
11/6/2021 11:00:00 PM 5.58 42.044 0.045 7.09 5.15 11.46
11/6/2021 11:15:00 PM 5.52 41.936 0.045 7.09 5.3 11.48
11/6/2021 11:30:00 PM 5.47 41.846 0.045 7.09 5.35 11.49
11/6/2021 11:45:00 PM 5.42 41.756 0.045 7.08 5.76 11.51
11/7/2021 12:00:00 AM 5.37 41.666 0.046 7.08 5.21 11.53
11/7/2021 12:15:00 AM 5.33 41.594 0.045 7.08 5.51 11.54
11/7/2021 12:30:00 AM 5.28 41.504 0.045 7.08 5.28 11.56
11/7/2021 12:45:00 AM 5.23 41.414 0.045 7.07 5.19 11.57
11/7/2021 1:00:00 AM 5.19 41.342 0.046 7.07 5.46 11.59
11/7/2021 1:15:00 AM 5.15 41.27 0.046 7.07 5.34 11.6
11/7/2021 1:30:00 AM 5.1 41.18 0.046 7.07 5.17 11.61
11/7/2021 1:45:00 AM 5.06 41.108 0.045 7.06 5.23 11.62
11/7/2021 2:00:00 AM 5.02 41.036 0.045 7.07 5.32 11.63
11/7/2021 2:15:00 AM 4.98 40.964 0.045 7.07 5.18 11.65
11/7/2021 2:30:00 AM 4.94 40.892 0.045 7.07 5.03 11.66
11/7/2021 2:45:00 AM 4.9 40.82 0.046 7.07 5.72 11.67
11/7/2021 3:00:00 AM 4.86 40.748 0.045 7.07 5.28 11.69
11/7/2021 3:15:00 AM 4.83 40.694 0.045 7.07 5.2 11.69
11/7/2021 3:30:00 AM 4.79 40.622 0.045 7.07 5.3 11.71
11/7/2021 3:45:00 AM 4.75 40.55 0.045 7.07 4.97 11.72
11/7/2021 4:00:00 AM 4.72 40.496 0.045 7.07 4.87 11.73
11/7/2021 4:15:00 AM 4.69 40.442 0.045 7.07 4.9 11.74
11/7/2021 4:30:00 AM 4.66 40.388 0.045 7.06 4.85 11.75
11/7/2021 4:45:00 AM 4.63 40.334 0.045 7.06 4.9 11.76
11/7/2021 5:00:00 AM 4.6 40.28 0.045 7.07 4.93 11.77
11/7/2021 5:15:00 AM 4.57 40.226 0.045 7.06 5.32 11.77
11/7/2021 5:30:00 AM 4.54 40.172 0.045 7.05 4.98 11.79
11/7/2021 5:45:00 AM 4.51 40.118 0.045 7.06 5.03 11.8
11/7/2021 6:00:00 AM 4.48 40.064 0.045 7.06 4.94 11.8
11/7/2021 6:15:00 AM 4.45 40.01 0.045 7.05 4.8 11.82
11/7/2021 6:30:00 AM 4.42 39.956 0.045 7.06 5.12 11.83
11/7/2021 6:45:00 AM 4.4 39.92 0.045 7.05 4.97 11.84
11/7/2021 7:00:00 AM 4.37 39.866 0.046 7.05 5.13 11.84
11/7/2021 7:15:00 AM 4.35 39.83 0.046 7.06 5.26 11.85
11/7/2021 7:30:00 AM 4.32 39.776 0.045 7.06 5.19 11.86
11/7/2021 7:45:00 AM 4.3 39.74 0.045 7.05 5.28 11.87
11/7/2021 8:00:00 AM 4.28 39.704 0.045 7.05 5.39 11.88
11/7/2021 8:15:00 AM 4.26 39.668 0.045 7.06 4.98 11.91
11/7/2021 8:30:00 AM 4.25 39.65 0.045 7.07 5.08 11.94
11/7/2021 8:45:00 AM 4.24 39.632 0.045 7.08 4.91 11.97
11/7/2021 9:00:00 AM 4.25 39.65 0.045 7.08 4.86 12
11/7/2021 9:15:00 AM 4.25 39.65 0.045 7.09 4.88 12.02
11/7/2021 9:30:00 AM 4.27 39.686 0.045 7.1 4.85 12.04
11/7/2021 9:45:00 AM 4.3 39.74 0.045 7.11 4.6 12.06
11/7/2021 10:00:00 AM 4.33 39.794 0.045 7.12 4.79 12.07
11/7/2021 10:15:00 AM 4.38 39.884 0.045 7.13 5 12.08
11/7/2021 10:30:00 AM 4.44 39.992 0.045 7.14 4.92 12.07
11/7/2021 10:45:00 AM 4.51 40.118 0.045 7.14 5.02 12.08
11/7/2021 11:00:00 AM 4.59 40.262 0.045 7.16 4.77 12.07
11/7/2021 11:15:00 AM 4.69 40.442 0.045 7.16 4.85 12.06
11/7/2021 11:30:00 AM 4.79 40.622 0.045 7.17 4.93 12.04
11/7/2021 11:45:00 AM 4.91 40.838 0.045 7.18 4.86 12.02
11/7/2021 12:00:00 PM 5.04 41.072 0.045 7.19 4.8 11.98
11/7/2021 12:15:00 PM 5.19 41.342 0.045 7.21 4.94 11.95
11/7/2021 12:30:00 PM 5.35 41.63 0.045 7.22 4.61 11.9
11/7/2021 12:45:00 PM 5.51 41.918 0.045 7.23 4.57 11.86
11/7/2021 1:00:00 PM 5.66 42.188 0.045 7.24 4.99 11.81
11/7/2021 1:15:00 PM 5.82 42.476 0.045 7.24 4.54 11.77
11/7/2021 1:30:00 PM 5.97 42.746 0.045 7.25 4.61 11.71
11/7/2021 1:45:00 PM 6.11 42.998 0.045 7.26 4.81 11.66
11/7/2021 2:00:00 PM 6.25 43.25 0.045 7.26 4.9 11.62
11/7/2021 2:15:00 PM 6.37 43.466 0.045 7.27 4.88 11.57
11/7/2021 2:30:00 PM 6.5 43.7 0.045 7.28 4.61 11.52
11/7/2021 2:45:00 PM 6.62 43.916 0.045 7.27 4.53 11.49
11/7/2021 3:00:00 PM 6.72 44.096 0.045 7.28 4.91 11.45
11/7/2021 3:15:00 PM 6.82 44.276 0.045 7.28 4.69 11.41
11/7/2021 3:30:00 PM 6.9 44.42 0.045 7.28 4.6 11.37
11/7/2021 3:45:00 PM 6.98 44.564 0.045 7.27 4.59 11.33
11/7/2021 4:00:00 PM 7.05 44.69 0.045 7.27 4.78 11.3
11/7/2021 4:15:00 PM 7.11 44.798 0.045 7.27 4.76 11.27
11/7/2021 4:30:00 PM 7.15 44.87 0.045 7.27 4.65 11.23
11/7/2021 4:45:00 PM 7.18 44.924 0.045 7.24 4.78 11.2
11/7/2021 5:00:00 PM 7.19 44.942 0.045 7.25 4.83 11.17
11/7/2021 5:15:00 PM 7.2 44.96 0.045 7.23 4.95 11.13
11/7/2021 5:30:00 PM 7.2 44.96 0.045 7.21 5 11.11
11/7/2021 5:45:00 PM 7.19 44.942 0.045 7.21 4.92 11.07
11/7/2021 6:00:00 PM 7.17 44.906 0.045 7.19 4.77 11.04
11/7/2021 6:15:00 PM 7.14 44.852 0.045 7.18 5.02 11.03
11/7/2021 6:30:00 PM 7.11 44.798 0.045 7.17 4.84 11.02
11/7/2021 6:45:00 PM 7.07 44.726 0.045 7.15 5.02 11.01
11/7/2021 7:00:00 PM 7.03 44.654 0.045 7.15 4.65 11.01
11/7/2021 7:15:00 PM 6.98 44.564 0.046 7.15 5.09 11.01
11/7/2021 7:30:00 PM 6.92 44.456 0.046 7.14 5.49 11.03
11/7/2021 7:45:00 PM 6.86 44.348 0.046 7.14 5.2 11.04
11/7/2021 8:00:00 PM 6.8 44.24 0.046 7.12 5.22 11.06
11/7/2021 8:15:00 PM 6.74 44.132 0.046 7.13 4.98 11.07
11/7/2021 8:30:00 PM 6.69 44.042 0.046 7.13 4.79 11.1
11/7/2021 8:45:00 PM 6.63 43.934 0.046 7.12 5.24 11.11
11/7/2021 9:00:00 PM 6.57 43.826 0.046 7.13 4.97 11.13
11/7/2021 9:15:00 PM 6.52 43.736 0.046 7.13 5.35 11.15
11/7/2021 9:30:00 PM 6.46 43.628 0.046 7.12 4.81 11.16
11/7/2021 9:45:00 PM 6.4 43.52 0.046 7.11 5.16 11.18
11/7/2021 10:00:00 PM 6.34 43.412 0.046 7.11 5.27 11.2
11/7/2021 10:15:00 PM 6.29 43.322 0.046 7.1 4.89 11.22
11/7/2021 10:30:00 PM 6.23 43.214 0.046 7.1 4.94 11.24
11/7/2021 10:45:00 PM 6.18 43.124 0.046 7.11 5.26 11.26
11/7/2021 11:00:00 PM 6.12 43.016 0.046 7.11 4.81 11.28
11/7/2021 11:15:00 PM 6.07 42.926 0.046 7.1 5.13 11.29
11/7/2021 11:30:00 PM 6.03 42.854 0.046 7.1 4.94 11.31
11/7/2021 11:45:00 PM 5.98 42.764 0.046 7.1 4.84 11.32
11/8/2021 12:00:00 AM 5.93 42.674 0.046 7.11 4.91 11.33
11/8/2021 12:15:00 AM 5.89 42.602 0.046 7.11 4.65 11.34
11/8/2021 12:30:00 AM 5.85 42.53 0.046 7.1 5.42 11.35
11/8/2021 12:45:00 AM 5.81 42.458 0.046 7.1 5.33 11.37
11/8/2021 1:00:00 AM 5.77 42.386 0.046 7.09 5.08 11.38
11/8/2021 1:15:00 AM 5.73 42.314 0.046 7.09 4.97 11.39
11/8/2021 1:30:00 AM 5.69 42.242 0.046 7.09 4.97 11.4
11/8/2021 1:45:00 AM 5.66 42.188 0.046 7.1 4.97 11.41
11/8/2021 2:00:00 AM 5.62 42.116 0.046 7.09 4.81 11.43
11/8/2021 2:15:00 AM 5.59 42.062 0.046 7.09 5.44 11.44
11/8/2021 2:30:00 AM 5.56 42.008 0.046 7.09 5.07 11.45
11/8/2021 2:45:00 AM 5.53 41.954 0.046 7.08 4.62 11.46
11/8/2021 3:00:00 AM 5.5 41.9 0.046 7.09 4.87 11.47
11/8/2021 3:15:00 AM 5.47 41.846 0.046 7.1 4.93 11.48
11/8/2021 3:30:00 AM 5.44 41.792 0.046 7.09 4.81 11.49
11/8/2021 3:45:00 AM 5.41 41.738 0.046 7.09 4.86 11.5
11/8/2021 4:00:00 AM 5.38 41.684 0.046 7.09 4.94 11.5
11/8/2021 4:15:00 AM 5.36 41.648 0.046 7.09 4.78 11.51
11/8/2021 4:30:00 AM 5.33 41.594 0.046 7.08 4.6 11.52
11/8/2021 4:45:00 AM 5.3 41.54 0.046 7.08 5.04 11.52
11/8/2021 5:00:00 AM 5.28 41.504 0.046 7.08 5.09 11.54
11/8/2021 5:15:00 AM 5.26 41.468 0.046 7.08 4.9 11.54
11/8/2021 5:30:00 AM 5.24 41.432 0.046 7.08 4.83 11.55
11/8/2021 5:45:00 AM 5.22 41.396 0.046 7.08 5.05 11.55
11/8/2021 6:00:00 AM 5.2 41.36 0.046 7.09 4.84 11.56
11/8/2021 6:15:00 AM 5.18 41.324 0.046 7.08 5.28 11.57
11/8/2021 6:30:00 AM 5.16 41.288 0.046 7.07 4.89 11.57
11/8/2021 6:45:00 AM 5.14 41.252 0.046 7.07 4.86 11.59
11/8/2021 7:00:00 AM 5.12 41.216 0.046 7.08 5.28 11.59
11/8/2021 7:15:00 AM 5.1 41.18 0.046 7.08 5.22 11.6
11/8/2021 7:30:00 AM 5.08 41.144 0.046 7.08 4.83 11.61
11/8/2021 7:45:00 AM 5.07 41.126 0.046 7.08 5.15 11.61
11/8/2021 8:00:00 AM 5.05 41.09 0.046 7.08 4.94 11.63
11/8/2021 8:15:00 AM 5.04 41.072 0.046 7.08 4.53 11.66
11/8/2021 8:30:00 AM 5.03 41.054 0.046 7.09 4.78 11.68
11/8/2021 8:45:00 AM 5.04 41.072 0.046 7.1 4.77 11.71
11/8/2021 9:00:00 AM 5.04 41.072 0.046 7.1 4.69 11.74
11/8/2021 9:15:00 AM 5.05 41.09 0.046 7.11 4.53 11.77
11/8/2021 9:30:00 AM 5.07 41.126 0.046 7.12 4.95 11.79
11/8/2021 9:45:00 AM 5.1 41.18 0.046 7.13 4.59 11.81
11/8/2021 10:00:00 AM 5.15 41.27 0.046 7.14 4.85 11.83
11/8/2021 10:15:00 AM 5.2 41.36 0.046 7.16 4.59 11.83
11/8/2021 10:30:00 AM 5.26 41.468 0.046 7.17 4.73 11.84
11/8/2021 10:45:00 AM 5.34 41.612 0.046 7.18 4.91 11.84
11/8/2021 11:00:00 AM 5.43 41.774 0.045 7.19 4.65 11.83
11/8/2021 11:15:00 AM 5.54 41.972 0.046 7.21 4.71 11.82
11/8/2021 11:30:00 AM 5.66 42.188 0.045 7.21 4.95 11.8
11/8/2021 11:45:00 AM 5.78 42.404 0.045 7.23 5.46 11.78
11/8/2021 12:00:00 PM 5.92 42.656 0.045 7.25 5.04 11.75
11/8/2021 12:15:00 PM 6.07 42.926 0.045 7.25 5.28 11.72
11/8/2021 12:30:00 PM 6.24 43.232 0.045 7.26 4.86 11.67
11/8/2021 12:45:00 PM 6.41 43.538 0.045 7.27 5.13 11.62
11/8/2021 1:00:00 PM 6.59 43.862 0.045 7.28 4.76 11.57
11/8/2021 1:15:00 PM 6.76 44.168 0.045 7.29 4.65 11.53
11/8/2021 1:30:00 PM 6.93 44.474 0.045 7.31 5.03 11.48
11/8/2021 1:45:00 PM 7.09 44.762 0.045 7.3 4.53 11.43
11/8/2021 2:00:00 PM 7.24 45.032 0.045 7.31 4.7 11.38
11/8/2021 2:15:00 PM 7.37 45.266 0.045 7.31 5.27 11.33
11/8/2021 2:30:00 PM 7.51 45.518 0.045 7.32 4.66 11.29
11/8/2021 2:45:00 PM 7.63 45.734 0.045 7.32 4.73 11.25
11/8/2021 3:00:00 PM 7.74 45.932 0.045 7.32 4.91 11.2
11/8/2021 3:15:00 PM 7.84 46.112 0.045 7.32 4.92 11.16
11/8/2021 3:30:00 PM 7.93 46.274 0.045 7.33 4.63 11.12
11/8/2021 3:45:00 PM 8.01 46.418 0.045 7.31 4.51 11.09
11/8/2021 4:00:00 PM 8.08 46.544 0.045 7.32 5.05 11.05
11/8/2021 4:15:00 PM 8.14 46.652 0.045 7.31 4.49 11.01
11/8/2021 4:30:00 PM 8.18 46.724 0.045 7.29 4.73 10.98
11/8/2021 4:45:00 PM 8.21 46.778 0.045 7.29 4.7 10.94
11/8/2021 5:00:00 PM 8.23 46.814 0.045 7.28 4.82 10.91
11/8/2021 5:15:00 PM 8.24 46.832 0.045 7.27 4.85 10.87
11/8/2021 5:30:00 PM 8.24 46.832 0.045 7.26 4.64 10.84
11/8/2021 5:45:00 PM 8.23 46.814 0.045 7.24 4.65 10.8
11/8/2021 6:00:00 PM 8.21 46.778 0.045 7.22 4.87 10.77
11/8/2021 6:15:00 PM 8.18 46.724 0.046 7.21 4.62 10.75
11/8/2021 6:30:00 PM 8.15 46.67 0.046 7.19 4.76 10.73
11/8/2021 6:45:00 PM 8.12 46.616 0.046 7.19 5.11 10.72
11/8/2021 7:00:00 PM 8.07 46.526 0.046 7.18 5.46 10.71
11/8/2021 7:15:00 PM 8.03 46.454 0.046 7.17 5.44 10.72
11/8/2021 7:30:00 PM 7.97 46.346 0.046 7.16 5.13 10.73
11/8/2021 7:45:00 PM 7.92 46.256 0.046 7.16 4.87 10.74
11/8/2021 8:00:00 PM 7.86 46.148 0.046 7.16 4.81 10.76
11/8/2021 8:15:00 PM 7.8 46.04 0.046 7.15 4.72 10.77
11/8/2021 8:30:00 PM 7.74 45.932 0.046 7.16 4.63 10.79
11/8/2021 8:45:00 PM 7.68 45.824 0.046 7.15 4.76 10.8
11/8/2021 9:00:00 PM 7.62 45.716 0.046 7.14 4.8 10.82
11/8/2021 9:15:00 PM 7.57 45.626 0.046 7.14 4.83 10.83
11/8/2021 9:30:00 PM 7.51 45.518 0.046 7.13 4.92 10.85
11/8/2021 9:45:00 PM 7.45 45.41 0.046 7.14 4.68 10.87
11/8/2021 10:00:00 PM 7.38 45.284 0.046 7.14 4.77 10.89
11/8/2021 10:15:00 PM 7.32 45.176 0.046 7.13 4.87 10.91
11/8/2021 10:30:00 PM 7.26 45.068 0.046 7.12 4.82 10.92
11/8/2021 10:45:00 PM 7.21 44.978 0.046 7.13 5.26 10.94
11/8/2021 11:00:00 PM 7.15 44.87 0.046 7.13 5.01 10.96
11/8/2021 11:15:00 PM 7.09 44.762 0.046 7.13 4.95 10.97
11/8/2021 11:30:00 PM 7.04 44.672 0.046 7.13 4.83 10.99
11/8/2021 11:45:00 PM 6.99 44.582 0.046 7.13 5.15 11.01
11/9/2021 12:00:00 AM 6.93 44.474 0.046 7.12 5.03 11.03
11/9/2021 12:15:00 AM 6.88 44.384 0.046 7.11 4.82 11.04
11/9/2021 12:30:00 AM 6.84 44.312 0.046 7.12 4.94 11.05
11/9/2021 12:45:00 AM 6.79 44.222 0.046 7.11 4.92 11.06
11/9/2021 1:00:00 AM 6.75 44.15 0.046 7.11 4.65 11.08
11/9/2021 1:15:00 AM 6.71 44.078 0.046 7.12 5.02 11.08
11/9/2021 1:30:00 AM 6.67 44.006 0.046 7.11 4.84 11.1
11/9/2021 1:45:00 AM 6.62 43.916 0.046 7.12 4.83 11.11
11/9/2021 2:00:00 AM 6.58 43.844 0.046 7.12 4.73 11.12
11/9/2021 2:15:00 AM 6.55 43.79 0.047 7.12 4.91 11.13
11/9/2021 2:30:00 AM 6.5 43.7 0.046 7.11 4.98 11.14
11/9/2021 2:45:00 AM 6.47 43.646 0.046 7.11 4.92 11.16
11/9/2021 3:00:00 AM 6.43 43.574 0.046 7.11 5.08 11.16
11/9/2021 3:15:00 AM 6.4 43.52 0.046 7.11 4.72 11.18
11/9/2021 3:30:00 AM 6.37 43.466 0.046 7.11 4.94 11.19
11/9/2021 3:45:00 AM 6.35 43.43 0.046 7.11 4.9 11.19
11/9/2021 4:00:00 AM 6.33 43.394 0.046 7.11 4.7 11.2
11/9/2021 4:15:00 AM 6.31 43.358 0.046 7.11 5.05 11.21
11/9/2021 4:30:00 AM 6.28 43.304 0.046 7.11 4.72 11.22
11/9/2021 4:45:00 AM 6.25 43.25 0.046 7.1 4.63 11.22
11/9/2021 5:00:00 AM 6.22 43.196 0.046 7.1 4.96 11.23
11/9/2021 5:15:00 AM 6.2 43.16 0.046 7.1 4.96 11.24
11/9/2021 5:30:00 AM 6.18 43.124 0.046 7.1 4.83 11.25
11/9/2021 5:45:00 AM 6.16 43.088 0.046 7.1 4.83 11.25
11/9/2021 6:00:00 AM 6.13 43.034 0.046 7.1 5 11.26
11/9/2021 6:15:00 AM 6.11 42.998 0.046 7.1 4.74 11.27
11/9/2021 6:30:00 AM 6.09 42.962 0.046 7.1 4.83 11.27
11/9/2021 6:45:00 AM 6.06 42.908 0.046 7.09 4.91 11.28
11/9/2021 7:00:00 AM 6.04 42.872 0.046 7.1 4.65 11.29
11/9/2021 7:15:00 AM 6.02 42.836 0.046 7.1 5.03 11.3
11/9/2021 7:30:00 AM 6 42.8 0.046 7.1 5.05 11.3
11/9/2021 7:45:00 AM 5.99 42.782 0.046 7.09 5.04 11.31
11/9/2021 8:00:00 AM 5.98 42.764 0.046 7.11 5.09 11.33
11/9/2021 8:15:00 AM 5.97 42.746 0.046 7.1 5.31 11.35
11/9/2021 8:30:00 AM 5.96 42.728 0.046 7.12 4.93 11.38
11/9/2021 8:45:00 AM 5.97 42.746 0.046 7.12 4.89 11.42
11/9/2021 9:00:00 AM 5.97 42.746 0.046 7.13 4.58 11.45
11/9/2021 9:15:00 AM 5.99 42.782 0.046 7.15 9.26 11.49
11/9/2021 9:30:00 AM 6.01 42.818 0.046 7.16 5.37 11.51
11/9/2021 9:45:00 AM 6.05 42.89 0.046 7.17 4.49 11.54
11/9/2021 10:00:00 AM 6.1 42.98 0.046 7.18 4.85 11.56
11/9/2021 10:15:00 AM 6.16 43.088 0.046 7.19 4.91 11.57
11/9/2021 10:30:00 AM 6.23 43.214 0.046 7.21 4.83 11.57
11/9/2021 10:45:00 AM 6.31 43.358 0.046 7.22 4.68 11.57
11/9/2021 11:00:00 AM 6.4 43.52 0.046 7.24 5.02 11.56
11/9/2021 11:15:00 AM 6.5 43.7 0.046 7.26 4.74 11.56
11/9/2021 11:30:00 AM 6.62 43.916 0.046 7.27 4.94 11.54
11/9/2021 11:45:00 AM 6.75 44.15 0.046 7.28 4.76 11.53
11/9/2021 12:00:00 PM 6.91 44.438 0.046 7.31 4.53 11.52
11/9/2021 12:15:00 PM 7.02 44.636 0.046 7.31 4.86 11.49
11/9/2021 12:30:00 PM 7.14 44.852 0.045 7.32 5.2 11.45
11/9/2021 12:45:00 PM 7.28 45.104 0.045 7.34 4.91 11.42
11/9/2021 1:00:00 PM 7.43 45.374 0.045 7.35 4.56 11.38
11/9/2021 1:15:00 PM 7.64 45.752 0.045 7.36 4.85 11.34
11/9/2021 1:30:00 PM 7.79 46.022 0.045 7.37 3.99 11.29
11/9/2021 1:45:00 PM 7.94 46.292 0.045 7.38 4.7 11.25
11/9/2021 2:00:00 PM 8.04 46.472 0.045 7.38 4.77 11.21
11/9/2021 2:15:00 PM 8.14 46.652 0.045 7.38 4.79 11.18
11/9/2021 2:30:00 PM 8.25 46.85 0.045 7.39 5 11.16
11/9/2021 2:45:00 PM 8.35 47.03 0.045 7.4 4.66 11.11
11/9/2021 3:00:00 PM 8.45 47.21 0.045 7.39 4.73 11.07
11/9/2021 3:15:00 PM 8.51 47.318 0.045 7.37 4.66 10.97
11/9/2021 3:30:00 PM 8.59 47.462 0.045 7.37 4.66 10.97
11/9/2021 3:45:00 PM 8.66 47.588 0.045 7.37 4.89 10.95
11/9/2021 4:00:00 PM 8.75 47.75 0.045 7.38 4.69 10.93
11/9/2021 4:15:00 PM 8.83 47.894 0.045 7.38 4.95 10.91
11/9/2021 4:30:00 PM 8.91 48.038 0.045 7.39 4.9 10.87
11/9/2021 4:45:00 PM 8.96 48.128 0.045 7.37 4.6 10.82
11/9/2021 5:00:00 PM 9 48.2 0.045 7.35 4.46 10.76
11/9/2021 5:15:00 PM 9.02 48.236 0.045 7.33 4.7 10.71
11/9/2021 5:30:00 PM 9.04 48.272 0.045 7.31 4.77 10.64
11/9/2021 5:45:00 PM 9.05 48.29 0.046 7.29 5.06 10.58
11/9/2021 6:00:00 PM 9.05 48.29 0.046 7.27 4.85 10.53
11/9/2021 6:15:00 PM 9.06 48.308 0.046 7.24 4.65 10.49
11/9/2021 6:30:00 PM 9.06 48.308 0.046 7.23 4.9 10.46
11/9/2021 6:45:00 PM 9.07 48.326 0.046 7.21 4.72 10.44
11/9/2021 7:00:00 PM 9.07 48.326 0.046 7.19 5.02 10.43
11/9/2021 7:15:00 PM 9.07 48.326 0.046 7.19 5.01 10.42
11/9/2021 7:30:00 PM 9.06 48.308 0.046 7.17 5.03 10.41
11/9/2021 7:45:00 PM 9.05 48.29 0.046 7.16 4.75 10.41
11/9/2021 8:00:00 PM 9.04 48.272 0.046 7.16 4.87 10.41
11/9/2021 8:15:00 PM 9.03 48.254 0.047 7.16 4.96 10.42
11/9/2021 8:30:00 PM 9.01 48.218 0.047 7.15 5 10.41
11/9/2021 8:45:00 PM 9.01 48.218 0.047 7.15 4.95 10.42
11/9/2021 9:00:00 PM 8.99 48.182 0.047 7.14 4.75 10.42
11/9/2021 9:15:00 PM 8.98 48.164 0.047 7.15 4.97 10.42
11/9/2021 9:30:00 PM 8.97 48.146 0.047 7.14 5.1 10.42
11/9/2021 9:45:00 PM 8.94 48.092 0.047 7.13 5.2 10.43
11/9/2021 10:00:00 PM 8.92 48.056 0.047 7.13 4.89 10.43
11/9/2021 10:15:00 PM 8.89 48.002 0.047 7.13 4.99 10.44
11/9/2021 10:30:00 PM 8.86 47.948 0.047 7.14 4.81 10.45
11/9/2021 10:45:00 PM 8.82 47.876 0.047 7.13 4.99 10.45
11/9/2021 11:00:00 PM 8.77 47.786 0.047 7.13 5.17 10.46
11/9/2021 11:15:00 PM 8.72 47.696 0.047 7.13 4.98 10.47
11/9/2021 11:30:00 PM 8.68 47.624 0.047 7.13 4.9 10.48
11/9/2021 11:45:00 PM 8.64 47.552 0.047 7.13 5.01 10.5
11/10/2021 12:00:00 AM 8.61 47.498 0.047 7.14 5.12 10.51
11/10/2021 12:15:00 AM 8.58 47.444 0.047 7.13 4.78 10.51
11/10/2021 12:30:00 AM 8.54 47.372 0.047 7.14 5.35 10.52
11/10/2021 12:45:00 AM 8.51 47.318 0.047 7.14 4.93 10.54
11/10/2021 1:00:00 AM 8.47 47.246 0.047 7.14 4.93 10.55
11/10/2021 1:15:00 AM 8.44 47.192 0.047 7.14 4.94 10.55
11/10/2021 1:30:00 AM 8.4 47.12 0.047 7.14 4.94 10.57
11/10/2021 1:45:00 AM 8.37 47.066 0.047 7.13 4.92 10.57
11/10/2021 2:00:00 AM 8.35 47.03 0.047 7.14 4.99 10.57
11/10/2021 2:15:00 AM 8.32 46.976 0.047 7.14 4.64 10.58
11/10/2021 2:30:00 AM 8.29 46.922 0.047 7.14 4.63 10.59
11/10/2021 2:45:00 AM 8.26 46.868 0.047 7.14 4.89 10.6
11/10/2021 3:00:00 AM 8.24 46.832 0.047 7.15 5.21 10.61
11/10/2021 3:15:00 AM 8.22 46.796 0.047 7.14 4.95 10.62
11/10/2021 3:30:00 AM 8.2 46.76 0.047 7.14 5.05 10.62
11/10/2021 3:45:00 AM 8.19 46.742 0.047 7.14 5.13 10.63
11/10/2021 4:00:00 AM 8.17 46.706 0.047 7.14 5.13 10.63
11/10/2021 4:15:00 AM 8.16 46.688 0.047 7.15 5.18 10.64
11/10/2021 4:30:00 AM 8.14 46.652 0.047 7.15 4.96 10.64
11/10/2021 4:45:00 AM 8.14 46.652 0.047 7.15 4.97 10.65
11/10/2021 5:00:00 AM 8.13 46.634 0.047 7.15 5.04 10.65
11/10/2021 5:15:00 AM 8.13 46.634 0.047 7.14 6.25 10.66
11/10/2021 5:30:00 AM 8.13 46.634 0.047 7.15 4.93 10.66
11/10/2021 5:45:00 AM 8.13 46.634 0.047 7.15 5.18 10.66
11/10/2021 6:00:00 AM 8.13 46.634 0.047 7.15 5.33 10.67
11/10/2021 6:15:00 AM 8.14 46.652 0.047 7.15 4.91 10.67
11/10/2021 6:30:00 AM 8.15 46.67 0.047 7.17 5.54 10.67
11/10/2021 6:45:00 AM 8.16 46.688 0.047 7.18 5.16 10.67
11/10/2021 7:00:00 AM 8.17 46.706 0.047 7.2 5.06 10.66
11/10/2021 7:15:00 AM 8.17 46.706 0.047 7.19 5.05 10.67
11/10/2021 7:30:00 AM 8.17 46.706 0.047 7.19 5.81 10.67
11/10/2021 7:45:00 AM 8.17 46.706 0.047 7.19 5.57 10.68
11/10/2021 8:00:00 AM 8.17 46.706 0.047 7.19 4.87 10.68
11/10/2021 8:15:00 AM 8.15 46.67 0.047 7.19 4.81 10.71
11/10/2021 8:30:00 AM 8.11 46.598 0.047 7.2 4.93 10.74
11/10/2021 8:45:00 AM 8.1 46.58 0.047 7.21 5.06 10.8
11/10/2021 9:00:00 AM 8.09 46.562 0.047 7.22 4.93 10.85
11/10/2021 9:15:00 AM 8.08 46.544 0.047 7.24 5.12 10.89
11/10/2021 9:30:00 AM 8.08 46.544 0.046 7.25 4.87 10.93
11/10/2021 9:45:00 AM 8.08 46.544 0.046 7.26 4.85 10.97
11/10/2021 10:00:00 AM 8.08 46.544 0.046 7.28 5.08 10.99
11/10/2021 10:15:00 AM 8.09 46.562 0.046 7.29 4.8 11.01
11/10/2021 10:30:00 AM 8.1 46.58 0.046 7.29 5.21 11.03
11/10/2021 10:45:00 AM 8.12 46.616 0.046 7.31 4.72 11.04
11/10/2021 11:00:00 AM 8.15 46.67 0.046 7.31 4.71 11.06
11/10/2021 11:15:00 AM 8.19 46.742 0.046 7.33 4.8 11.07
11/10/2021 11:30:00 AM 8.24 46.832 0.046 7.34 4.73 11.08
11/10/2021 11:45:00 AM 8.3 46.94 0.046 7.35 4.97 11.07
11/10/2021 12:00:00 PM 8.36 47.048 0.046 7.36 4.79 11.07
11/10/2021 12:15:00 PM 8.4 47.12 0.046 7.36 4.79 11.07
11/10/2021 12:30:00 PM 8.46 47.228 0.046 7.37 4.84 11.06
11/10/2021 12:45:00 PM 8.53 47.354 0.046 7.38 4.9 11.05
11/10/2021 1:00:00 PM 8.6 47.48 0.046 7.37 4.87 11.04
11/10/2021 1:15:00 PM 8.68 47.624 0.046 7.39 4.82 11.02
11/10/2021 1:30:00 PM 8.75 47.75 0.046 7.39 4.72 10.99
11/10/2021 1:45:00 PM 8.81 47.858 0.046 7.39 4.9 10.98
11/10/2021 2:00:00 PM 8.88 47.984 0.046 7.4 4.96 10.96
11/10/2021 2:15:00 PM 8.94 48.092 0.046 7.39 4.93 10.94
11/10/2021 2:30:00 PM 8.99 48.182 0.046 7.4 4.83 10.92
11/10/2021 2:45:00 PM 9.03 48.254 0.046 7.4 5 10.91
11/10/2021 3:00:00 PM 9.05 48.29 0.046 7.4 4.75 10.89
11/10/2021 3:15:00 PM 9.06 48.308 0.046 7.4 5.09 10.88
11/10/2021 3:30:00 PM 9.07 48.326 0.046 7.39 4.8 10.86
11/10/2021 3:45:00 PM 9.06 48.308 0.046 7.38 4.86 10.84
11/10/2021 4:00:00 PM 9.05 48.29 0.046 7.37 4.96 10.83
11/10/2021 4:15:00 PM 9.03 48.254 0.046 7.36 4.73 10.81
11/10/2021 4:30:00 PM 8.99 48.182 0.046 7.35 4.85 10.79
11/10/2021 4:45:00 PM 8.94 48.092 0.046 7.34 6.75 10.77
11/10/2021 5:00:00 PM 8.89 48.002 0.046 7.32 4.91 10.75
11/10/2021 5:15:00 PM 8.83 47.894 0.046 7.31 4.65 10.73
11/10/2021 5:30:00 PM 8.78 47.804 0.046 7.3 4.7 10.71
11/10/2021 5:45:00 PM 8.72 47.696 0.046 7.28 4.49 10.68
11/10/2021 6:00:00 PM 8.65 47.57 0.046 7.26 4.84 10.66
11/10/2021 6:15:00 PM 8.58 47.444 0.046 7.25 4.85 10.64
11/10/2021 6:30:00 PM 8.51 47.318 0.047 7.23 4.92 10.63
11/10/2021 6:45:00 PM 8.43 47.174 0.047 7.23 4.96 10.64
11/10/2021 7:00:00 PM 8.35 47.03 0.047 7.22 5.43 10.49
11/10/2021 7:15:00 PM 8.28 46.904 0.047 7.21 5.7 10.65
11/10/2021 7:30:00 PM 8.2 46.76 0.047 7.2 4.84 10.67
11/10/2021 7:45:00 PM 8.12 46.616 0.047 7.2 4.96 10.68
11/10/2021 8:00:00 PM 8.04 46.472 0.047 7.19 5.03 10.7
11/10/2021 8:15:00 PM 7.96 46.328 0.047 7.19 4.88 10.73
11/10/2021 8:30:00 PM 7.88 46.184 0.047 7.18 4.87 10.75
11/10/2021 8:45:00 PM 7.79 46.022 0.047 7.18 4.85 10.77
11/10/2021 9:00:00 PM 7.71 45.878 0.047 7.18 5.21 10.8
11/10/2021 9:15:00 PM 7.63 45.734 0.047 7.17 5.14 10.82
11/10/2021 9:30:00 PM 7.55 45.59 0.047 7.17 4.91 10.84
11/10/2021 9:45:00 PM 7.47 45.446 0.047 7.16 5.06 10.86
11/10/2021 10:00:00 PM 7.39 45.302 0.047 7.16 5.15 10.88
11/10/2021 10:15:00 PM 7.32 45.176 0.047 7.16 5 10.91
11/10/2021 10:30:00 PM 7.24 45.032 0.047 7.16 4.81 10.94
11/10/2021 10:45:00 PM 7.16 44.888 0.047 7.16 4.78 10.96
11/10/2021 11:00:00 PM 7.09 44.762 0.047 7.14 5.05 10.99
11/10/2021 11:15:00 PM 7.01 44.618 0.047 7.15 4.98 11.01
11/10/2021 11:30:00 PM 6.93 44.474 0.047 7.15 4.93 11.03
11/10/2021 11:45:00 PM 6.86 44.348 0.047 7.15 4.72 11.05
11/11/2021 12:00:00 AM 6.79 44.222 0.047 7.14 4.89 11.07
11/11/2021 12:15:00 AM 6.72 44.096 0.047 7.15 5.07 11.1
11/11/2021 12:30:00 AM 6.65 43.97 0.047 7.14 4.9 11.12
11/11/2021 12:45:00 AM 6.59 43.862 0.047 7.14 5.5 11.13
11/11/2021 1:00:00 AM 6.52 43.736 0.047 7.14 4.88 11.15
11/11/2021 1:15:00 AM 6.46 43.628 0.047 7.14 4.83 11.17
11/11/2021 1:30:00 AM 6.4 43.52 0.047 7.14 4.73 11.19
11/11/2021 1:45:00 AM 6.34 43.412 0.047 7.13 4.77 11.21
11/11/2021 2:00:00 AM 6.29 43.322 0.047 7.13 4.91 11.22
11/11/2021 2:15:00 AM 6.23 43.214 0.047 7.14 4.97 11.24
11/11/2021 2:30:00 AM 6.18 43.124 0.047 7.13 4.89 11.26
11/11/2021 2:45:00 AM 6.13 43.034 0.047 7.13 5.1 11.27
11/11/2021 3:00:00 AM 6.08 42.944 0.047 7.14 4.95 11.29
11/11/2021 3:15:00 AM 6.03 42.854 0.047 7.13 4.82 11.31
11/11/2021 3:30:00 AM 5.98 42.764 0.047 7.13 4.89 11.32
11/11/2021 3:45:00 AM 5.94 42.692 0.047 7.13 5.15 11.33
11/11/2021 4:00:00 AM 5.9 42.62 0.047 7.13 4.71 11.35
11/11/2021 4:15:00 AM 5.88 42.584 0.047 7.13 5.09 11.36
11/11/2021 4:30:00 AM 5.85 42.53 0.047 7.13 4.88 11.37
11/11/2021 4:45:00 AM 5.82 42.476 0.047 7.13 4.88 11.37
11/11/2021 5:00:00 AM 5.81 42.458 0.047 7.13 5.12 11.38
11/11/2021 5:15:00 AM 5.8 42.44 0.047 7.14 4.89 11.39
11/11/2021 5:30:00 AM 5.78 42.404 0.047 7.13 4.81 11.39
11/11/2021 5:45:00 AM 5.75 42.35 0.047 7.13 4.73 11.4
11/11/2021 6:00:00 AM 5.72 42.296 0.047 7.13 4.9 11.41
11/11/2021 6:15:00 AM 5.69 42.242 0.047 7.13 4.61 11.41
11/11/2021 6:30:00 AM 5.66 42.188 0.047 7.13 4.83 11.42
11/11/2021 6:45:00 AM 5.64 42.152 0.047 7.13 5 11.43
11/11/2021 7:00:00 AM 5.62 42.116 0.047 7.13 5.38 11.43
11/11/2021 7:15:00 AM 5.6 42.08 0.047 7.13 4.89 11.44
11/11/2021 7:30:00 AM 5.58 42.044 0.047 7.12 5.08 11.44
11/11/2021 7:45:00 AM 5.55 41.99 0.047 7.13 5.16 11.45
11/11/2021 8:00:00 AM 5.53 41.954 0.047 7.13 4.84 11.46
11/11/2021 8:15:00 AM 5.5 41.9 0.047 7.13 5.15 11.49
11/11/2021 8:30:00 AM 5.48 41.864 0.047 7.14 5.07 11.53
11/11/2021 8:45:00 AM 5.48 41.864 0.047 7.15 5.2 11.58
11/11/2021 9:00:00 AM 5.49 41.882 0.047 7.17 4.93 11.65
11/11/2021 9:15:00 AM 5.51 41.918 0.047 7.19 5.08 11.7
11/11/2021 9:30:00 AM 5.53 41.954 0.047 7.19 4.79 11.73
11/11/2021 9:45:00 AM 5.56 42.008 0.047 7.21 4.86 11.76
11/11/2021 10:00:00 AM 5.61 42.098 0.047 7.23 4.57 11.8
11/11/2021 10:15:00 AM 5.67 42.206 0.047 7.25 4.82 11.82
11/11/2021 10:30:00 AM 5.73 42.314 0.047 7.26 4.83 11.82
11/11/2021 10:45:00 AM 5.81 42.458 0.047 7.27 4.98 11.83
11/11/2021 11:00:00 AM 5.91 42.638 0.047 7.28 4.39 11.83
11/11/2021 11:15:00 AM 5.99 42.782 0.046 7.3 5.01 11.81
11/11/2021 11:30:00 AM 6.07 42.926 0.046 7.31 4.63 11.79
11/11/2021 11:45:00 AM 6.16 43.088 0.046 7.32 4.84 11.78
11/11/2021 12:00:00 PM 6.23 43.214 0.046 7.33 4.74 11.74
11/11/2021 12:15:00 PM 6.32 43.376 0.046 7.34 4.66 11.72
11/11/2021 12:30:00 PM 6.44 43.592 0.046 7.35 4.91 11.71
11/11/2021 12:45:00 PM 6.54 43.772 0.046 7.36 4.8 11.67
11/11/2021 1:00:00 PM 6.63 43.934 0.046 7.36 4.91 11.64
11/11/2021 1:15:00 PM 6.78 44.204 0.046 7.38 4.65 11.62
11/11/2021 1:30:00 PM 6.9 44.42 0.046 7.39 4.82 11.58
11/11/2021 1:45:00 PM 7.04 44.672 0.046 7.39 4.73 11.54
11/11/2021 2:00:00 PM 7.14 44.852 0.046 7.4 4.84 11.5
11/11/2021 2:15:00 PM 7.23 45.014 0.046 7.4 5.15 11.47
11/11/2021 2:30:00 PM 7.32 45.176 0.046 7.4 4.89 11.44
11/11/2021 2:45:00 PM 7.38 45.284 0.046 7.4 4.94 11.39
11/11/2021 3:00:00 PM 7.47 45.446 0.046 7.41 4.89 11.37
11/11/2021 3:15:00 PM 7.57 45.626 0.046 7.41 4.72 11.35
11/11/2021 3:30:00 PM 7.66 45.788 0.046 7.42 4.9 11.31
11/11/2021 3:45:00 PM 7.77 45.986 0.046 7.42 4.63 11.29
11/11/2021 4:00:00 PM 7.84 46.112 0.046 7.41 4.51 11.24
11/11/2021 4:15:00 PM 7.87 46.166 0.046 7.39 4.51 11.19
11/11/2021 4:30:00 PM 7.91 46.238 0.046 7.4 4.61 11.17
11/11/2021 4:45:00 PM 7.93 46.274 0.046 7.38 4.86 11.12
11/11/2021 5:00:00 PM 7.95 46.31 0.046 7.38 4.94 11.09
11/11/2021 5:15:00 PM 7.95 46.31 0.046 7.35 4.89 11.02
11/11/2021 5:30:00 PM 7.97 46.346 0.046 7.33 4.7 10.95
11/11/2021 5:45:00 PM 7.98 46.364 0.046 7.32 4.78 10.89
11/11/2021 6:00:00 PM 7.97 46.346 0.046 7.29 4.76 10.83
11/11/2021 6:15:00 PM 7.96 46.328 0.047 7.28 4.66 10.79
11/11/2021 6:30:00 PM 7.96 46.328 0.047 7.26 5.03 10.75
11/11/2021 6:45:00 PM 7.98 46.364 0.047 7.25 4.87 10.72
11/11/2021 7:00:00 PM 7.99 46.382 0.047 7.25 4.9 10.71
11/11/2021 7:15:00 PM 8.01 46.418 0.047 7.24 4.69 10.69
11/11/2021 7:30:00 PM 8.02 46.436 0.047 7.23 5.1 10.68
11/11/2021 7:45:00 PM 8.04 46.472 0.047 7.24 5.11 10.67
11/11/2021 8:00:00 PM 8.05 46.49 0.047 7.24 4.71 10.66
11/11/2021 8:15:00 PM 8.06 46.508 0.047 7.23 4.47 10.65
11/11/2021 8:30:00 PM 8.08 46.544 0.047 7.23 4.92 10.65
11/11/2021 8:45:00 PM 8.09 46.562 0.047 7.24 4.86 10.64
11/11/2021 9:00:00 PM 8.11 46.598 0.047 7.23 5.11 10.63
11/11/2021 9:15:00 PM 8.13 46.634 0.048 7.23 5.31 10.62
11/11/2021 9:30:00 PM 8.15 46.67 0.047 7.23 4.8 10.62
11/11/2021 9:45:00 PM 8.18 46.724 0.047 7.24 4.96 10.61
11/11/2021 10:00:00 PM 8.21 46.778 0.048 7.24 5 10.6
11/11/2021 10:15:00 PM 8.23 46.814 0.048 7.24 4.74 10.59
11/11/2021 10:30:00 PM 8.26 46.868 0.048 7.24 4.9 10.58
11/11/2021 10:45:00 PM 8.28 46.904 0.048 7.24 4.91 10.58
11/11/2021 11:00:00 PM 8.3 46.94 0.048 7.25 5.02 10.56
11/11/2021 11:15:00 PM 8.32 46.976 0.048 7.24 4.91 10.56
11/11/2021 11:30:00 PM 8.33 46.994 0.048 7.24 5.04 10.56
11/11/2021 11:45:00 PM 8.35 47.03 0.048 7.23 4.75 10.54
11/12/2021 12:00:00 AM 8.37 47.066 0.048 7.24 5.14 10.54
11/12/2021 12:15:00 AM 8.39 47.102 0.048 7.22 4.98 10.53
11/12/2021 12:30:00 AM 8.4 47.12 0.048 7.21 5 10.52
11/12/2021 12:45:00 AM 8.43 47.174 0.048 7.22 5.09 10.5
11/12/2021 1:00:00 AM 8.44 47.192 0.048 7.22 5.11 10.5
11/12/2021 1:15:00 AM 8.46 47.228 0.048 7.21 5.05 10.49
11/12/2021 1:30:00 AM 8.47 47.246 0.048 7.21 5.15 10.48
11/12/2021 1:45:00 AM 8.5 47.3 0.048 7.21 5.05 10.48
11/12/2021 2:00:00 AM 8.52 47.336 0.048 7.21 5.15 10.47
11/12/2021 2:15:00 AM 8.55 47.39 0.048 7.21 4.81 10.46
11/12/2021 2:30:00 AM 8.59 47.462 0.048 7.22 4.98 10.45
11/12/2021 2:45:00 AM 8.62 47.516 0.048 7.22 5.19 10.43
11/12/2021 3:00:00 AM 8.67 47.606 0.048 7.23 5.18 10.42
11/12/2021 3:15:00 AM 8.69 47.642 0.048 7.22 5 10.41
11/12/2021 3:30:00 AM 8.73 47.714 0.048 7.22 4.86 10.4
11/12/2021 3:45:00 AM 8.75 47.75 0.048 7.21 5.15 10.39
11/12/2021 4:00:00 AM 8.77 47.786 0.048 7.2 5.03 10.39
11/12/2021 4:15:00 AM 8.8 47.84 0.048 7.21 5.27 10.37
11/12/2021 4:30:00 AM 8.83 47.894 0.048 7.2 5.3 10.36
11/12/2021 4:45:00 AM 8.87 47.966 0.048 7.22 5.05 10.35
11/12/2021 5:00:00 AM 8.89 48.002 0.048 7.21 5.03 10.34
11/12/2021 5:15:00 AM 8.91 48.038 0.048 7.2 5.02 10.33
11/12/2021 5:30:00 AM 8.92 48.056 0.048 7.19 5.85 10.33
11/12/2021 5:45:00 AM 8.93 48.074 0.048 7.18 5.75 10.32
11/12/2021 6:00:00 AM 8.94 48.092 0.048 7.18 5.96 10.31
11/12/2021 6:15:00 AM 8.96 48.128 0.048 7.17 5.65 10.31
11/12/2021 6:30:00 AM 8.97 48.146 0.048 7.16 6.15 10.3
11/12/2021 6:45:00 AM 8.98 48.164 0.048 7.16 6.3 10.29
11/12/2021 7:00:00 AM 8.98 48.164 0.049 7.15 6.54 10.29
11/12/2021 7:15:00 AM 8.98 48.164 0.049 7.16 6.71 10.29
11/12/2021 7:30:00 AM 8.98 48.164 0.049 7.15 7.25 10.3
11/12/2021 7:45:00 AM 8.98 48.164 0.05 7.15 7.12 10.3
11/12/2021 8:00:00 AM 8.98 48.164 0.05 7.15 7.82 10.3
11/12/2021 8:15:00 AM 8.97 48.146 0.05 7.16 7.23 10.31
11/12/2021 8:30:00 AM 8.95 48.11 0.05 7.17 7.92 10.32
11/12/2021 8:45:00 AM 8.93 48.074 0.051 7.18 8.24 10.34
11/12/2021 9:00:00 AM 8.92 48.056 0.051 7.18 7.25 10.37
11/12/2021 9:15:00 AM 8.91 48.038 0.051 7.2 7.39 10.41
11/12/2021 9:30:00 AM 8.89 48.002 0.052 7.22 7.46 10.46
11/12/2021 9:45:00 AM 8.87 47.966 0.052 7.23 7.73 10.5
11/12/2021 10:00:00 AM 8.85 47.93 0.052 7.24 7.01 10.55
11/12/2021 10:15:00 AM 8.81 47.858 0.052 7.24 7.56 10.58
11/12/2021 10:30:00 AM 8.83 47.894 0.051 7.28 6.99 10.66
11/12/2021 10:45:00 AM 8.81 47.858 0.051 7.27 6.93 10.68
11/12/2021 11:00:00 AM 8.81 47.858 0.051 7.28 6.31 10.7
11/12/2021 11:15:00 AM 8.81 47.858 0.051 7.3 6.67 10.72
11/12/2021 11:30:00 AM 8.83 47.894 0.051 7.31 6.6 10.75
11/12/2021 11:45:00 AM 8.84 47.912 0.051 7.32 6.62 10.76
11/12/2021 12:00:00 PM 8.86 47.948 0.051 7.33 6.47 10.77
11/12/2021 12:15:00 PM 8.88 47.984 0.051 7.34 6.42 10.79
11/12/2021 12:30:00 PM 8.91 48.038 0.051 7.35 5.96 10.79
11/12/2021 12:45:00 PM 8.94 48.092 0.052 7.35 5.81 10.8
11/12/2021 1:00:00 PM 8.96 48.128 0.052 7.35 5.75 10.79
11/12/2021 1:15:00 PM 9 48.2 0.052 7.37 5.8 10.79
11/12/2021 1:30:00 PM 9.01 48.218 0.052 7.36 6.21 10.77
11/12/2021 1:45:00 PM 9.04 48.272 0.052 7.37 6.02 10.78
11/12/2021 2:00:00 PM 9.08 48.344 0.052 7.38 5.85 10.78
11/12/2021 2:15:00 PM 9.11 48.398 0.052 7.38 5.94 10.76
11/12/2021 2:30:00 PM 9.12 48.416 0.053 7.38 5.89 10.76
11/12/2021 2:45:00 PM 9.15 48.47 0.053 7.38 5.76 10.77
11/12/2021 3:00:00 PM 9.12 48.416 0.053 7.38 5.72 10.73
11/12/2021 3:15:00 PM 9.08 48.344 0.053 7.37 5.64 10.71
11/12/2021 3:30:00 PM 9.03 48.254 0.053 7.36 5.76 10.69
11/12/2021 3:45:00 PM 9.01 48.218 0.053 7.36 5.94 10.72
11/12/2021 4:00:00 PM 9 48.2 0.054 7.38 6.25 10.73
11/12/2021 4:15:00 PM 8.96 48.128 0.054 7.36 5.81 10.69
11/12/2021 4:30:00 PM 8.93 48.074 0.054 7.36 5.86 10.68
11/12/2021 4:45:00 PM 8.87 47.966 0.054 7.35 6.07 10.66
11/12/2021 5:00:00 PM 8.81 47.858 0.054 7.34 5.61 10.66
11/12/2021 5:15:00 PM 8.76 47.768 0.054 7.33 6.1 10.64
11/12/2021 5:30:00 PM 8.71 47.678 0.054 7.32 5.83 10.61
11/12/2021 5:45:00 PM 8.67 47.606 0.054 7.3 5.83 10.57
11/12/2021 6:00:00 PM 8.62 47.516 0.054 7.28 5.79 10.55
11/12/2021 6:15:00 PM 8.55 47.39 0.055 7.27 5.97 10.52
11/12/2021 6:30:00 PM 8.49 47.282 0.055 7.26 5.71 10.51
11/12/2021 6:45:00 PM 8.41 47.138 0.055 7.25 6.23 10.51
11/12/2021 7:00:00 PM 8.34 47.012 0.055 7.24 6.07 10.51
11/12/2021 7:15:00 PM 8.26 46.868 0.055 7.24 6.11 10.54
11/12/2021 7:30:00 PM 8.19 46.742 0.055 7.22 5.82 10.55
11/12/2021 7:45:00 PM 8.11 46.598 0.055 7.23 5.81 10.56
11/12/2021 8:00:00 PM 8.03 46.454 0.055 7.22 5.94 10.58
11/12/2021 8:15:00 PM 7.95 46.31 0.054 7.21 5.51 10.6
11/12/2021 8:30:00 PM 7.88 46.184 0.054 7.22 5.72 10.62
11/12/2021 8:45:00 PM 7.8 46.04 0.054 7.21 5.64 10.64
11/12/2021 9:00:00 PM 7.72 45.896 0.054 7.21 5.59 10.66
11/12/2021 9:15:00 PM 7.64 45.752 0.054 7.19 5.49 10.68
11/12/2021 9:30:00 PM 7.57 45.626 0.054 7.2 5.28 10.7
11/12/2021 9:45:00 PM 7.51 45.518 0.054 7.2 5.68 10.72
11/12/2021 10:00:00 PM 7.46 45.428 0.054 7.2 5.76 10.74
11/12/2021 10:15:00 PM 7.41 45.338 0.054 7.21 6.34 10.75
11/12/2021 10:30:00 PM 7.35 45.23 0.054 7.2 5.65 10.77
11/12/2021 10:45:00 PM 7.28 45.104 0.054 7.19 5.48 10.78
11/12/2021 11:00:00 PM 7.21 44.978 0.054 7.19 6.02 10.8
11/12/2021 11:15:00 PM 7.14 44.852 0.054 7.19 5.4 10.83
11/12/2021 11:30:00 PM 7.08 44.744 0.054 7.19 5.25 10.84
11/12/2021 11:45:00 PM 7.01 44.618 0.054 7.19 5.39 10.86
11/13/2021 12:00:00 AM 6.97 44.546 0.053 7.17 5.26 10.87
11/13/2021 12:15:00 AM 6.92 44.456 0.053 7.18 5.57 10.89
11/13/2021 12:30:00 AM 6.86 44.348 0.053 7.18 5.58 10.9
11/13/2021 12:45:00 AM 6.81 44.258 0.053 7.18 5.46 10.92
11/13/2021 1:00:00 AM 6.75 44.15 0.053 7.17 5.27 10.94
11/13/2021 1:15:00 AM 6.68 44.024 0.053 7.17 5.44 10.95
11/13/2021 1:30:00 AM 6.62 43.916 0.053 7.17 5.52 10.96
11/13/2021 1:45:00 AM 6.58 43.844 0.053 7.18 5.64 10.97
11/13/2021 2:00:00 AM 6.53 43.754 0.053 7.17 5.24 10.99
11/13/2021 2:15:00 AM 6.49 43.682 0.053 7.17 5.17 11
11/13/2021 2:30:00 AM 6.46 43.628 0.053 7.18 5.2 11.01
11/13/2021 2:45:00 AM 6.44 43.592 0.053 7.17 5.05 11.01
11/13/2021 3:00:00 AM 6.4 43.52 0.053 7.17 5.11 11.02
11/13/2021 3:15:00 AM 6.38 43.484 0.053 7.17 5.07 11.04
11/13/2021 3:30:00 AM 6.36 43.448 0.053 7.17 5.49 11.04
11/13/2021 3:45:00 AM 6.34 43.412 0.053 7.16 5.38 11.05
11/13/2021 4:00:00 AM 6.33 43.394 0.053 7.17 5.4 11.06
11/13/2021 4:15:00 AM 6.32 43.376 0.052 7.17 5.43 11.06
11/13/2021 4:30:00 AM 6.31 43.358 0.053 7.17 5.76 11.06
11/13/2021 4:45:00 AM 6.3 43.34 0.052 7.17 5.94 11.07
11/13/2021 5:00:00 AM 6.29 43.322 0.052 7.18 5.48 11.06
11/13/2021 5:15:00 AM 6.28 43.304 0.052 7.17 5.43 11.07
11/13/2021 5:30:00 AM 6.27 43.286 0.052 7.17 5.48 11.07
11/13/2021 5:45:00 AM 6.27 43.286 0.052 7.17 5.33 11.07
11/13/2021 6:00:00 AM 6.26 43.268 0.052 7.16 5.78 11.07
11/13/2021 6:15:00 AM 6.26 43.268 0.052 7.17 5.36 11.07
11/13/2021 6:30:00 AM 6.26 43.268 0.052 7.17 5.51 11.07
11/13/2021 6:45:00 AM 6.26 43.268 0.052 7.16 5.27 11.07
11/13/2021 7:00:00 AM 6.26 43.268 0.052 7.17 5.49 11.07
11/13/2021 7:15:00 AM 6.27 43.286 0.052 7.17 4.92 11.07
11/13/2021 7:30:00 AM 6.28 43.304 0.052 7.17 5.18 11.07
11/13/2021 7:45:00 AM 6.29 43.322 0.052 7.17 5.3 11.06
11/13/2021 8:00:00 AM 6.3 43.34 0.052 7.18 5.03 11.06
11/13/2021 8:15:00 AM 6.32 43.376 0.052 7.18 5.14 11.06
11/13/2021 8:30:00 AM 6.35 43.43 0.052 7.18 4.99 11.06
11/13/2021 8:45:00 AM 6.37 43.466 0.052 7.19 5.46 11.07
11/13/2021 9:00:00 AM 6.4 43.52 0.052 7.2 5.25 11.07
11/13/2021 9:15:00 AM 6.43 43.574 0.052 7.2 5.5 11.08
11/13/2021 9:30:00 AM 6.46 43.628 0.051 7.22 4.92 11.1
11/13/2021 9:45:00 AM 6.5 43.7 0.051 7.23 5.1 11.12
11/13/2021 10:00:00 AM 6.54 43.772 0.051 7.24 5.15 11.19
11/13/2021 10:15:00 AM 6.58 43.844 0.051 7.26 5.15 11.21
11/13/2021 10:30:00 AM 6.6 43.88 0.051 7.26 5.13 11.18
11/13/2021 10:45:00 AM 6.6 43.88 0.051 7.27 4.82 11.21
11/13/2021 11:00:00 AM 6.65 43.97 0.051 7.3 5.27 11.29
11/13/2021 11:15:00 AM 6.68 44.024 0.051 7.3 4.9 11.3
11/13/2021 11:30:00 AM 6.68 44.024 0.051 7.32 4.97 11.32
11/13/2021 11:45:00 AM 6.71 44.078 0.05 7.33 5.14 11.34
11/13/2021 12:00:00 PM 6.75 44.15 0.05 7.34 5 11.37
11/13/2021 12:15:00 PM 6.78 44.204 0.05 7.35 5.07 11.38
11/13/2021 12:30:00 PM 6.82 44.276 0.05 7.36 5.47 11.39
11/13/2021 12:45:00 PM 6.83 44.294 0.05 7.36 5.19 11.38
11/13/2021 1:00:00 PM 6.85 44.33 0.05 7.36 5.05 11.38
11/13/2021 1:15:00 PM 6.84 44.312 0.05 7.36 5.02 11.36
11/13/2021 1:30:00 PM 6.88 44.384 0.05 7.38 5.04 11.38
11/13/2021 1:45:00 PM 6.91 44.438 0.05 7.39 5.23 11.38
11/13/2021 2:00:00 PM 6.95 44.51 0.05 7.4 5.4 11.38
11/13/2021 2:15:00 PM 6.97 44.546 0.05 7.4 5.27 11.37
11/13/2021 2:30:00 PM 6.99 44.582 0.05 7.4 4.84 11.37
11/13/2021 2:45:00 PM 6.99 44.582 0.05 7.4 5.32 11.36
11/13/2021 3:00:00 PM 6.97 44.546 0.05 7.39 4.67 11.35
11/13/2021 3:15:00 PM 6.9 44.42 0.05 7.38 5.1 11.31
11/13/2021 3:30:00 PM 6.88 44.384 0.05 7.37 5.33 11.32
11/13/2021 3:45:00 PM 6.88 44.384 0.05 7.38 5.02 11.34
11/13/2021 4:00:00 PM 6.84 44.312 0.05 7.36 4.93 11.27
11/13/2021 4:15:00 PM 6.79 44.222 0.05 7.33 4.9 11.23
11/13/2021 4:30:00 PM 6.75 44.15 0.05 7.32 5 11.21
11/13/2021 4:45:00 PM 6.71 44.078 0.05 7.31 6 11.19
11/13/2021 5:00:00 PM 6.66 43.988 0.05 7.3 5.31 11.17
11/13/2021 5:15:00 PM 6.63 43.934 0.05 7.29 4.83 11.14
11/13/2021 5:30:00 PM 6.6 43.88 0.05 7.27 5.01 11.13
11/13/2021 5:45:00 PM 6.57 43.826 0.05 7.26 4.91 11.09
11/13/2021 6:00:00 PM 6.54 43.772 0.05 7.25 4.62 11.07
11/13/2021 6:15:00 PM 6.5 43.7 0.05 7.24 5.1 11.06
11/13/2021 6:30:00 PM 6.46 43.628 0.05 7.24 5.02 11.05
11/13/2021 6:45:00 PM 6.44 43.592 0.05 7.23 5.1 11.05
11/13/2021 7:00:00 PM 6.41 43.538 0.05 7.22 5.3 11.05
11/13/2021 7:15:00 PM 6.4 43.52 0.05 7.22 5.44 11.05
11/13/2021 7:30:00 PM 6.38 43.484 0.051 7.22 5.21 11.05
11/13/2021 7:45:00 PM 6.35 43.43 0.051 7.22 5.48 11.06
11/13/2021 8:00:00 PM 6.33 43.394 0.051 7.21 5.05 11.07
11/13/2021 8:15:00 PM 6.31 43.358 0.051 7.21 5.59 11.07
11/13/2021 8:30:00 PM 6.3 43.34 0.051 7.21 5.26 11.08
11/13/2021 8:45:00 PM 6.27 43.286 0.051 7.21 5.15 11.09
11/13/2021 9:00:00 PM 6.24 43.232 0.051 7.2 4.93 11.09
11/13/2021 9:15:00 PM 6.23 43.214 0.051 7.2 5.2 11.09
11/13/2021 9:30:00 PM 6.22 43.196 0.051 7.2 5.15 11.1
11/13/2021 9:45:00 PM 6.19 43.142 0.051 7.2 5.19 11.11
11/13/2021 10:00:00 PM 6.18 43.124 0.051 7.2 5.1 11.11
11/13/2021 10:15:00 PM 6.16 43.088 0.051 7.2 5.06 11.12
11/13/2021 10:30:00 PM 6.12 43.016 0.051 7.19 5.17 11.13
11/13/2021 10:45:00 PM 6.1 42.98 0.051 7.2 5.33 11.14
11/13/2021 11:00:00 PM 6.07 42.926 0.051 7.2 5.22 11.15
11/13/2021 11:15:00 PM 6.05 42.89 0.051 7.2 5.12 11.15
11/13/2021 11:30:00 PM 6.04 42.872 0.051 7.2 5.03 11.16
11/13/2021 11:45:00 PM 6.02 42.836 0.051 7.2 4.86 11.17
11/14/2021 12:00:00 AM 6.01 42.818 0.051 7.19 5 11.17
11/14/2021 12:15:00 AM 6 42.8 0.051 7.19 4.96 11.18
11/14/2021 12:30:00 AM 5.99 42.782 0.051 7.19 5.21 11.18
11/14/2021 12:45:00 AM 5.97 42.746 0.051 7.19 5 11.19
11/14/2021 1:00:00 AM 5.96 42.728 0.051 7.19 5.03 11.19
11/14/2021 1:15:00 AM 5.93 42.674 0.051 7.19 4.97 11.2
11/14/2021 1:30:00 AM 5.91 42.638 0.051 7.19 5.02 11.21
11/14/2021 1:45:00 AM 5.9 42.62 0.051 7.18 5.2 11.21
11/14/2021 2:00:00 AM 5.89 42.602 0.051 7.18 5.68 11.22
11/14/2021 2:15:00 AM 5.88 42.584 0.051 7.19 5.05 11.22
11/14/2021 2:30:00 AM 5.86 42.548 0.05 7.19 4.92 11.23
11/14/2021 2:45:00 AM 5.86 42.548 0.051 7.18 5.06 11.23
11/14/2021 3:00:00 AM 5.84 42.512 0.051 7.19 5.1 11.24
11/14/2021 3:15:00 AM 5.84 42.512 0.05 7.18 4.86 11.24
11/14/2021 3:30:00 AM 5.83 42.494 0.05 7.19 5.13 11.24
11/14/2021 3:45:00 AM 5.82 42.476 0.05 7.19 4.99 11.25
11/14/2021 4:00:00 AM 5.81 42.458 0.05 7.18 5.27 11.25
11/14/2021 4:15:00 AM 5.8 42.44 0.05 7.18 4.99 11.26
11/14/2021 4:30:00 AM 5.79 42.422 0.05 7.18 5.26 11.26
11/14/2021 4:45:00 AM 5.79 42.422 0.05 7.18 5.03 11.26
11/14/2021 5:00:00 AM 5.77 42.386 0.05 7.18 4.78 11.26
11/14/2021 5:15:00 AM 5.77 42.386 0.05 7.18 5.13 11.26
11/14/2021 5:30:00 AM 5.76 42.368 0.05 7.17 4.9 11.27
11/14/2021 5:45:00 AM 5.75 42.35 0.05 7.19 5.06 11.27
11/14/2021 6:00:00 AM 5.75 42.35 0.05 7.18 5.04 11.28
11/14/2021 6:15:00 AM 5.74 42.332 0.05 7.18 5.29 11.28
11/14/2021 6:30:00 AM 5.73 42.314 0.05 7.18 5.4 11.28
11/14/2021 6:45:00 AM 5.72 42.296 0.05 7.18 4.98 11.28
11/14/2021 7:00:00 AM 5.71 42.278 0.05 7.18 4.93 11.29
11/14/2021 7:15:00 AM 5.7 42.26 0.05 7.18 5.02 11.29
11/14/2021 7:30:00 AM 5.69 42.242 0.05 7.18 5.06 11.3
11/14/2021 7:45:00 AM 5.68 42.224 0.05 7.18 4.98 11.3
11/14/2021 8:00:00 AM 5.67 42.206 0.05 7.18 5.11 11.3
11/14/2021 8:15:00 AM 5.66 42.188 0.05 7.18 5.27 11.31
11/14/2021 8:30:00 AM 5.66 42.188 0.05 7.19 5.3 11.35
11/14/2021 8:45:00 AM 5.66 42.188 0.05 7.2 5.4 11.38
11/14/2021 9:00:00 AM 5.67 42.206 0.05 7.21 5.19 11.42
11/14/2021 9:15:00 AM 5.67 42.206 0.05 7.22 6.69 11.46
11/14/2021 9:30:00 AM 5.67 42.206 0.05 7.22 5.02 11.47
11/14/2021 9:45:00 AM 5.68 42.224 0.05 7.23 4.87 11.49
11/14/2021 10:00:00 AM 5.68 42.224 0.05 7.23 4.8 11.52
11/14/2021 10:15:00 AM 5.7 42.26 0.05 7.25 4.88 11.56
11/14/2021 10:30:00 AM 5.74 42.332 0.05 7.28 5.07 11.63
11/14/2021 10:45:00 AM 5.79 42.422 0.05 7.3 4.83 11.66
11/14/2021 11:00:00 AM 5.83 42.494 0.05 7.3 5.18 11.68
11/14/2021 11:15:00 AM 5.86 42.548 0.05 7.32 5.02 11.7
11/14/2021 11:30:00 AM 5.91 42.638 0.05 7.34 4.98 11.71
11/14/2021 11:45:00 AM 5.96 42.728 0.049 7.35 4.73 11.72
11/14/2021 12:00:00 PM 5.99 42.782 0.049 7.36 4.71 11.7
11/14/2021 12:15:00 PM 6.05 42.89 0.049 7.37 5.05 11.71
11/14/2021 12:30:00 PM 6.08 42.944 0.049 7.36 5 11.69
11/14/2021 12:45:00 PM 6.12 43.016 0.049 7.37 5.06 11.67
11/14/2021 1:00:00 PM 6.19 43.142 0.049 7.39 5.58 11.67
11/14/2021 1:15:00 PM 6.21 43.178 0.049 7.38 4.89 11.64
11/14/2021 1:30:00 PM 6.22 43.196 0.049 7.37 5.15 11.62
11/14/2021 1:45:00 PM 6.24 43.232 0.049 7.38 4.87 11.6
11/14/2021 2:00:00 PM 6.24 43.232 0.049 7.38 4.93 11.58
11/14/2021 2:15:00 PM 6.27 43.286 0.049 7.38 5.12 11.59
11/14/2021 2:30:00 PM 6.28 43.304 0.049 7.38 5.28 11.57
11/14/2021 2:45:00 PM 6.29 43.322 0.049 7.36 4.82 11.53
11/14/2021 3:00:00 PM 6.3 43.34 0.049 7.37 4.85 11.54
11/14/2021 3:15:00 PM 6.3 43.34 0.049 7.36 4.71 11.51
11/14/2021 3:30:00 PM 6.3 43.34 0.049 7.35 5.01 11.45
11/14/2021 3:45:00 PM 6.28 43.304 0.049 7.34 5.17 11.41
11/14/2021 4:00:00 PM 6.27 43.286 0.049 7.33 5.04 11.38
11/14/2021 4:15:00 PM 6.25 43.25 0.049 7.3 5.25 11.34
11/14/2021 4:30:00 PM 6.23 43.214 0.049 7.3 4.74 11.29
11/14/2021 4:45:00 PM 6.22 43.196 0.049 7.28 5.07 11.27
11/14/2021 5:00:00 PM 6.17 43.106 0.049 7.28 4.92 11.25
11/14/2021 5:15:00 PM 6.1 42.98 0.049 7.26 5.22 11.24
11/14/2021 5:30:00 PM 6.01 42.818 0.049 7.24 5.6 11.23
11/14/2021 5:45:00 PM 5.95 42.71 0.049 7.24 5.03 11.21
11/14/2021 6:00:00 PM 5.89 42.602 0.05 7.22 5 11.2
11/14/2021 6:15:00 PM 5.8 42.44 0.05 7.21 5.06 11.2
11/14/2021 6:30:00 PM 5.72 42.296 0.05 7.2 5.05 11.2
11/14/2021 6:45:00 PM 5.63 42.134 0.05 7.2 5.21 11.22
11/14/2021 7:00:00 PM 5.55 41.99 0.05 7.19 5.05 11.24
11/14/2021 7:15:00 PM 5.51 41.918 0.05 7.19 5.1 11.25
11/14/2021 7:30:00 PM 5.47 41.846 0.05 7.18 5.28 11.28
11/14/2021 7:45:00 PM 5.43 41.774 0.05 7.18 4.93 11.28
11/14/2021 8:00:00 PM 5.4 41.72 0.05 7.18 5.18 11.3
11/14/2021 8:15:00 PM 5.37 41.666 0.05 7.19 5.2 11.31
11/14/2021 8:30:00 PM 5.35 41.63 0.05 7.18 5.11 11.32
11/14/2021 8:45:00 PM 5.33 41.594 0.05 7.18 5.35 11.33
11/14/2021 9:00:00 PM 5.32 41.576 0.05 7.18 4.93 11.34
11/14/2021 9:15:00 PM 5.32 41.576 0.05 7.18 5.2 11.34
11/14/2021 9:30:00 PM 5.32 41.576 0.05 7.17 5.41 11.34
11/14/2021 9:45:00 PM 5.31 41.558 0.05 7.18 5.5 11.34
11/14/2021 10:00:00 PM 5.31 41.558 0.05 7.18 5.18 11.34
11/14/2021 10:15:00 PM 5.31 41.558 0.05 7.17 5.11 11.35
11/14/2021 10:30:00 PM 5.31 41.558 0.05 7.17 5.24 11.34
11/14/2021 10:45:00 PM 5.31 41.558 0.05 7.18 4.89 11.34
11/14/2021 11:00:00 PM 5.3 41.54 0.05 7.17 4.78 11.35
11/14/2021 11:15:00 PM 5.29 41.522 0.05 7.17 5 11.35
11/14/2021 11:30:00 PM 5.29 41.522 0.05 7.17 5.32 11.35
11/14/2021 11:45:00 PM 5.28 41.504 0.05 7.17 5.05 11.36
11/15/2021 12:00:00 AM 5.27 41.486 0.05 7.17 5 11.36
11/15/2021 12:15:00 AM 5.26 41.468 0.05 7.18 4.85 11.36
11/15/2021 12:30:00 AM 5.25 41.45 0.05 7.17 4.98 11.36
11/15/2021 12:45:00 AM 5.24 41.432 0.05 7.18 4.96 11.37
11/15/2021 1:00:00 AM 5.24 41.432 0.05 7.17 5.48 11.36
11/15/2021 1:15:00 AM 5.23 41.414 0.05 7.16 5.03 11.36
11/15/2021 1:30:00 AM 5.23 41.414 0.05 7.17 5 11.37
11/15/2021 1:45:00 AM 5.23 41.414 0.05 7.17 4.82 11.37
11/15/2021 2:00:00 AM 5.22 41.396 0.05 7.17 4.98 11.37
11/15/2021 2:15:00 AM 5.23 41.414 0.05 7.17 5.09 11.37
11/15/2021 2:30:00 AM 5.24 41.432 0.05 7.18 5.19 11.36
11/15/2021 2:45:00 AM 5.24 41.432 0.05 7.17 5.08 11.36
11/15/2021 3:00:00 AM 5.25 41.45 0.05 7.17 5 11.36
11/15/2021 3:15:00 AM 5.25 41.45 0.05 7.17 4.94 11.37
11/15/2021 3:30:00 AM 5.25 41.45 0.05 7.17 5.09 11.36
11/15/2021 3:45:00 AM 5.25 41.45 0.05 7.17 5.11 11.36
11/15/2021 4:00:00 AM 5.25 41.45 0.05 7.17 5.31 11.36
11/15/2021 4:15:00 AM 5.22 41.396 0.05 7.17 5.29 11.36
11/15/2021 4:30:00 AM 5.22 41.396 0.05 7.17 5.1 11.36
11/15/2021 4:45:00 AM 5.22 41.396 0.05 7.17 5 11.37
11/15/2021 5:00:00 AM 5.21 41.378 0.05 7.17 5.08 11.38
11/15/2021 5:15:00 AM 5.21 41.378 0.05 7.18 5.16 11.37
11/15/2021 5:30:00 AM 5.2 41.36 0.05 7.17 5.13 11.37
11/15/2021 5:45:00 AM 5.2 41.36 0.05 7.18 4.85 11.38
11/15/2021 6:00:00 AM 5.2 41.36 0.05 7.17 4.98 11.38
11/15/2021 6:15:00 AM 5.2 41.36 0.05 7.17 5.04 11.38
11/15/2021 6:30:00 AM 5.18 41.324 0.051 7.16 5.18 11.38
11/15/2021 6:45:00 AM 5.17 41.306 0.051 7.17 4.83 11.38
11/15/2021 7:00:00 AM 5.16 41.288 0.051 7.16 5.19 11.39
11/15/2021 7:15:00 AM 5.16 41.288 0.051 7.17 5.09 11.39
11/15/2021 7:30:00 AM 5.15 41.27 0.051 7.17 5.23 11.39
11/15/2021 7:45:00 AM 5.15 41.27 0.051 7.17 5.28 11.4
11/15/2021 8:00:00 AM 5.16 41.288 0.051 7.17 4.97 11.4
11/15/2021 8:15:00 AM 5.16 41.288 0.051 7.17 5.3 11.41
11/15/2021 8:30:00 AM 5.16 41.288 0.051 7.18 5.05 11.43
11/15/2021 8:45:00 AM 5.16 41.288 0.051 7.18 5.28 11.44
11/15/2021 9:00:00 AM 5.15 41.27 0.051 7.17 4.93 11.47
11/15/2021 9:15:00 AM 5.15 41.27 0.051 7.19 4.87 11.5
11/15/2021 9:30:00 AM 5.17 41.306 0.051